<?xml version="1.0" encoding="UTF-8" standalone="no" ?>
<gpx xmlns="http://www.topografix.com/GPX/1/1" xmlns:xsi="http://www.w3.org/2001/XMLSchema-instance" xsi:schemaLocation="http://www.topografix.com/GPX/1/1 http://www.topografix.com/GPX/1/1/gpx.xsd" version="1.1" creator="VisuGPX - https://www.visugpx.com">
  <metadata>
    <name>RSPFY-Méridon </name>
    <desc><![CDATA[Boucle de marche nordique dans le bois de Méridon.]]></desc>
  </metadata>
  <trk>
    <name><![CDATA[2019-03-14 09:27]]></name>
    <trkseg>
      <trkpt lat="48.69446" lon="2.03709">
        <ele>164</ele>
        <time>2019-03-14T08:30:21Z</time>
      </trkpt>
      <trkpt lat="48.69449" lon="2.03702">
        <ele>164</ele>
        <time>2019-03-14T08:31:39Z</time>
      </trkpt>
      <trkpt lat="48.69452" lon="2.03696">
        <ele>164</ele>
        <time>2019-03-14T08:31:43Z</time>
      </trkpt>
      <trkpt lat="48.69446" lon="2.03689">
        <ele>164</ele>
        <time>2019-03-14T08:31:51Z</time>
      </trkpt>
      <trkpt lat="48.69441" lon="2.03686">
        <ele>163</ele>
        <time>2019-03-14T08:31:57Z</time>
      </trkpt>
      <trkpt lat="48.69436" lon="2.03685">
        <ele>163</ele>
        <time>2019-03-14T08:32:01Z</time>
      </trkpt>
      <trkpt lat="48.69431" lon="2.03686">
        <ele>163</ele>
        <time>2019-03-14T08:32:05Z</time>
      </trkpt>
      <trkpt lat="48.69427" lon="2.03682">
        <ele>163</ele>
        <time>2019-03-14T08:32:11Z</time>
      </trkpt>
      <trkpt lat="48.69421" lon="2.03681">
        <ele>163</ele>
        <time>2019-03-14T08:32:35Z</time>
      </trkpt>
      <trkpt lat="48.69414" lon="2.0368">
        <ele>162</ele>
        <time>2019-03-14T08:32:39Z</time>
      </trkpt>
      <trkpt lat="48.69408" lon="2.03677">
        <ele>162</ele>
        <time>2019-03-14T08:32:43Z</time>
      </trkpt>
      <trkpt lat="48.69404" lon="2.03675">
        <ele>162</ele>
        <time>2019-03-14T08:32:47Z</time>
      </trkpt>
      <trkpt lat="48.69398" lon="2.03674">
        <ele>162</ele>
        <time>2019-03-14T08:32:51Z</time>
      </trkpt>
      <trkpt lat="48.69392" lon="2.03672">
        <ele>162</ele>
        <time>2019-03-14T08:32:55Z</time>
      </trkpt>
      <trkpt lat="48.69385" lon="2.03671">
        <ele>162</ele>
        <time>2019-03-14T08:33:01Z</time>
      </trkpt>
      <trkpt lat="48.69379" lon="2.03667">
        <ele>162</ele>
        <time>2019-03-14T08:33:07Z</time>
      </trkpt>
      <trkpt lat="48.69373" lon="2.03662">
        <ele>160</ele>
        <time>2019-03-14T08:33:13Z</time>
      </trkpt>
      <trkpt lat="48.69368" lon="2.03662">
        <ele>160</ele>
        <time>2019-03-14T08:33:17Z</time>
      </trkpt>
      <trkpt lat="48.69363" lon="2.03662">
        <ele>160</ele>
        <time>2019-03-14T08:33:21Z</time>
      </trkpt>
      <trkpt lat="48.69357" lon="2.03658">
        <ele>160</ele>
        <time>2019-03-14T08:33:25Z</time>
      </trkpt>
      <trkpt lat="48.69353" lon="2.03655">
        <ele>159</ele>
        <time>2019-03-14T08:33:27Z</time>
      </trkpt>
      <trkpt lat="48.69348" lon="2.03652">
        <ele>159</ele>
        <time>2019-03-14T08:33:31Z</time>
      </trkpt>
      <trkpt lat="48.69343" lon="2.03648">
        <ele>159</ele>
        <time>2019-03-14T08:33:33Z</time>
      </trkpt>
      <trkpt lat="48.69338" lon="2.03644">
        <ele>159</ele>
        <time>2019-03-14T08:33:37Z</time>
      </trkpt>
      <trkpt lat="48.69332" lon="2.0364">
        <ele>159</ele>
        <time>2019-03-14T08:33:41Z</time>
      </trkpt>
      <trkpt lat="48.69327" lon="2.0364">
        <ele>159</ele>
        <time>2019-03-14T08:33:45Z</time>
      </trkpt>
      <trkpt lat="48.69322" lon="2.03638">
        <ele>159</ele>
        <time>2019-03-14T08:33:49Z</time>
      </trkpt>
      <trkpt lat="48.69317" lon="2.03635">
        <ele>159</ele>
        <time>2019-03-14T08:33:55Z</time>
      </trkpt>
      <trkpt lat="48.69311" lon="2.0363">
        <ele>158</ele>
        <time>2019-03-14T08:33:59Z</time>
      </trkpt>
      <trkpt lat="48.69305" lon="2.03625">
        <ele>158</ele>
        <time>2019-03-14T08:34:03Z</time>
      </trkpt>
      <trkpt lat="48.69301" lon="2.03619">
        <ele>158</ele>
        <time>2019-03-14T08:34:07Z</time>
      </trkpt>
      <trkpt lat="48.69296" lon="2.03615">
        <ele>158</ele>
        <time>2019-03-14T08:34:11Z</time>
      </trkpt>
      <trkpt lat="48.69292" lon="2.03611">
        <ele>158</ele>
        <time>2019-03-14T08:34:15Z</time>
      </trkpt>
      <trkpt lat="48.69285" lon="2.03608">
        <ele>159</ele>
        <time>2019-03-14T08:34:19Z</time>
      </trkpt>
      <trkpt lat="48.69279" lon="2.03604">
        <ele>159</ele>
        <time>2019-03-14T08:34:23Z</time>
      </trkpt>
      <trkpt lat="48.69273" lon="2.03595">
        <ele>159</ele>
        <time>2019-03-14T08:34:27Z</time>
      </trkpt>
      <trkpt lat="48.69269" lon="2.03589">
        <ele>159</ele>
        <time>2019-03-14T08:34:31Z</time>
      </trkpt>
      <trkpt lat="48.69263" lon="2.03582">
        <ele>159</ele>
        <time>2019-03-14T08:34:35Z</time>
      </trkpt>
      <trkpt lat="48.69256" lon="2.03575">
        <ele>160</ele>
        <time>2019-03-14T08:34:39Z</time>
      </trkpt>
      <trkpt lat="48.69251" lon="2.03571">
        <ele>159</ele>
        <time>2019-03-14T08:34:43Z</time>
      </trkpt>
      <trkpt lat="48.69245" lon="2.03567">
        <ele>161</ele>
        <time>2019-03-14T08:34:47Z</time>
      </trkpt>
      <trkpt lat="48.69238" lon="2.03565">
        <ele>160</ele>
        <time>2019-03-14T08:34:53Z</time>
      </trkpt>
      <trkpt lat="48.69233" lon="2.03563">
        <ele>160</ele>
        <time>2019-03-14T08:34:57Z</time>
      </trkpt>
      <trkpt lat="48.69228" lon="2.03561">
        <ele>160</ele>
        <time>2019-03-14T08:35:01Z</time>
      </trkpt>
      <trkpt lat="48.69226" lon="2.03553">
        <ele>160</ele>
        <time>2019-03-14T08:35:05Z</time>
      </trkpt>
      <trkpt lat="48.69222" lon="2.03546">
        <ele>160</ele>
        <time>2019-03-14T08:35:13Z</time>
      </trkpt>
      <trkpt lat="48.69216" lon="2.03541">
        <ele>160</ele>
        <time>2019-03-14T08:35:19Z</time>
      </trkpt>
      <trkpt lat="48.6921" lon="2.03542">
        <ele>160</ele>
        <time>2019-03-14T08:35:23Z</time>
      </trkpt>
      <trkpt lat="48.69204" lon="2.03539">
        <ele>160</ele>
        <time>2019-03-14T08:35:27Z</time>
      </trkpt>
      <trkpt lat="48.69199" lon="2.03537">
        <ele>160</ele>
        <time>2019-03-14T08:35:31Z</time>
      </trkpt>
      <trkpt lat="48.69193" lon="2.03533">
        <ele>160</ele>
        <time>2019-03-14T08:35:37Z</time>
      </trkpt>
      <trkpt lat="48.69187" lon="2.0353">
        <ele>160</ele>
        <time>2019-03-14T08:35:43Z</time>
      </trkpt>
      <trkpt lat="48.69181" lon="2.03525">
        <ele>160</ele>
        <time>2019-03-14T08:35:47Z</time>
      </trkpt>
      <trkpt lat="48.69177" lon="2.03519">
        <ele>160</ele>
        <time>2019-03-14T08:35:51Z</time>
      </trkpt>
      <trkpt lat="48.69171" lon="2.03512">
        <ele>161</ele>
        <time>2019-03-14T08:35:55Z</time>
      </trkpt>
      <trkpt lat="48.69167" lon="2.03507">
        <ele>161</ele>
        <time>2019-03-14T08:35:57Z</time>
      </trkpt>
      <trkpt lat="48.69162" lon="2.03502">
        <ele>160</ele>
        <time>2019-03-14T08:36:01Z</time>
      </trkpt>
      <trkpt lat="48.69158" lon="2.03495">
        <ele>161</ele>
        <time>2019-03-14T08:36:05Z</time>
      </trkpt>
      <trkpt lat="48.69154" lon="2.03488">
        <ele>161</ele>
        <time>2019-03-14T08:36:11Z</time>
      </trkpt>
      <trkpt lat="48.69149" lon="2.03484">
        <ele>160</ele>
        <time>2019-03-14T08:36:15Z</time>
      </trkpt>
      <trkpt lat="48.69145" lon="2.03481">
        <ele>160</ele>
        <time>2019-03-14T08:36:19Z</time>
      </trkpt>
      <trkpt lat="48.69141" lon="2.03476">
        <ele>160</ele>
        <time>2019-03-14T08:36:23Z</time>
      </trkpt>
      <trkpt lat="48.69136" lon="2.0347">
        <ele>160</ele>
        <time>2019-03-14T08:36:27Z</time>
      </trkpt>
      <trkpt lat="48.69133" lon="2.03463">
        <ele>160</ele>
        <time>2019-03-14T08:36:33Z</time>
      </trkpt>
      <trkpt lat="48.69129" lon="2.03455">
        <ele>160</ele>
        <time>2019-03-14T08:36:37Z</time>
      </trkpt>
      <trkpt lat="48.69128" lon="2.03448">
        <ele>160</ele>
        <time>2019-03-14T08:36:41Z</time>
      </trkpt>
      <trkpt lat="48.69129" lon="2.03438">
        <ele>161</ele>
        <time>2019-03-14T08:36:45Z</time>
      </trkpt>
      <trkpt lat="48.6913" lon="2.03429">
        <ele>161</ele>
        <time>2019-03-14T08:36:51Z</time>
      </trkpt>
      <trkpt lat="48.69132" lon="2.03423">
        <ele>161</ele>
        <time>2019-03-14T08:36:55Z</time>
      </trkpt>
      <trkpt lat="48.69135" lon="2.03412">
        <ele>162</ele>
        <time>2019-03-14T08:36:59Z</time>
      </trkpt>
      <trkpt lat="48.69136" lon="2.03401">
        <ele>163</ele>
        <time>2019-03-14T08:37:03Z</time>
      </trkpt>
      <trkpt lat="48.69135" lon="2.03392">
        <ele>163</ele>
        <time>2019-03-14T08:37:07Z</time>
      </trkpt>
      <trkpt lat="48.69134" lon="2.03384">
        <ele>163</ele>
        <time>2019-03-14T08:37:09Z</time>
      </trkpt>
      <trkpt lat="48.69134" lon="2.03375">
        <ele>163</ele>
        <time>2019-03-14T08:37:11Z</time>
      </trkpt>
      <trkpt lat="48.69136" lon="2.03363">
        <ele>163</ele>
        <time>2019-03-14T08:37:15Z</time>
      </trkpt>
      <trkpt lat="48.69139" lon="2.03357">
        <ele>163</ele>
        <time>2019-03-14T08:37:19Z</time>
      </trkpt>
      <trkpt lat="48.69144" lon="2.03349">
        <ele>163</ele>
        <time>2019-03-14T08:37:25Z</time>
      </trkpt>
      <trkpt lat="48.69144" lon="2.03339">
        <ele>163</ele>
        <time>2019-03-14T08:37:29Z</time>
      </trkpt>
      <trkpt lat="48.69142" lon="2.03329">
        <ele>165</ele>
        <time>2019-03-14T08:37:33Z</time>
      </trkpt>
      <trkpt lat="48.69141" lon="2.03322">
        <ele>165</ele>
        <time>2019-03-14T08:37:37Z</time>
      </trkpt>
      <trkpt lat="48.69141" lon="2.03312">
        <ele>165</ele>
        <time>2019-03-14T08:37:41Z</time>
      </trkpt>
      <trkpt lat="48.69143" lon="2.03302">
        <ele>165</ele>
        <time>2019-03-14T08:37:45Z</time>
      </trkpt>
      <trkpt lat="48.69143" lon="2.03293">
        <ele>165</ele>
        <time>2019-03-14T08:37:49Z</time>
      </trkpt>
      <trkpt lat="48.69144" lon="2.03285">
        <ele>165</ele>
        <time>2019-03-14T08:37:53Z</time>
      </trkpt>
      <trkpt lat="48.69148" lon="2.0328">
        <ele>165</ele>
        <time>2019-03-14T08:37:57Z</time>
      </trkpt>
      <trkpt lat="48.69151" lon="2.03272">
        <ele>165</ele>
        <time>2019-03-14T08:38:01Z</time>
      </trkpt>
      <trkpt lat="48.69152" lon="2.03264">
        <ele>165</ele>
        <time>2019-03-14T08:38:05Z</time>
      </trkpt>
      <trkpt lat="48.69155" lon="2.03258">
        <ele>164</ele>
        <time>2019-03-14T08:38:09Z</time>
      </trkpt>
      <trkpt lat="48.69156" lon="2.0325">
        <ele>165</ele>
        <time>2019-03-14T08:38:13Z</time>
      </trkpt>
      <trkpt lat="48.69157" lon="2.03237">
        <ele>165</ele>
        <time>2019-03-14T08:38:19Z</time>
      </trkpt>
      <trkpt lat="48.69158" lon="2.03227">
        <ele>166</ele>
        <time>2019-03-14T08:38:23Z</time>
      </trkpt>
      <trkpt lat="48.69158" lon="2.03218">
        <ele>167</ele>
        <time>2019-03-14T08:38:27Z</time>
      </trkpt>
      <trkpt lat="48.69159" lon="2.0321">
        <ele>167</ele>
        <time>2019-03-14T08:38:31Z</time>
      </trkpt>
      <trkpt lat="48.6916" lon="2.03203">
        <ele>167</ele>
        <time>2019-03-14T08:38:35Z</time>
      </trkpt>
      <trkpt lat="48.6916" lon="2.03194">
        <ele>167</ele>
        <time>2019-03-14T08:38:39Z</time>
      </trkpt>
      <trkpt lat="48.69159" lon="2.03185">
        <ele>167</ele>
        <time>2019-03-14T08:38:43Z</time>
      </trkpt>
      <trkpt lat="48.6916" lon="2.03178">
        <ele>167</ele>
        <time>2019-03-14T08:38:47Z</time>
      </trkpt>
      <trkpt lat="48.6916" lon="2.03169">
        <ele>167</ele>
        <time>2019-03-14T08:38:53Z</time>
      </trkpt>
      <trkpt lat="48.6916" lon="2.03161">
        <ele>167</ele>
        <time>2019-03-14T08:38:59Z</time>
      </trkpt>
      <trkpt lat="48.69161" lon="2.03154">
        <ele>167</ele>
        <time>2019-03-14T08:39:03Z</time>
      </trkpt>
      <trkpt lat="48.69159" lon="2.03144">
        <ele>167</ele>
        <time>2019-03-14T08:39:07Z</time>
      </trkpt>
      <trkpt lat="48.69162" lon="2.03132">
        <ele>167</ele>
        <time>2019-03-14T08:39:13Z</time>
      </trkpt>
      <trkpt lat="48.69168" lon="2.0312">
        <ele>163</ele>
        <time>2019-03-14T08:39:17Z</time>
      </trkpt>
      <trkpt lat="48.69171" lon="2.03112">
        <ele>163</ele>
        <time>2019-03-14T08:39:21Z</time>
      </trkpt>
      <trkpt lat="48.69176" lon="2.03106">
        <ele>163</ele>
        <time>2019-03-14T08:39:27Z</time>
      </trkpt>
      <trkpt lat="48.69182" lon="2.03099">
        <ele>163</ele>
        <time>2019-03-14T08:39:35Z</time>
      </trkpt>
      <trkpt lat="48.69185" lon="2.03093">
        <ele>163</ele>
        <time>2019-03-14T08:39:41Z</time>
      </trkpt>
      <trkpt lat="48.69189" lon="2.03088">
        <ele>163</ele>
        <time>2019-03-14T08:39:45Z</time>
      </trkpt>
      <trkpt lat="48.69194" lon="2.03081">
        <ele>161</ele>
        <time>2019-03-14T08:39:49Z</time>
      </trkpt>
      <trkpt lat="48.69202" lon="2.03077">
        <ele>161</ele>
        <time>2019-03-14T08:39:53Z</time>
      </trkpt>
      <trkpt lat="48.69208" lon="2.03081">
        <ele>160</ele>
        <time>2019-03-14T08:39:59Z</time>
      </trkpt>
      <trkpt lat="48.69214" lon="2.0308">
        <ele>160</ele>
        <time>2019-03-14T08:40:05Z</time>
      </trkpt>
      <trkpt lat="48.69217" lon="2.03074">
        <ele>160</ele>
        <time>2019-03-14T08:40:09Z</time>
      </trkpt>
      <trkpt lat="48.69221" lon="2.03069">
        <ele>159</ele>
        <time>2019-03-14T08:40:13Z</time>
      </trkpt>
      <trkpt lat="48.69223" lon="2.0306">
        <ele>159</ele>
        <time>2019-03-14T08:40:21Z</time>
      </trkpt>
      <trkpt lat="48.69226" lon="2.03054">
        <ele>159</ele>
        <time>2019-03-14T08:40:25Z</time>
      </trkpt>
      <trkpt lat="48.69226" lon="2.03045">
        <ele>159</ele>
        <time>2019-03-14T08:40:31Z</time>
      </trkpt>
      <trkpt lat="48.69227" lon="2.03039">
        <ele>159</ele>
        <time>2019-03-14T08:40:35Z</time>
      </trkpt>
      <trkpt lat="48.69228" lon="2.0303">
        <ele>158</ele>
        <time>2019-03-14T08:40:39Z</time>
      </trkpt>
      <trkpt lat="48.69229" lon="2.0302">
        <ele>158</ele>
        <time>2019-03-14T08:40:43Z</time>
      </trkpt>
      <trkpt lat="48.69228" lon="2.03012">
        <ele>158</ele>
        <time>2019-03-14T08:40:47Z</time>
      </trkpt>
      <trkpt lat="48.69229" lon="2.03003">
        <ele>157</ele>
        <time>2019-03-14T08:40:51Z</time>
      </trkpt>
      <trkpt lat="48.69229" lon="2.02994">
        <ele>156</ele>
        <time>2019-03-14T08:40:55Z</time>
      </trkpt>
      <trkpt lat="48.69229" lon="2.02987">
        <ele>156</ele>
        <time>2019-03-14T08:40:59Z</time>
      </trkpt>
      <trkpt lat="48.69228" lon="2.02976">
        <ele>157</ele>
        <time>2019-03-14T08:41:03Z</time>
      </trkpt>
      <trkpt lat="48.69226" lon="2.02969">
        <ele>157</ele>
        <time>2019-03-14T08:41:07Z</time>
      </trkpt>
      <trkpt lat="48.69226" lon="2.02962">
        <ele>157</ele>
        <time>2019-03-14T08:41:11Z</time>
      </trkpt>
      <trkpt lat="48.69225" lon="2.02953">
        <ele>157</ele>
        <time>2019-03-14T08:41:15Z</time>
      </trkpt>
      <trkpt lat="48.69223" lon="2.02941">
        <ele>156</ele>
        <time>2019-03-14T08:41:19Z</time>
      </trkpt>
      <trkpt lat="48.69222" lon="2.02934">
        <ele>156</ele>
        <time>2019-03-14T08:41:21Z</time>
      </trkpt>
      <trkpt lat="48.69219" lon="2.02923">
        <ele>156</ele>
        <time>2019-03-14T08:41:25Z</time>
      </trkpt>
      <trkpt lat="48.69219" lon="2.02914">
        <ele>155</ele>
        <time>2019-03-14T08:41:29Z</time>
      </trkpt>
      <trkpt lat="48.69218" lon="2.02904">
        <ele>155</ele>
        <time>2019-03-14T08:41:33Z</time>
      </trkpt>
      <trkpt lat="48.69216" lon="2.02897">
        <ele>155</ele>
        <time>2019-03-14T08:41:35Z</time>
      </trkpt>
      <trkpt lat="48.69216" lon="2.02888">
        <ele>155</ele>
        <time>2019-03-14T08:41:41Z</time>
      </trkpt>
      <trkpt lat="48.69217" lon="2.0288">
        <ele>155</ele>
        <time>2019-03-14T08:41:45Z</time>
      </trkpt>
      <trkpt lat="48.69216" lon="2.02873">
        <ele>155</ele>
        <time>2019-03-14T08:41:49Z</time>
      </trkpt>
      <trkpt lat="48.69217" lon="2.0286">
        <ele>155</ele>
        <time>2019-03-14T08:41:53Z</time>
      </trkpt>
      <trkpt lat="48.69218" lon="2.02853">
        <ele>155</ele>
        <time>2019-03-14T08:41:55Z</time>
      </trkpt>
      <trkpt lat="48.6922" lon="2.02844">
        <ele>154</ele>
        <time>2019-03-14T08:41:59Z</time>
      </trkpt>
      <trkpt lat="48.6922" lon="2.02834">
        <ele>154</ele>
        <time>2019-03-14T08:42:03Z</time>
      </trkpt>
      <trkpt lat="48.6922" lon="2.02826">
        <ele>153</ele>
        <time>2019-03-14T08:42:07Z</time>
      </trkpt>
      <trkpt lat="48.69221" lon="2.02818">
        <ele>153</ele>
        <time>2019-03-14T08:42:13Z</time>
      </trkpt>
      <trkpt lat="48.69216" lon="2.02811">
        <ele>153</ele>
        <time>2019-03-14T08:42:19Z</time>
      </trkpt>
      <trkpt lat="48.69211" lon="2.02804">
        <ele>154</ele>
        <time>2019-03-14T08:42:27Z</time>
      </trkpt>
      <trkpt lat="48.69208" lon="2.02798">
        <ele>154</ele>
        <time>2019-03-14T08:42:33Z</time>
      </trkpt>
      <trkpt lat="48.69204" lon="2.02788">
        <ele>154</ele>
        <time>2019-03-14T08:42:37Z</time>
      </trkpt>
      <trkpt lat="48.69201" lon="2.02782">
        <ele>154</ele>
        <time>2019-03-14T08:42:43Z</time>
      </trkpt>
      <trkpt lat="48.69197" lon="2.02775">
        <ele>154</ele>
        <time>2019-03-14T08:42:47Z</time>
      </trkpt>
      <trkpt lat="48.69193" lon="2.02766">
        <ele>155</ele>
        <time>2019-03-14T08:42:53Z</time>
      </trkpt>
      <trkpt lat="48.69188" lon="2.02759">
        <ele>155</ele>
        <time>2019-03-14T08:42:57Z</time>
      </trkpt>
      <trkpt lat="48.69185" lon="2.02753">
        <ele>155</ele>
        <time>2019-03-14T08:43:01Z</time>
      </trkpt>
      <trkpt lat="48.69183" lon="2.02747">
        <ele>155</ele>
        <time>2019-03-14T08:43:05Z</time>
      </trkpt>
      <trkpt lat="48.69178" lon="2.0274">
        <ele>155</ele>
        <time>2019-03-14T08:43:09Z</time>
      </trkpt>
      <trkpt lat="48.69176" lon="2.0273">
        <ele>154</ele>
        <time>2019-03-14T08:43:15Z</time>
      </trkpt>
      <trkpt lat="48.69171" lon="2.02724">
        <ele>154</ele>
        <time>2019-03-14T08:43:21Z</time>
      </trkpt>
      <trkpt lat="48.69167" lon="2.02722">
        <ele>154</ele>
        <time>2019-03-14T08:43:25Z</time>
      </trkpt>
      <trkpt lat="48.69165" lon="2.02715">
        <ele>158</ele>
        <time>2019-03-14T08:43:29Z</time>
      </trkpt>
      <trkpt lat="48.69164" lon="2.02709">
        <ele>158</ele>
        <time>2019-03-14T08:43:33Z</time>
      </trkpt>
      <trkpt lat="48.6916" lon="2.02702">
        <ele>158</ele>
        <time>2019-03-14T08:43:37Z</time>
      </trkpt>
      <trkpt lat="48.69156" lon="2.02694">
        <ele>158</ele>
        <time>2019-03-14T08:43:43Z</time>
      </trkpt>
      <trkpt lat="48.69154" lon="2.02683">
        <ele>157</ele>
        <time>2019-03-14T08:43:47Z</time>
      </trkpt>
      <trkpt lat="48.69151" lon="2.02672">
        <ele>157</ele>
        <time>2019-03-14T08:43:51Z</time>
      </trkpt>
      <trkpt lat="48.69147" lon="2.02665">
        <ele>157</ele>
        <time>2019-03-14T08:43:55Z</time>
      </trkpt>
      <trkpt lat="48.69143" lon="2.02657">
        <ele>158</ele>
        <time>2019-03-14T08:43:59Z</time>
      </trkpt>
      <trkpt lat="48.6914" lon="2.02648">
        <ele>158</ele>
        <time>2019-03-14T08:44:03Z</time>
      </trkpt>
      <trkpt lat="48.69134" lon="2.02641">
        <ele>158</ele>
        <time>2019-03-14T08:44:11Z</time>
      </trkpt>
      <trkpt lat="48.69132" lon="2.02631">
        <ele>158</ele>
        <time>2019-03-14T08:44:15Z</time>
      </trkpt>
      <trkpt lat="48.69126" lon="2.02624">
        <ele>159</ele>
        <time>2019-03-14T08:44:19Z</time>
      </trkpt>
      <trkpt lat="48.69121" lon="2.02617">
        <ele>159</ele>
        <time>2019-03-14T08:44:23Z</time>
      </trkpt>
      <trkpt lat="48.69115" lon="2.02613">
        <ele>159</ele>
        <time>2019-03-14T08:44:27Z</time>
      </trkpt>
      <trkpt lat="48.69112" lon="2.02606">
        <ele>159</ele>
        <time>2019-03-14T08:44:31Z</time>
      </trkpt>
      <trkpt lat="48.69107" lon="2.02596">
        <ele>160</ele>
        <time>2019-03-14T08:44:35Z</time>
      </trkpt>
      <trkpt lat="48.69103" lon="2.02589">
        <ele>160</ele>
        <time>2019-03-14T08:44:39Z</time>
      </trkpt>
      <trkpt lat="48.69098" lon="2.02583">
        <ele>160</ele>
        <time>2019-03-14T08:44:43Z</time>
      </trkpt>
      <trkpt lat="48.69094" lon="2.02575">
        <ele>160</ele>
        <time>2019-03-14T08:44:47Z</time>
      </trkpt>
      <trkpt lat="48.6909" lon="2.02571">
        <ele>160</ele>
        <time>2019-03-14T08:44:51Z</time>
      </trkpt>
      <trkpt lat="48.69086" lon="2.02566">
        <ele>160</ele>
        <time>2019-03-14T08:44:55Z</time>
      </trkpt>
      <trkpt lat="48.69081" lon="2.02563">
        <ele>164</ele>
        <time>2019-03-14T08:44:59Z</time>
      </trkpt>
      <trkpt lat="48.69076" lon="2.02559">
        <ele>164</ele>
        <time>2019-03-14T08:45:03Z</time>
      </trkpt>
      <trkpt lat="48.6907" lon="2.02554">
        <ele>164</ele>
        <time>2019-03-14T08:45:07Z</time>
      </trkpt>
      <trkpt lat="48.69065" lon="2.02549">
        <ele>165</ele>
        <time>2019-03-14T08:45:11Z</time>
      </trkpt>
      <trkpt lat="48.69061" lon="2.02543">
        <ele>165</ele>
        <time>2019-03-14T08:45:15Z</time>
      </trkpt>
      <trkpt lat="48.69057" lon="2.02537">
        <ele>165</ele>
        <time>2019-03-14T08:45:19Z</time>
      </trkpt>
      <trkpt lat="48.69055" lon="2.0253">
        <ele>165</ele>
        <time>2019-03-14T08:45:21Z</time>
      </trkpt>
      <trkpt lat="48.69053" lon="2.02522">
        <ele>165</ele>
        <time>2019-03-14T08:45:25Z</time>
      </trkpt>
      <trkpt lat="48.69048" lon="2.02511">
        <ele>165</ele>
        <time>2019-03-14T08:45:29Z</time>
      </trkpt>
      <trkpt lat="48.69044" lon="2.02505">
        <ele>166</ele>
        <time>2019-03-14T08:45:33Z</time>
      </trkpt>
      <trkpt lat="48.6904" lon="2.02499">
        <ele>166</ele>
        <time>2019-03-14T08:45:37Z</time>
      </trkpt>
      <trkpt lat="48.69034" lon="2.02494">
        <ele>166</ele>
        <time>2019-03-14T08:45:41Z</time>
      </trkpt>
      <trkpt lat="48.6903" lon="2.02485">
        <ele>166</ele>
        <time>2019-03-14T08:45:45Z</time>
      </trkpt>
      <trkpt lat="48.69028" lon="2.02475">
        <ele>166</ele>
        <time>2019-03-14T08:45:49Z</time>
      </trkpt>
      <trkpt lat="48.69025" lon="2.02467">
        <ele>166</ele>
        <time>2019-03-14T08:45:55Z</time>
      </trkpt>
      <trkpt lat="48.69022" lon="2.02457">
        <ele>166</ele>
        <time>2019-03-14T08:45:59Z</time>
      </trkpt>
      <trkpt lat="48.69019" lon="2.02451">
        <ele>166</ele>
        <time>2019-03-14T08:46:03Z</time>
      </trkpt>
      <trkpt lat="48.69015" lon="2.02442">
        <ele>167</ele>
        <time>2019-03-14T08:46:09Z</time>
      </trkpt>
      <trkpt lat="48.69009" lon="2.02435">
        <ele>167</ele>
        <time>2019-03-14T08:46:13Z</time>
      </trkpt>
      <trkpt lat="48.69003" lon="2.0243">
        <ele>168</ele>
        <time>2019-03-14T08:46:17Z</time>
      </trkpt>
      <trkpt lat="48.68999" lon="2.02422">
        <ele>169</ele>
        <time>2019-03-14T08:46:21Z</time>
      </trkpt>
      <trkpt lat="48.68996" lon="2.0241">
        <ele>168</ele>
        <time>2019-03-14T08:46:25Z</time>
      </trkpt>
      <trkpt lat="48.68991" lon="2.02403">
        <ele>167</ele>
        <time>2019-03-14T08:46:29Z</time>
      </trkpt>
      <trkpt lat="48.68986" lon="2.02396">
        <ele>167</ele>
        <time>2019-03-14T08:46:33Z</time>
      </trkpt>
      <trkpt lat="48.68981" lon="2.02391">
        <ele>166</ele>
        <time>2019-03-14T08:46:37Z</time>
      </trkpt>
      <trkpt lat="48.68976" lon="2.02385">
        <ele>166</ele>
        <time>2019-03-14T08:46:41Z</time>
      </trkpt>
      <trkpt lat="48.68971" lon="2.0238">
        <ele>166</ele>
        <time>2019-03-14T08:46:45Z</time>
      </trkpt>
      <trkpt lat="48.68963" lon="2.02374">
        <ele>166</ele>
        <time>2019-03-14T08:46:53Z</time>
      </trkpt>
      <trkpt lat="48.68959" lon="2.02369">
        <ele>165</ele>
        <time>2019-03-14T08:46:55Z</time>
      </trkpt>
      <trkpt lat="48.68954" lon="2.02371">
        <ele>166</ele>
        <time>2019-03-14T08:46:59Z</time>
      </trkpt>
      <trkpt lat="48.68948" lon="2.02373">
        <ele>166</ele>
        <time>2019-03-14T08:47:09Z</time>
      </trkpt>
      <trkpt lat="48.68942" lon="2.02379">
        <ele>166</ele>
        <time>2019-03-14T08:47:15Z</time>
      </trkpt>
      <trkpt lat="48.68937" lon="2.0238">
        <ele>166</ele>
        <time>2019-03-14T08:47:21Z</time>
      </trkpt>
      <trkpt lat="48.68934" lon="2.02386">
        <ele>167</ele>
        <time>2019-03-14T08:47:25Z</time>
      </trkpt>
      <trkpt lat="48.68929" lon="2.02392">
        <ele>167</ele>
        <time>2019-03-14T08:47:29Z</time>
      </trkpt>
      <trkpt lat="48.68925" lon="2.02398">
        <ele>168</ele>
        <time>2019-03-14T08:47:33Z</time>
      </trkpt>
      <trkpt lat="48.68922" lon="2.02404">
        <ele>168</ele>
        <time>2019-03-14T08:47:37Z</time>
      </trkpt>
      <trkpt lat="48.68917" lon="2.02407">
        <ele>169</ele>
        <time>2019-03-14T08:47:41Z</time>
      </trkpt>
      <trkpt lat="48.68914" lon="2.02412">
        <ele>170</ele>
        <time>2019-03-14T08:47:53Z</time>
      </trkpt>
      <trkpt lat="48.68914" lon="2.02419">
        <ele>170</ele>
        <time>2019-03-14T08:48:15Z</time>
      </trkpt>
      <trkpt lat="48.68907" lon="2.02421">
        <ele>171</ele>
        <time>2019-03-14T08:48:39Z</time>
      </trkpt>
      <trkpt lat="48.689" lon="2.02418">
        <ele>171</ele>
        <time>2019-03-14T08:48:45Z</time>
      </trkpt>
      <trkpt lat="48.68894" lon="2.02416">
        <ele>170</ele>
        <time>2019-03-14T08:48:51Z</time>
      </trkpt>
      <trkpt lat="48.68887" lon="2.02416">
        <ele>170</ele>
        <time>2019-03-14T08:48:57Z</time>
      </trkpt>
      <trkpt lat="48.68882" lon="2.02415">
        <ele>170</ele>
        <time>2019-03-14T08:49:03Z</time>
      </trkpt>
      <trkpt lat="48.68877" lon="2.02414">
        <ele>171</ele>
        <time>2019-03-14T08:49:07Z</time>
      </trkpt>
      <trkpt lat="48.68872" lon="2.02413">
        <ele>171</ele>
        <time>2019-03-14T08:49:11Z</time>
      </trkpt>
      <trkpt lat="48.68867" lon="2.0241">
        <ele>171</ele>
        <time>2019-03-14T08:49:15Z</time>
      </trkpt>
      <trkpt lat="48.68862" lon="2.02409">
        <ele>171</ele>
        <time>2019-03-14T08:49:19Z</time>
      </trkpt>
      <trkpt lat="48.68856" lon="2.02406">
        <ele>171</ele>
        <time>2019-03-14T08:49:23Z</time>
      </trkpt>
      <trkpt lat="48.68849" lon="2.02402">
        <ele>172</ele>
        <time>2019-03-14T08:49:29Z</time>
      </trkpt>
      <trkpt lat="48.68844" lon="2.02398">
        <ele>172</ele>
        <time>2019-03-14T08:49:33Z</time>
      </trkpt>
      <trkpt lat="48.68839" lon="2.02396">
        <ele>172</ele>
        <time>2019-03-14T08:49:37Z</time>
      </trkpt>
      <trkpt lat="48.68833" lon="2.02393">
        <ele>172</ele>
        <time>2019-03-14T08:49:43Z</time>
      </trkpt>
      <trkpt lat="48.68827" lon="2.02392">
        <ele>172</ele>
        <time>2019-03-14T08:49:47Z</time>
      </trkpt>
      <trkpt lat="48.68821" lon="2.02387">
        <ele>172</ele>
        <time>2019-03-14T08:49:51Z</time>
      </trkpt>
      <trkpt lat="48.68816" lon="2.02386">
        <ele>171</ele>
        <time>2019-03-14T08:49:53Z</time>
      </trkpt>
      <trkpt lat="48.6881" lon="2.02382">
        <ele>171</ele>
        <time>2019-03-14T08:49:57Z</time>
      </trkpt>
      <trkpt lat="48.68805" lon="2.0238">
        <ele>171</ele>
        <time>2019-03-14T08:50:01Z</time>
      </trkpt>
      <trkpt lat="48.68798" lon="2.02379">
        <ele>171</ele>
        <time>2019-03-14T08:50:05Z</time>
      </trkpt>
      <trkpt lat="48.68792" lon="2.02375">
        <ele>171</ele>
        <time>2019-03-14T08:50:09Z</time>
      </trkpt>
      <trkpt lat="48.68786" lon="2.02371">
        <ele>171</ele>
        <time>2019-03-14T08:50:13Z</time>
      </trkpt>
      <trkpt lat="48.68779" lon="2.02368">
        <ele>170</ele>
        <time>2019-03-14T08:50:17Z</time>
      </trkpt>
      <trkpt lat="48.68773" lon="2.02364">
        <ele>170</ele>
        <time>2019-03-14T08:50:21Z</time>
      </trkpt>
      <trkpt lat="48.68767" lon="2.0236">
        <ele>170</ele>
        <time>2019-03-14T08:50:25Z</time>
      </trkpt>
      <trkpt lat="48.68762" lon="2.02359">
        <ele>169</ele>
        <time>2019-03-14T08:50:29Z</time>
      </trkpt>
      <trkpt lat="48.68757" lon="2.02358">
        <ele>169</ele>
        <time>2019-03-14T08:50:33Z</time>
      </trkpt>
      <trkpt lat="48.68751" lon="2.02357">
        <ele>169</ele>
        <time>2019-03-14T08:50:37Z</time>
      </trkpt>
      <trkpt lat="48.68747" lon="2.02355">
        <ele>166</ele>
        <time>2019-03-14T08:50:41Z</time>
      </trkpt>
      <trkpt lat="48.68742" lon="2.02356">
        <ele>166</ele>
        <time>2019-03-14T08:50:45Z</time>
      </trkpt>
      <trkpt lat="48.68737" lon="2.02358">
        <ele>166</ele>
        <time>2019-03-14T08:50:49Z</time>
      </trkpt>
      <trkpt lat="48.68732" lon="2.02359">
        <ele>165</ele>
        <time>2019-03-14T08:50:55Z</time>
      </trkpt>
      <trkpt lat="48.68727" lon="2.02361">
        <ele>165</ele>
        <time>2019-03-14T08:51:01Z</time>
      </trkpt>
      <trkpt lat="48.68721" lon="2.02364">
        <ele>165</ele>
        <time>2019-03-14T08:51:07Z</time>
      </trkpt>
      <trkpt lat="48.68716" lon="2.02367">
        <ele>165</ele>
        <time>2019-03-14T08:51:13Z</time>
      </trkpt>
      <trkpt lat="48.68711" lon="2.02372">
        <ele>165</ele>
        <time>2019-03-14T08:51:19Z</time>
      </trkpt>
      <trkpt lat="48.68705" lon="2.02376">
        <ele>165</ele>
        <time>2019-03-14T08:51:25Z</time>
      </trkpt>
      <trkpt lat="48.687" lon="2.02382">
        <ele>165</ele>
        <time>2019-03-14T08:51:29Z</time>
      </trkpt>
      <trkpt lat="48.68694" lon="2.02389">
        <ele>165</ele>
        <time>2019-03-14T08:51:35Z</time>
      </trkpt>
      <trkpt lat="48.68689" lon="2.02392">
        <ele>165</ele>
        <time>2019-03-14T08:51:43Z</time>
      </trkpt>
      <trkpt lat="48.68683" lon="2.02399">
        <ele>166</ele>
        <time>2019-03-14T08:51:47Z</time>
      </trkpt>
      <trkpt lat="48.68678" lon="2.02405">
        <ele>166</ele>
        <time>2019-03-14T08:51:51Z</time>
      </trkpt>
      <trkpt lat="48.68675" lon="2.02413">
        <ele>166</ele>
        <time>2019-03-14T08:51:55Z</time>
      </trkpt>
      <trkpt lat="48.68673" lon="2.0242">
        <ele>168</ele>
        <time>2019-03-14T08:51:59Z</time>
      </trkpt>
      <trkpt lat="48.68671" lon="2.02426">
        <ele>169</ele>
        <time>2019-03-14T08:52:03Z</time>
      </trkpt>
      <trkpt lat="48.68666" lon="2.02434">
        <ele>165</ele>
        <time>2019-03-14T08:52:07Z</time>
      </trkpt>
      <trkpt lat="48.68657" lon="2.02443">
        <ele>164</ele>
        <time>2019-03-14T08:52:11Z</time>
      </trkpt>
      <trkpt lat="48.68654" lon="2.02447">
        <ele>164</ele>
        <time>2019-03-14T08:52:13Z</time>
      </trkpt>
      <trkpt lat="48.68649" lon="2.02456">
        <ele>164</ele>
        <time>2019-03-14T08:52:17Z</time>
      </trkpt>
      <trkpt lat="48.68645" lon="2.02463">
        <ele>164</ele>
        <time>2019-03-14T08:52:21Z</time>
      </trkpt>
      <trkpt lat="48.68642" lon="2.0247">
        <ele>164</ele>
        <time>2019-03-14T08:52:25Z</time>
      </trkpt>
      <trkpt lat="48.68638" lon="2.02479">
        <ele>164</ele>
        <time>2019-03-14T08:52:29Z</time>
      </trkpt>
      <trkpt lat="48.68634" lon="2.02484">
        <ele>164</ele>
        <time>2019-03-14T08:52:33Z</time>
      </trkpt>
      <trkpt lat="48.68629" lon="2.02492">
        <ele>164</ele>
        <time>2019-03-14T08:52:37Z</time>
      </trkpt>
      <trkpt lat="48.68626" lon="2.02499">
        <ele>164</ele>
        <time>2019-03-14T08:52:41Z</time>
      </trkpt>
      <trkpt lat="48.68622" lon="2.02507">
        <ele>169</ele>
        <time>2019-03-14T08:52:45Z</time>
      </trkpt>
      <trkpt lat="48.68617" lon="2.02517">
        <ele>169</ele>
        <time>2019-03-14T08:52:49Z</time>
      </trkpt>
      <trkpt lat="48.68612" lon="2.02525">
        <ele>169</ele>
        <time>2019-03-14T08:52:53Z</time>
      </trkpt>
      <trkpt lat="48.68607" lon="2.02535">
        <ele>169</ele>
        <time>2019-03-14T08:52:57Z</time>
      </trkpt>
      <trkpt lat="48.68605" lon="2.02542">
        <ele>170</ele>
        <time>2019-03-14T08:52:59Z</time>
      </trkpt>
      <trkpt lat="48.686" lon="2.0255">
        <ele>170</ele>
        <time>2019-03-14T08:53:03Z</time>
      </trkpt>
      <trkpt lat="48.68594" lon="2.02558">
        <ele>170</ele>
        <time>2019-03-14T08:53:07Z</time>
      </trkpt>
      <trkpt lat="48.6859" lon="2.02563">
        <ele>171</ele>
        <time>2019-03-14T08:53:11Z</time>
      </trkpt>
      <trkpt lat="48.68584" lon="2.02571">
        <ele>171</ele>
        <time>2019-03-14T08:53:15Z</time>
      </trkpt>
      <trkpt lat="48.68579" lon="2.02578">
        <ele>168</ele>
        <time>2019-03-14T08:53:19Z</time>
      </trkpt>
      <trkpt lat="48.68574" lon="2.02584">
        <ele>170</ele>
        <time>2019-03-14T08:53:23Z</time>
      </trkpt>
      <trkpt lat="48.68569" lon="2.02594">
        <ele>169</ele>
        <time>2019-03-14T08:53:27Z</time>
      </trkpt>
      <trkpt lat="48.68564" lon="2.02605">
        <ele>168</ele>
        <time>2019-03-14T08:53:31Z</time>
      </trkpt>
      <trkpt lat="48.6856" lon="2.02614">
        <ele>168</ele>
        <time>2019-03-14T08:53:35Z</time>
      </trkpt>
      <trkpt lat="48.68555" lon="2.02623">
        <ele>168</ele>
        <time>2019-03-14T08:53:41Z</time>
      </trkpt>
      <trkpt lat="48.68551" lon="2.02631">
        <ele>168</ele>
        <time>2019-03-14T08:53:45Z</time>
      </trkpt>
      <trkpt lat="48.68547" lon="2.02642">
        <ele>168</ele>
        <time>2019-03-14T08:53:51Z</time>
      </trkpt>
      <trkpt lat="48.68544" lon="2.02648">
        <ele>168</ele>
        <time>2019-03-14T08:53:55Z</time>
      </trkpt>
      <trkpt lat="48.6854" lon="2.02657">
        <ele>168</ele>
        <time>2019-03-14T08:53:59Z</time>
      </trkpt>
      <trkpt lat="48.68536" lon="2.02666">
        <ele>168</ele>
        <time>2019-03-14T08:54:03Z</time>
      </trkpt>
      <trkpt lat="48.68533" lon="2.02674">
        <ele>173</ele>
        <time>2019-03-14T08:54:07Z</time>
      </trkpt>
      <trkpt lat="48.6853" lon="2.02682">
        <ele>173</ele>
        <time>2019-03-14T08:54:11Z</time>
      </trkpt>
      <trkpt lat="48.68526" lon="2.02691">
        <ele>174</ele>
        <time>2019-03-14T08:54:15Z</time>
      </trkpt>
      <trkpt lat="48.68522" lon="2.02699">
        <ele>174</ele>
        <time>2019-03-14T08:54:19Z</time>
      </trkpt>
      <trkpt lat="48.68518" lon="2.02707">
        <ele>174</ele>
        <time>2019-03-14T08:54:23Z</time>
      </trkpt>
      <trkpt lat="48.68514" lon="2.02714">
        <ele>175</ele>
        <time>2019-03-14T08:54:27Z</time>
      </trkpt>
      <trkpt lat="48.6851" lon="2.02723">
        <ele>175</ele>
        <time>2019-03-14T08:54:31Z</time>
      </trkpt>
      <trkpt lat="48.68507" lon="2.02733">
        <ele>176</ele>
        <time>2019-03-14T08:54:35Z</time>
      </trkpt>
      <trkpt lat="48.68505" lon="2.02741">
        <ele>176</ele>
        <time>2019-03-14T08:54:39Z</time>
      </trkpt>
      <trkpt lat="48.68502" lon="2.02746">
        <ele>177</ele>
        <time>2019-03-14T08:54:41Z</time>
      </trkpt>
      <trkpt lat="48.68496" lon="2.02757">
        <ele>175</ele>
        <time>2019-03-14T08:54:45Z</time>
      </trkpt>
      <trkpt lat="48.68493" lon="2.02767">
        <ele>174</ele>
        <time>2019-03-14T08:54:49Z</time>
      </trkpt>
      <trkpt lat="48.68489" lon="2.02776">
        <ele>173</ele>
        <time>2019-03-14T08:54:53Z</time>
      </trkpt>
      <trkpt lat="48.68485" lon="2.02785">
        <ele>172</ele>
        <time>2019-03-14T08:54:57Z</time>
      </trkpt>
      <trkpt lat="48.68482" lon="2.02791">
        <ele>172</ele>
        <time>2019-03-14T08:55:01Z</time>
      </trkpt>
      <trkpt lat="48.68478" lon="2.02795">
        <ele>172</ele>
        <time>2019-03-14T08:55:03Z</time>
      </trkpt>
      <trkpt lat="48.68474" lon="2.02802">
        <ele>172</ele>
        <time>2019-03-14T08:55:07Z</time>
      </trkpt>
      <trkpt lat="48.68471" lon="2.02808">
        <ele>172</ele>
        <time>2019-03-14T08:55:11Z</time>
      </trkpt>
      <trkpt lat="48.68467" lon="2.02814">
        <ele>172</ele>
        <time>2019-03-14T08:55:15Z</time>
      </trkpt>
      <trkpt lat="48.68462" lon="2.02822">
        <ele>172</ele>
        <time>2019-03-14T08:55:19Z</time>
      </trkpt>
      <trkpt lat="48.68458" lon="2.02826">
        <ele>172</ele>
        <time>2019-03-14T08:55:23Z</time>
      </trkpt>
      <trkpt lat="48.68453" lon="2.02831">
        <ele>172</ele>
        <time>2019-03-14T08:55:29Z</time>
      </trkpt>
      <trkpt lat="48.6845" lon="2.02836">
        <ele>175</ele>
        <time>2019-03-14T08:55:35Z</time>
      </trkpt>
      <trkpt lat="48.68446" lon="2.02842">
        <ele>175</ele>
        <time>2019-03-14T08:55:39Z</time>
      </trkpt>
      <trkpt lat="48.68439" lon="2.02851">
        <ele>175</ele>
        <time>2019-03-14T08:55:45Z</time>
      </trkpt>
      <trkpt lat="48.68435" lon="2.02856">
        <ele>175</ele>
        <time>2019-03-14T08:55:49Z</time>
      </trkpt>
      <trkpt lat="48.68431" lon="2.02863">
        <ele>175</ele>
        <time>2019-03-14T08:55:55Z</time>
      </trkpt>
      <trkpt lat="48.68428" lon="2.02869">
        <ele>175</ele>
        <time>2019-03-14T08:55:59Z</time>
      </trkpt>
      <trkpt lat="48.68422" lon="2.02875">
        <ele>175</ele>
        <time>2019-03-14T08:56:03Z</time>
      </trkpt>
      <trkpt lat="48.68417" lon="2.02879">
        <ele>175</ele>
        <time>2019-03-14T08:56:07Z</time>
      </trkpt>
      <trkpt lat="48.68413" lon="2.02884">
        <ele>172</ele>
        <time>2019-03-14T08:56:13Z</time>
      </trkpt>
      <trkpt lat="48.68409" lon="2.02888">
        <ele>172</ele>
        <time>2019-03-14T08:56:17Z</time>
      </trkpt>
      <trkpt lat="48.68403" lon="2.02893">
        <ele>172</ele>
        <time>2019-03-14T08:56:23Z</time>
      </trkpt>
      <trkpt lat="48.68398" lon="2.02897">
        <ele>172</ele>
        <time>2019-03-14T08:56:27Z</time>
      </trkpt>
      <trkpt lat="48.68392" lon="2.02901">
        <ele>172</ele>
        <time>2019-03-14T08:56:33Z</time>
      </trkpt>
      <trkpt lat="48.68387" lon="2.02907">
        <ele>172</ele>
        <time>2019-03-14T08:56:39Z</time>
      </trkpt>
      <trkpt lat="48.68382" lon="2.0291">
        <ele>172</ele>
        <time>2019-03-14T08:56:45Z</time>
      </trkpt>
      <trkpt lat="48.68375" lon="2.02913">
        <ele>172</ele>
        <time>2019-03-14T08:56:51Z</time>
      </trkpt>
      <trkpt lat="48.6837" lon="2.02915">
        <ele>172</ele>
        <time>2019-03-14T08:56:55Z</time>
      </trkpt>
      <trkpt lat="48.68365" lon="2.02918">
        <ele>175</ele>
        <time>2019-03-14T08:56:59Z</time>
      </trkpt>
      <trkpt lat="48.68358" lon="2.02919">
        <ele>175</ele>
        <time>2019-03-14T08:57:05Z</time>
      </trkpt>
      <trkpt lat="48.68352" lon="2.02921">
        <ele>175</ele>
        <time>2019-03-14T08:57:11Z</time>
      </trkpt>
      <trkpt lat="48.68348" lon="2.02924">
        <ele>174</ele>
        <time>2019-03-14T08:57:15Z</time>
      </trkpt>
      <trkpt lat="48.68343" lon="2.0293">
        <ele>174</ele>
        <time>2019-03-14T08:57:21Z</time>
      </trkpt>
      <trkpt lat="48.68339" lon="2.02937">
        <ele>175</ele>
        <time>2019-03-14T08:57:25Z</time>
      </trkpt>
      <trkpt lat="48.68335" lon="2.02945">
        <ele>175</ele>
        <time>2019-03-14T08:57:31Z</time>
      </trkpt>
      <trkpt lat="48.68326" lon="2.02954">
        <ele>174</ele>
        <time>2019-03-14T08:57:35Z</time>
      </trkpt>
      <trkpt lat="48.68323" lon="2.02961">
        <ele>174</ele>
        <time>2019-03-14T08:57:39Z</time>
      </trkpt>
      <trkpt lat="48.68319" lon="2.02971">
        <ele>174</ele>
        <time>2019-03-14T08:57:43Z</time>
      </trkpt>
      <trkpt lat="48.68315" lon="2.0298">
        <ele>175</ele>
        <time>2019-03-14T08:57:47Z</time>
      </trkpt>
      <trkpt lat="48.68311" lon="2.02989">
        <ele>175</ele>
        <time>2019-03-14T08:57:51Z</time>
      </trkpt>
      <trkpt lat="48.68307" lon="2.02996">
        <ele>175</ele>
        <time>2019-03-14T08:57:55Z</time>
      </trkpt>
      <trkpt lat="48.68302" lon="2.03005">
        <ele>177</ele>
        <time>2019-03-14T08:57:59Z</time>
      </trkpt>
      <trkpt lat="48.68296" lon="2.03015">
        <ele>177</ele>
        <time>2019-03-14T08:58:03Z</time>
      </trkpt>
      <trkpt lat="48.68292" lon="2.03019">
        <ele>177</ele>
        <time>2019-03-14T08:58:05Z</time>
      </trkpt>
      <trkpt lat="48.68286" lon="2.03029">
        <ele>177</ele>
        <time>2019-03-14T08:58:09Z</time>
      </trkpt>
      <trkpt lat="48.68282" lon="2.03035">
        <ele>177</ele>
        <time>2019-03-14T08:58:13Z</time>
      </trkpt>
      <trkpt lat="48.68279" lon="2.03041">
        <ele>177</ele>
        <time>2019-03-14T08:58:17Z</time>
      </trkpt>
      <trkpt lat="48.68274" lon="2.03051">
        <ele>177</ele>
        <time>2019-03-14T08:58:21Z</time>
      </trkpt>
      <trkpt lat="48.68271" lon="2.03056">
        <ele>177</ele>
        <time>2019-03-14T08:58:23Z</time>
      </trkpt>
      <trkpt lat="48.68267" lon="2.03063">
        <ele>177</ele>
        <time>2019-03-14T08:58:27Z</time>
      </trkpt>
      <trkpt lat="48.68263" lon="2.0307">
        <ele>177</ele>
        <time>2019-03-14T08:58:31Z</time>
      </trkpt>
      <trkpt lat="48.68259" lon="2.03079">
        <ele>178</ele>
        <time>2019-03-14T08:58:35Z</time>
      </trkpt>
      <trkpt lat="48.68255" lon="2.03087">
        <ele>178</ele>
        <time>2019-03-14T08:58:39Z</time>
      </trkpt>
      <trkpt lat="48.68252" lon="2.03093">
        <ele>178</ele>
        <time>2019-03-14T08:58:43Z</time>
      </trkpt>
      <trkpt lat="48.68248" lon="2.03101">
        <ele>176</ele>
        <time>2019-03-14T08:58:49Z</time>
      </trkpt>
      <trkpt lat="48.68246" lon="2.03108">
        <ele>175</ele>
        <time>2019-03-14T08:58:53Z</time>
      </trkpt>
      <trkpt lat="48.68243" lon="2.03114">
        <ele>175</ele>
        <time>2019-03-14T08:58:57Z</time>
      </trkpt>
      <trkpt lat="48.6824" lon="2.0312">
        <ele>175</ele>
        <time>2019-03-14T08:59:03Z</time>
      </trkpt>
      <trkpt lat="48.68237" lon="2.03128">
        <ele>175</ele>
        <time>2019-03-14T08:59:09Z</time>
      </trkpt>
      <trkpt lat="48.68235" lon="2.03134">
        <ele>174</ele>
        <time>2019-03-14T08:59:21Z</time>
      </trkpt>
      <trkpt lat="48.68234" lon="2.03141">
        <ele>174</ele>
        <time>2019-03-14T08:59:49Z</time>
      </trkpt>
      <trkpt lat="48.6823" lon="2.03145">
        <ele>174</ele>
        <time>2019-03-14T09:00:05Z</time>
      </trkpt>
      <trkpt lat="48.68229" lon="2.03152">
        <ele>174</ele>
        <time>2019-03-14T09:00:43Z</time>
      </trkpt>
      <trkpt lat="48.68227" lon="2.03159">
        <ele>174</ele>
        <time>2019-03-14T09:00:49Z</time>
      </trkpt>
      <trkpt lat="48.68225" lon="2.03166">
        <ele>174</ele>
        <time>2019-03-14T09:00:55Z</time>
      </trkpt>
      <trkpt lat="48.68222" lon="2.03175">
        <ele>174</ele>
        <time>2019-03-14T09:01:01Z</time>
      </trkpt>
      <trkpt lat="48.6822" lon="2.03181">
        <ele>174</ele>
        <time>2019-03-14T09:01:05Z</time>
      </trkpt>
      <trkpt lat="48.68218" lon="2.0319">
        <ele>174</ele>
        <time>2019-03-14T09:01:09Z</time>
      </trkpt>
      <trkpt lat="48.68217" lon="2.03199">
        <ele>174</ele>
        <time>2019-03-14T09:01:15Z</time>
      </trkpt>
      <trkpt lat="48.68215" lon="2.0321">
        <ele>173</ele>
        <time>2019-03-14T09:01:19Z</time>
      </trkpt>
      <trkpt lat="48.68211" lon="2.03217">
        <ele>173</ele>
        <time>2019-03-14T09:01:23Z</time>
      </trkpt>
      <trkpt lat="48.68208" lon="2.03224">
        <ele>173</ele>
        <time>2019-03-14T09:01:27Z</time>
      </trkpt>
      <trkpt lat="48.68206" lon="2.03235">
        <ele>173</ele>
        <time>2019-03-14T09:01:31Z</time>
      </trkpt>
      <trkpt lat="48.68202" lon="2.03242">
        <ele>173</ele>
        <time>2019-03-14T09:01:35Z</time>
      </trkpt>
      <trkpt lat="48.68197" lon="2.03248">
        <ele>173</ele>
        <time>2019-03-14T09:01:39Z</time>
      </trkpt>
      <trkpt lat="48.68192" lon="2.03253">
        <ele>172</ele>
        <time>2019-03-14T09:01:43Z</time>
      </trkpt>
      <trkpt lat="48.68188" lon="2.03257">
        <ele>172</ele>
        <time>2019-03-14T09:01:47Z</time>
      </trkpt>
      <trkpt lat="48.68183" lon="2.03262">
        <ele>172</ele>
        <time>2019-03-14T09:01:53Z</time>
      </trkpt>
      <trkpt lat="48.68177" lon="2.03267">
        <ele>172</ele>
        <time>2019-03-14T09:01:59Z</time>
      </trkpt>
      <trkpt lat="48.68173" lon="2.0327">
        <ele>172</ele>
        <time>2019-03-14T09:02:05Z</time>
      </trkpt>
      <trkpt lat="48.68167" lon="2.03273">
        <ele>170</ele>
        <time>2019-03-14T09:02:13Z</time>
      </trkpt>
      <trkpt lat="48.68161" lon="2.03275">
        <ele>170</ele>
        <time>2019-03-14T09:02:17Z</time>
      </trkpt>
      <trkpt lat="48.68154" lon="2.03279">
        <ele>170</ele>
        <time>2019-03-14T09:02:21Z</time>
      </trkpt>
      <trkpt lat="48.68145" lon="2.03286">
        <ele>170</ele>
        <time>2019-03-14T09:02:25Z</time>
      </trkpt>
      <trkpt lat="48.68141" lon="2.03289">
        <ele>170</ele>
        <time>2019-03-14T09:02:27Z</time>
      </trkpt>
      <trkpt lat="48.68136" lon="2.03289">
        <ele>170</ele>
        <time>2019-03-14T09:02:31Z</time>
      </trkpt>
      <trkpt lat="48.68128" lon="2.03292">
        <ele>170</ele>
        <time>2019-03-14T09:02:37Z</time>
      </trkpt>
      <trkpt lat="48.68122" lon="2.03294">
        <ele>170</ele>
        <time>2019-03-14T09:02:41Z</time>
      </trkpt>
      <trkpt lat="48.68117" lon="2.03294">
        <ele>170</ele>
        <time>2019-03-14T09:02:45Z</time>
      </trkpt>
      <trkpt lat="48.68111" lon="2.03296">
        <ele>170</ele>
        <time>2019-03-14T09:02:49Z</time>
      </trkpt>
      <trkpt lat="48.68104" lon="2.03301">
        <ele>170</ele>
        <time>2019-03-14T09:02:53Z</time>
      </trkpt>
      <trkpt lat="48.68097" lon="2.03305">
        <ele>170</ele>
        <time>2019-03-14T09:02:57Z</time>
      </trkpt>
      <trkpt lat="48.68089" lon="2.03307">
        <ele>170</ele>
        <time>2019-03-14T09:03:01Z</time>
      </trkpt>
      <trkpt lat="48.68085" lon="2.03309">
        <ele>170</ele>
        <time>2019-03-14T09:03:03Z</time>
      </trkpt>
      <trkpt lat="48.68081" lon="2.03313">
        <ele>170</ele>
        <time>2019-03-14T09:03:05Z</time>
      </trkpt>
      <trkpt lat="48.68076" lon="2.03316">
        <ele>170</ele>
        <time>2019-03-14T09:03:07Z</time>
      </trkpt>
      <trkpt lat="48.68071" lon="2.03319">
        <ele>170</ele>
        <time>2019-03-14T09:03:11Z</time>
      </trkpt>
      <trkpt lat="48.68067" lon="2.03322">
        <ele>170</ele>
        <time>2019-03-14T09:03:13Z</time>
      </trkpt>
      <trkpt lat="48.68059" lon="2.03326">
        <ele>169</ele>
        <time>2019-03-14T09:03:17Z</time>
      </trkpt>
      <trkpt lat="48.68054" lon="2.03329">
        <ele>169</ele>
        <time>2019-03-14T09:03:21Z</time>
      </trkpt>
      <trkpt lat="48.68047" lon="2.03332">
        <ele>169</ele>
        <time>2019-03-14T09:03:25Z</time>
      </trkpt>
      <trkpt lat="48.68039" lon="2.03337">
        <ele>169</ele>
        <time>2019-03-14T09:03:29Z</time>
      </trkpt>
      <trkpt lat="48.68032" lon="2.03341">
        <ele>169</ele>
        <time>2019-03-14T09:03:33Z</time>
      </trkpt>
      <trkpt lat="48.68027" lon="2.03345">
        <ele>169</ele>
        <time>2019-03-14T09:03:37Z</time>
      </trkpt>
      <trkpt lat="48.6802" lon="2.03348">
        <ele>169</ele>
        <time>2019-03-14T09:03:41Z</time>
      </trkpt>
      <trkpt lat="48.68014" lon="2.03353">
        <ele>169</ele>
        <time>2019-03-14T09:03:45Z</time>
      </trkpt>
      <trkpt lat="48.68008" lon="2.03355">
        <ele>169</ele>
        <time>2019-03-14T09:03:49Z</time>
      </trkpt>
      <trkpt lat="48.68003" lon="2.03356">
        <ele>169</ele>
        <time>2019-03-14T09:04:03Z</time>
      </trkpt>
      <trkpt lat="48.67998" lon="2.03362">
        <ele>169</ele>
        <time>2019-03-14T09:04:07Z</time>
      </trkpt>
      <trkpt lat="48.67992" lon="2.03368">
        <ele>169</ele>
        <time>2019-03-14T09:04:13Z</time>
      </trkpt>
      <trkpt lat="48.67986" lon="2.0337">
        <ele>168</ele>
        <time>2019-03-14T09:04:19Z</time>
      </trkpt>
      <trkpt lat="48.6798" lon="2.03373">
        <ele>168</ele>
        <time>2019-03-14T09:04:23Z</time>
      </trkpt>
      <trkpt lat="48.67975" lon="2.03375">
        <ele>168</ele>
        <time>2019-03-14T09:04:27Z</time>
      </trkpt>
      <trkpt lat="48.67968" lon="2.03378">
        <ele>168</ele>
        <time>2019-03-14T09:04:31Z</time>
      </trkpt>
      <trkpt lat="48.67963" lon="2.03381">
        <ele>168</ele>
        <time>2019-03-14T09:04:35Z</time>
      </trkpt>
      <trkpt lat="48.67958" lon="2.03385">
        <ele>168</ele>
        <time>2019-03-14T09:04:39Z</time>
      </trkpt>
      <trkpt lat="48.67952" lon="2.03387">
        <ele>168</ele>
        <time>2019-03-14T09:04:43Z</time>
      </trkpt>
      <trkpt lat="48.67947" lon="2.0339">
        <ele>168</ele>
        <time>2019-03-14T09:04:47Z</time>
      </trkpt>
      <trkpt lat="48.67941" lon="2.03391">
        <ele>168</ele>
        <time>2019-03-14T09:04:51Z</time>
      </trkpt>
      <trkpt lat="48.67936" lon="2.03393">
        <ele>168</ele>
        <time>2019-03-14T09:04:55Z</time>
      </trkpt>
      <trkpt lat="48.6793" lon="2.03396">
        <ele>168</ele>
        <time>2019-03-14T09:04:59Z</time>
      </trkpt>
      <trkpt lat="48.67925" lon="2.03398">
        <ele>168</ele>
        <time>2019-03-14T09:05:03Z</time>
      </trkpt>
      <trkpt lat="48.67919" lon="2.03395">
        <ele>168</ele>
        <time>2019-03-14T09:05:07Z</time>
      </trkpt>
      <trkpt lat="48.67913" lon="2.03394">
        <ele>168</ele>
        <time>2019-03-14T09:05:11Z</time>
      </trkpt>
      <trkpt lat="48.67907" lon="2.03396">
        <ele>168</ele>
        <time>2019-03-14T09:05:15Z</time>
      </trkpt>
      <trkpt lat="48.679" lon="2.03395">
        <ele>168</ele>
        <time>2019-03-14T09:05:19Z</time>
      </trkpt>
      <trkpt lat="48.67894" lon="2.03395">
        <ele>168</ele>
        <time>2019-03-14T09:05:23Z</time>
      </trkpt>
      <trkpt lat="48.67889" lon="2.03395">
        <ele>168</ele>
        <time>2019-03-14T09:05:27Z</time>
      </trkpt>
      <trkpt lat="48.67884" lon="2.03394">
        <ele>168</ele>
        <time>2019-03-14T09:05:31Z</time>
      </trkpt>
      <trkpt lat="48.67878" lon="2.03393">
        <ele>168</ele>
        <time>2019-03-14T09:05:35Z</time>
      </trkpt>
      <trkpt lat="48.67872" lon="2.03392">
        <ele>168</ele>
        <time>2019-03-14T09:05:39Z</time>
      </trkpt>
      <trkpt lat="48.67869" lon="2.03397">
        <ele>168</ele>
        <time>2019-03-14T09:05:43Z</time>
      </trkpt>
      <trkpt lat="48.67864" lon="2.03398">
        <ele>168</ele>
        <time>2019-03-14T09:05:47Z</time>
      </trkpt>
      <trkpt lat="48.6786" lon="2.03402">
        <ele>168</ele>
        <time>2019-03-14T09:05:51Z</time>
      </trkpt>
      <trkpt lat="48.67853" lon="2.03398">
        <ele>168</ele>
        <time>2019-03-14T09:05:55Z</time>
      </trkpt>
      <trkpt lat="48.67847" lon="2.03396">
        <ele>168</ele>
        <time>2019-03-14T09:05:59Z</time>
      </trkpt>
      <trkpt lat="48.67842" lon="2.034">
        <ele>168</ele>
        <time>2019-03-14T09:06:03Z</time>
      </trkpt>
      <trkpt lat="48.67836" lon="2.03399">
        <ele>168</ele>
        <time>2019-03-14T09:06:07Z</time>
      </trkpt>
      <trkpt lat="48.6783" lon="2.03397">
        <ele>169</ele>
        <time>2019-03-14T09:06:11Z</time>
      </trkpt>
      <trkpt lat="48.67821" lon="2.03389">
        <ele>169</ele>
        <time>2019-03-14T09:06:15Z</time>
      </trkpt>
      <trkpt lat="48.67814" lon="2.03387">
        <ele>169</ele>
        <time>2019-03-14T09:06:19Z</time>
      </trkpt>
      <trkpt lat="48.67808" lon="2.03387">
        <ele>169</ele>
        <time>2019-03-14T09:06:23Z</time>
      </trkpt>
      <trkpt lat="48.67802" lon="2.03386">
        <ele>169</ele>
        <time>2019-03-14T09:06:27Z</time>
      </trkpt>
      <trkpt lat="48.67797" lon="2.03385">
        <ele>169</ele>
        <time>2019-03-14T09:06:31Z</time>
      </trkpt>
      <trkpt lat="48.6779" lon="2.03386">
        <ele>169</ele>
        <time>2019-03-14T09:06:35Z</time>
      </trkpt>
      <trkpt lat="48.67785" lon="2.03384">
        <ele>169</ele>
        <time>2019-03-14T09:06:39Z</time>
      </trkpt>
      <trkpt lat="48.67779" lon="2.03384">
        <ele>169</ele>
        <time>2019-03-14T09:06:43Z</time>
      </trkpt>
      <trkpt lat="48.67773" lon="2.03383">
        <ele>169</ele>
        <time>2019-03-14T09:06:47Z</time>
      </trkpt>
      <trkpt lat="48.67766" lon="2.03381">
        <ele>169</ele>
        <time>2019-03-14T09:06:51Z</time>
      </trkpt>
      <trkpt lat="48.67759" lon="2.0338">
        <ele>169</ele>
        <time>2019-03-14T09:06:55Z</time>
      </trkpt>
      <trkpt lat="48.67752" lon="2.03379">
        <ele>169</ele>
        <time>2019-03-14T09:06:59Z</time>
      </trkpt>
      <trkpt lat="48.67746" lon="2.03378">
        <ele>170</ele>
        <time>2019-03-14T09:07:03Z</time>
      </trkpt>
      <trkpt lat="48.67739" lon="2.03377">
        <ele>170</ele>
        <time>2019-03-14T09:07:07Z</time>
      </trkpt>
      <trkpt lat="48.67734" lon="2.03375">
        <ele>170</ele>
        <time>2019-03-14T09:07:11Z</time>
      </trkpt>
      <trkpt lat="48.67727" lon="2.03373">
        <ele>170</ele>
        <time>2019-03-14T09:07:15Z</time>
      </trkpt>
      <trkpt lat="48.6772" lon="2.03373">
        <ele>170</ele>
        <time>2019-03-14T09:07:19Z</time>
      </trkpt>
      <trkpt lat="48.67714" lon="2.03373">
        <ele>170</ele>
        <time>2019-03-14T09:07:23Z</time>
      </trkpt>
      <trkpt lat="48.67709" lon="2.03372">
        <ele>170</ele>
        <time>2019-03-14T09:07:27Z</time>
      </trkpt>
      <trkpt lat="48.67703" lon="2.03371">
        <ele>170</ele>
        <time>2019-03-14T09:07:31Z</time>
      </trkpt>
      <trkpt lat="48.67697" lon="2.0337">
        <ele>170</ele>
        <time>2019-03-14T09:07:35Z</time>
      </trkpt>
      <trkpt lat="48.67691" lon="2.0337">
        <ele>170</ele>
        <time>2019-03-14T09:07:39Z</time>
      </trkpt>
      <trkpt lat="48.67686" lon="2.03371">
        <ele>170</ele>
        <time>2019-03-14T09:07:43Z</time>
      </trkpt>
      <trkpt lat="48.67679" lon="2.03371">
        <ele>170</ele>
        <time>2019-03-14T09:07:47Z</time>
      </trkpt>
      <trkpt lat="48.67673" lon="2.0337">
        <ele>171</ele>
        <time>2019-03-14T09:07:51Z</time>
      </trkpt>
      <trkpt lat="48.67668" lon="2.0337">
        <ele>171</ele>
        <time>2019-03-14T09:07:55Z</time>
      </trkpt>
      <trkpt lat="48.67662" lon="2.0337">
        <ele>172</ele>
        <time>2019-03-14T09:07:59Z</time>
      </trkpt>
      <trkpt lat="48.67656" lon="2.0337">
        <ele>172</ele>
        <time>2019-03-14T09:08:03Z</time>
      </trkpt>
      <trkpt lat="48.67651" lon="2.03367">
        <ele>172</ele>
        <time>2019-03-14T09:08:07Z</time>
      </trkpt>
      <trkpt lat="48.67645" lon="2.03367">
        <ele>172</ele>
        <time>2019-03-14T09:08:11Z</time>
      </trkpt>
      <trkpt lat="48.67638" lon="2.03366">
        <ele>172</ele>
        <time>2019-03-14T09:08:15Z</time>
      </trkpt>
      <trkpt lat="48.67632" lon="2.03365">
        <ele>172</ele>
        <time>2019-03-14T09:08:19Z</time>
      </trkpt>
      <trkpt lat="48.67626" lon="2.03364">
        <ele>172</ele>
        <time>2019-03-14T09:08:23Z</time>
      </trkpt>
      <trkpt lat="48.6762" lon="2.03362">
        <ele>172</ele>
        <time>2019-03-14T09:08:27Z</time>
      </trkpt>
      <trkpt lat="48.67614" lon="2.03363">
        <ele>172</ele>
        <time>2019-03-14T09:08:31Z</time>
      </trkpt>
      <trkpt lat="48.67608" lon="2.03362">
        <ele>172</ele>
        <time>2019-03-14T09:08:35Z</time>
      </trkpt>
      <trkpt lat="48.67602" lon="2.03362">
        <ele>172</ele>
        <time>2019-03-14T09:08:39Z</time>
      </trkpt>
      <trkpt lat="48.67596" lon="2.03363">
        <ele>172</ele>
        <time>2019-03-14T09:08:43Z</time>
      </trkpt>
      <trkpt lat="48.67589" lon="2.03361">
        <ele>172</ele>
        <time>2019-03-14T09:08:47Z</time>
      </trkpt>
      <trkpt lat="48.67583" lon="2.03361">
        <ele>173</ele>
        <time>2019-03-14T09:08:51Z</time>
      </trkpt>
      <trkpt lat="48.67578" lon="2.03361">
        <ele>173</ele>
        <time>2019-03-14T09:08:55Z</time>
      </trkpt>
      <trkpt lat="48.67572" lon="2.03361">
        <ele>173</ele>
        <time>2019-03-14T09:08:59Z</time>
      </trkpt>
      <trkpt lat="48.67566" lon="2.03361">
        <ele>173</ele>
        <time>2019-03-14T09:09:03Z</time>
      </trkpt>
      <trkpt lat="48.6756" lon="2.03362">
        <ele>173</ele>
        <time>2019-03-14T09:09:07Z</time>
      </trkpt>
      <trkpt lat="48.67555" lon="2.03362">
        <ele>173</ele>
        <time>2019-03-14T09:09:11Z</time>
      </trkpt>
      <trkpt lat="48.67549" lon="2.03361">
        <ele>173</ele>
        <time>2019-03-14T09:09:15Z</time>
      </trkpt>
      <trkpt lat="48.67542" lon="2.0336">
        <ele>173</ele>
        <time>2019-03-14T09:09:19Z</time>
      </trkpt>
      <trkpt lat="48.67536" lon="2.0336">
        <ele>173</ele>
        <time>2019-03-14T09:09:23Z</time>
      </trkpt>
      <trkpt lat="48.6753" lon="2.03358">
        <ele>173</ele>
        <time>2019-03-14T09:09:27Z</time>
      </trkpt>
      <trkpt lat="48.67523" lon="2.03357">
        <ele>173</ele>
        <time>2019-03-14T09:09:31Z</time>
      </trkpt>
      <trkpt lat="48.67517" lon="2.03356">
        <ele>173</ele>
        <time>2019-03-14T09:09:35Z</time>
      </trkpt>
      <trkpt lat="48.6751" lon="2.03356">
        <ele>173</ele>
        <time>2019-03-14T09:09:39Z</time>
      </trkpt>
      <trkpt lat="48.67505" lon="2.03357">
        <ele>173</ele>
        <time>2019-03-14T09:09:43Z</time>
      </trkpt>
      <trkpt lat="48.67498" lon="2.03358">
        <ele>173</ele>
        <time>2019-03-14T09:09:47Z</time>
      </trkpt>
      <trkpt lat="48.67492" lon="2.0336">
        <ele>173</ele>
        <time>2019-03-14T09:09:51Z</time>
      </trkpt>
      <trkpt lat="48.67485" lon="2.03359">
        <ele>173</ele>
        <time>2019-03-14T09:09:55Z</time>
      </trkpt>
      <trkpt lat="48.67479" lon="2.03358">
        <ele>173</ele>
        <time>2019-03-14T09:09:59Z</time>
      </trkpt>
      <trkpt lat="48.67473" lon="2.03356">
        <ele>173</ele>
        <time>2019-03-14T09:10:03Z</time>
      </trkpt>
      <trkpt lat="48.67466" lon="2.03355">
        <ele>173</ele>
        <time>2019-03-14T09:10:07Z</time>
      </trkpt>
      <trkpt lat="48.67461" lon="2.03356">
        <ele>173</ele>
        <time>2019-03-14T09:10:11Z</time>
      </trkpt>
      <trkpt lat="48.67455" lon="2.03356">
        <ele>173</ele>
        <time>2019-03-14T09:10:15Z</time>
      </trkpt>
      <trkpt lat="48.67449" lon="2.03357">
        <ele>173</ele>
        <time>2019-03-14T09:10:19Z</time>
      </trkpt>
      <trkpt lat="48.67443" lon="2.03357">
        <ele>173</ele>
        <time>2019-03-14T09:10:23Z</time>
      </trkpt>
      <trkpt lat="48.67437" lon="2.03356">
        <ele>173</ele>
        <time>2019-03-14T09:10:27Z</time>
      </trkpt>
      <trkpt lat="48.67431" lon="2.03355">
        <ele>173</ele>
        <time>2019-03-14T09:10:31Z</time>
      </trkpt>
      <trkpt lat="48.67426" lon="2.03354">
        <ele>172</ele>
        <time>2019-03-14T09:10:35Z</time>
      </trkpt>
      <trkpt lat="48.67421" lon="2.03355">
        <ele>172</ele>
        <time>2019-03-14T09:10:39Z</time>
      </trkpt>
      <trkpt lat="48.67414" lon="2.03355">
        <ele>172</ele>
        <time>2019-03-14T09:10:43Z</time>
      </trkpt>
      <trkpt lat="48.67408" lon="2.03355">
        <ele>172</ele>
        <time>2019-03-14T09:10:47Z</time>
      </trkpt>
      <trkpt lat="48.67402" lon="2.03355">
        <ele>172</ele>
        <time>2019-03-14T09:10:51Z</time>
      </trkpt>
      <trkpt lat="48.67397" lon="2.0336">
        <ele>172</ele>
        <time>2019-03-14T09:10:57Z</time>
      </trkpt>
      <trkpt lat="48.67395" lon="2.03369">
        <ele>172</ele>
        <time>2019-03-14T09:11:03Z</time>
      </trkpt>
      <trkpt lat="48.67394" lon="2.03376">
        <ele>173</ele>
        <time>2019-03-14T09:11:07Z</time>
      </trkpt>
      <trkpt lat="48.67394" lon="2.03384">
        <ele>173</ele>
        <time>2019-03-14T09:11:11Z</time>
      </trkpt>
      <trkpt lat="48.67393" lon="2.03391">
        <ele>173</ele>
        <time>2019-03-14T09:11:15Z</time>
      </trkpt>
      <trkpt lat="48.67393" lon="2.034">
        <ele>173</ele>
        <time>2019-03-14T09:11:19Z</time>
      </trkpt>
      <trkpt lat="48.67391" lon="2.03409">
        <ele>173</ele>
        <time>2019-03-14T09:11:23Z</time>
      </trkpt>
      <trkpt lat="48.67391" lon="2.03417">
        <ele>173</ele>
        <time>2019-03-14T09:11:27Z</time>
      </trkpt>
      <trkpt lat="48.67392" lon="2.03425">
        <ele>173</ele>
        <time>2019-03-14T09:11:31Z</time>
      </trkpt>
      <trkpt lat="48.67391" lon="2.03434">
        <ele>173</ele>
        <time>2019-03-14T09:11:35Z</time>
      </trkpt>
      <trkpt lat="48.6739" lon="2.03442">
        <ele>173</ele>
        <time>2019-03-14T09:11:39Z</time>
      </trkpt>
      <trkpt lat="48.67388" lon="2.03451">
        <ele>173</ele>
        <time>2019-03-14T09:11:43Z</time>
      </trkpt>
      <trkpt lat="48.67387" lon="2.03461">
        <ele>173</ele>
        <time>2019-03-14T09:11:47Z</time>
      </trkpt>
      <trkpt lat="48.67385" lon="2.0347">
        <ele>173</ele>
        <time>2019-03-14T09:11:51Z</time>
      </trkpt>
      <trkpt lat="48.67385" lon="2.03479">
        <ele>173</ele>
        <time>2019-03-14T09:11:55Z</time>
      </trkpt>
      <trkpt lat="48.67383" lon="2.03488">
        <ele>173</ele>
        <time>2019-03-14T09:11:59Z</time>
      </trkpt>
      <trkpt lat="48.67382" lon="2.03498">
        <ele>173</ele>
        <time>2019-03-14T09:12:03Z</time>
      </trkpt>
      <trkpt lat="48.67382" lon="2.03505">
        <ele>173</ele>
        <time>2019-03-14T09:12:07Z</time>
      </trkpt>
      <trkpt lat="48.67381" lon="2.03514">
        <ele>173</ele>
        <time>2019-03-14T09:12:11Z</time>
      </trkpt>
      <trkpt lat="48.67381" lon="2.03523">
        <ele>173</ele>
        <time>2019-03-14T09:12:15Z</time>
      </trkpt>
      <trkpt lat="48.6738" lon="2.03531">
        <ele>173</ele>
        <time>2019-03-14T09:12:19Z</time>
      </trkpt>
      <trkpt lat="48.67379" lon="2.0354">
        <ele>173</ele>
        <time>2019-03-14T09:12:23Z</time>
      </trkpt>
      <trkpt lat="48.67376" lon="2.03551">
        <ele>173</ele>
        <time>2019-03-14T09:12:27Z</time>
      </trkpt>
      <trkpt lat="48.67376" lon="2.0356">
        <ele>173</ele>
        <time>2019-03-14T09:12:31Z</time>
      </trkpt>
      <trkpt lat="48.67374" lon="2.03569">
        <ele>173</ele>
        <time>2019-03-14T09:12:35Z</time>
      </trkpt>
      <trkpt lat="48.67373" lon="2.03579">
        <ele>173</ele>
        <time>2019-03-14T09:12:39Z</time>
      </trkpt>
      <trkpt lat="48.67373" lon="2.03587">
        <ele>173</ele>
        <time>2019-03-14T09:12:43Z</time>
      </trkpt>
      <trkpt lat="48.67373" lon="2.03596">
        <ele>173</ele>
        <time>2019-03-14T09:12:47Z</time>
      </trkpt>
      <trkpt lat="48.67372" lon="2.03606">
        <ele>173</ele>
        <time>2019-03-14T09:12:51Z</time>
      </trkpt>
      <trkpt lat="48.67371" lon="2.03614">
        <ele>173</ele>
        <time>2019-03-14T09:12:55Z</time>
      </trkpt>
      <trkpt lat="48.6737" lon="2.03623">
        <ele>173</ele>
        <time>2019-03-14T09:12:59Z</time>
      </trkpt>
      <trkpt lat="48.67369" lon="2.03631">
        <ele>173</ele>
        <time>2019-03-14T09:13:03Z</time>
      </trkpt>
      <trkpt lat="48.67369" lon="2.03642">
        <ele>173</ele>
        <time>2019-03-14T09:13:09Z</time>
      </trkpt>
      <trkpt lat="48.67368" lon="2.03649">
        <ele>173</ele>
        <time>2019-03-14T09:13:13Z</time>
      </trkpt>
      <trkpt lat="48.67367" lon="2.03659">
        <ele>173</ele>
        <time>2019-03-14T09:13:17Z</time>
      </trkpt>
      <trkpt lat="48.67366" lon="2.03668">
        <ele>173</ele>
        <time>2019-03-14T09:13:21Z</time>
      </trkpt>
      <trkpt lat="48.67366" lon="2.03677">
        <ele>173</ele>
        <time>2019-03-14T09:13:25Z</time>
      </trkpt>
      <trkpt lat="48.67366" lon="2.03686">
        <ele>173</ele>
        <time>2019-03-14T09:13:29Z</time>
      </trkpt>
      <trkpt lat="48.67364" lon="2.03695">
        <ele>173</ele>
        <time>2019-03-14T09:13:33Z</time>
      </trkpt>
      <trkpt lat="48.67364" lon="2.03705">
        <ele>173</ele>
        <time>2019-03-14T09:13:37Z</time>
      </trkpt>
      <trkpt lat="48.67363" lon="2.03714">
        <ele>173</ele>
        <time>2019-03-14T09:13:41Z</time>
      </trkpt>
      <trkpt lat="48.67362" lon="2.03722">
        <ele>173</ele>
        <time>2019-03-14T09:13:45Z</time>
      </trkpt>
      <trkpt lat="48.67361" lon="2.0373">
        <ele>173</ele>
        <time>2019-03-14T09:13:49Z</time>
      </trkpt>
      <trkpt lat="48.6736" lon="2.03739">
        <ele>173</ele>
        <time>2019-03-14T09:13:53Z</time>
      </trkpt>
      <trkpt lat="48.6736" lon="2.03746">
        <ele>173</ele>
        <time>2019-03-14T09:13:57Z</time>
      </trkpt>
      <trkpt lat="48.67359" lon="2.03755">
        <ele>173</ele>
        <time>2019-03-14T09:14:01Z</time>
      </trkpt>
      <trkpt lat="48.67359" lon="2.03764">
        <ele>172</ele>
        <time>2019-03-14T09:14:05Z</time>
      </trkpt>
      <trkpt lat="48.67358" lon="2.03773">
        <ele>172</ele>
        <time>2019-03-14T09:14:09Z</time>
      </trkpt>
      <trkpt lat="48.67357" lon="2.03782">
        <ele>172</ele>
        <time>2019-03-14T09:14:13Z</time>
      </trkpt>
      <trkpt lat="48.67356" lon="2.03791">
        <ele>172</ele>
        <time>2019-03-14T09:14:17Z</time>
      </trkpt>
      <trkpt lat="48.67355" lon="2.03801">
        <ele>172</ele>
        <time>2019-03-14T09:14:21Z</time>
      </trkpt>
      <trkpt lat="48.67355" lon="2.0381">
        <ele>172</ele>
        <time>2019-03-14T09:14:25Z</time>
      </trkpt>
      <trkpt lat="48.67354" lon="2.03818">
        <ele>172</ele>
        <time>2019-03-14T09:14:29Z</time>
      </trkpt>
      <trkpt lat="48.67353" lon="2.03826">
        <ele>173</ele>
        <time>2019-03-14T09:14:33Z</time>
      </trkpt>
      <trkpt lat="48.67352" lon="2.03835">
        <ele>172</ele>
        <time>2019-03-14T09:14:37Z</time>
      </trkpt>
      <trkpt lat="48.67351" lon="2.03844">
        <ele>172</ele>
        <time>2019-03-14T09:14:41Z</time>
      </trkpt>
      <trkpt lat="48.6735" lon="2.03853">
        <ele>172</ele>
        <time>2019-03-14T09:14:45Z</time>
      </trkpt>
      <trkpt lat="48.67349" lon="2.03862">
        <ele>172</ele>
        <time>2019-03-14T09:14:49Z</time>
      </trkpt>
      <trkpt lat="48.67348" lon="2.03871">
        <ele>172</ele>
        <time>2019-03-14T09:14:53Z</time>
      </trkpt>
      <trkpt lat="48.67348" lon="2.0388">
        <ele>172</ele>
        <time>2019-03-14T09:14:57Z</time>
      </trkpt>
      <trkpt lat="48.67348" lon="2.03888">
        <ele>172</ele>
        <time>2019-03-14T09:15:01Z</time>
      </trkpt>
      <trkpt lat="48.67347" lon="2.03898">
        <ele>172</ele>
        <time>2019-03-14T09:15:05Z</time>
      </trkpt>
      <trkpt lat="48.67346" lon="2.03907">
        <ele>172</ele>
        <time>2019-03-14T09:15:09Z</time>
      </trkpt>
      <trkpt lat="48.67345" lon="2.03915">
        <ele>172</ele>
        <time>2019-03-14T09:15:13Z</time>
      </trkpt>
      <trkpt lat="48.67343" lon="2.03924">
        <ele>172</ele>
        <time>2019-03-14T09:15:17Z</time>
      </trkpt>
      <trkpt lat="48.67344" lon="2.03931">
        <ele>172</ele>
        <time>2019-03-14T09:15:21Z</time>
      </trkpt>
      <trkpt lat="48.67343" lon="2.0394">
        <ele>172</ele>
        <time>2019-03-14T09:15:25Z</time>
      </trkpt>
      <trkpt lat="48.67342" lon="2.03949">
        <ele>172</ele>
        <time>2019-03-14T09:15:29Z</time>
      </trkpt>
      <trkpt lat="48.67341" lon="2.03959">
        <ele>172</ele>
        <time>2019-03-14T09:15:33Z</time>
      </trkpt>
      <trkpt lat="48.67341" lon="2.03968">
        <ele>172</ele>
        <time>2019-03-14T09:15:37Z</time>
      </trkpt>
      <trkpt lat="48.6734" lon="2.03978">
        <ele>172</ele>
        <time>2019-03-14T09:15:41Z</time>
      </trkpt>
      <trkpt lat="48.6734" lon="2.03988">
        <ele>172</ele>
        <time>2019-03-14T09:15:45Z</time>
      </trkpt>
      <trkpt lat="48.67339" lon="2.03997">
        <ele>172</ele>
        <time>2019-03-14T09:15:49Z</time>
      </trkpt>
      <trkpt lat="48.67338" lon="2.04008">
        <ele>172</ele>
        <time>2019-03-14T09:15:53Z</time>
      </trkpt>
      <trkpt lat="48.67336" lon="2.04016">
        <ele>172</ele>
        <time>2019-03-14T09:15:57Z</time>
      </trkpt>
      <trkpt lat="48.67336" lon="2.04025">
        <ele>172</ele>
        <time>2019-03-14T09:16:01Z</time>
      </trkpt>
      <trkpt lat="48.67334" lon="2.04035">
        <ele>172</ele>
        <time>2019-03-14T09:16:05Z</time>
      </trkpt>
      <trkpt lat="48.67333" lon="2.04045">
        <ele>173</ele>
        <time>2019-03-14T09:16:09Z</time>
      </trkpt>
      <trkpt lat="48.67331" lon="2.04053">
        <ele>173</ele>
        <time>2019-03-14T09:16:13Z</time>
      </trkpt>
      <trkpt lat="48.67331" lon="2.04063">
        <ele>173</ele>
        <time>2019-03-14T09:16:17Z</time>
      </trkpt>
      <trkpt lat="48.6733" lon="2.04072">
        <ele>173</ele>
        <time>2019-03-14T09:16:21Z</time>
      </trkpt>
      <trkpt lat="48.67329" lon="2.04081">
        <ele>173</ele>
        <time>2019-03-14T09:16:25Z</time>
      </trkpt>
      <trkpt lat="48.67328" lon="2.04091">
        <ele>173</ele>
        <time>2019-03-14T09:16:29Z</time>
      </trkpt>
      <trkpt lat="48.67328" lon="2.041">
        <ele>173</ele>
        <time>2019-03-14T09:16:33Z</time>
      </trkpt>
      <trkpt lat="48.67327" lon="2.04111">
        <ele>173</ele>
        <time>2019-03-14T09:16:37Z</time>
      </trkpt>
      <trkpt lat="48.67325" lon="2.04122">
        <ele>173</ele>
        <time>2019-03-14T09:16:41Z</time>
      </trkpt>
      <trkpt lat="48.67324" lon="2.04131">
        <ele>173</ele>
        <time>2019-03-14T09:16:45Z</time>
      </trkpt>
      <trkpt lat="48.67324" lon="2.0414">
        <ele>173</ele>
        <time>2019-03-14T09:16:49Z</time>
      </trkpt>
      <trkpt lat="48.67324" lon="2.0415">
        <ele>173</ele>
        <time>2019-03-14T09:16:53Z</time>
      </trkpt>
      <trkpt lat="48.67324" lon="2.04159">
        <ele>172</ele>
        <time>2019-03-14T09:16:57Z</time>
      </trkpt>
      <trkpt lat="48.67322" lon="2.04168">
        <ele>172</ele>
        <time>2019-03-14T09:17:01Z</time>
      </trkpt>
      <trkpt lat="48.67321" lon="2.04179">
        <ele>172</ele>
        <time>2019-03-14T09:17:05Z</time>
      </trkpt>
      <trkpt lat="48.6732" lon="2.0419">
        <ele>172</ele>
        <time>2019-03-14T09:17:09Z</time>
      </trkpt>
      <trkpt lat="48.67318" lon="2.042">
        <ele>172</ele>
        <time>2019-03-14T09:17:13Z</time>
      </trkpt>
      <trkpt lat="48.67318" lon="2.0421">
        <ele>172</ele>
        <time>2019-03-14T09:17:17Z</time>
      </trkpt>
      <trkpt lat="48.67317" lon="2.0422">
        <ele>172</ele>
        <time>2019-03-14T09:17:21Z</time>
      </trkpt>
      <trkpt lat="48.67317" lon="2.0423">
        <ele>172</ele>
        <time>2019-03-14T09:17:25Z</time>
      </trkpt>
      <trkpt lat="48.67315" lon="2.0424">
        <ele>172</ele>
        <time>2019-03-14T09:17:29Z</time>
      </trkpt>
      <trkpt lat="48.67315" lon="2.0425">
        <ele>172</ele>
        <time>2019-03-14T09:17:33Z</time>
      </trkpt>
      <trkpt lat="48.67314" lon="2.04259">
        <ele>171</ele>
        <time>2019-03-14T09:17:37Z</time>
      </trkpt>
      <trkpt lat="48.67313" lon="2.0427">
        <ele>171</ele>
        <time>2019-03-14T09:17:41Z</time>
      </trkpt>
      <trkpt lat="48.67312" lon="2.0428">
        <ele>172</ele>
        <time>2019-03-14T09:17:45Z</time>
      </trkpt>
      <trkpt lat="48.67311" lon="2.04289">
        <ele>172</ele>
        <time>2019-03-14T09:17:49Z</time>
      </trkpt>
      <trkpt lat="48.6731" lon="2.04298">
        <ele>172</ele>
        <time>2019-03-14T09:17:53Z</time>
      </trkpt>
      <trkpt lat="48.6731" lon="2.04307">
        <ele>172</ele>
        <time>2019-03-14T09:17:57Z</time>
      </trkpt>
      <trkpt lat="48.67309" lon="2.04316">
        <ele>172</ele>
        <time>2019-03-14T09:18:01Z</time>
      </trkpt>
      <trkpt lat="48.67308" lon="2.04324">
        <ele>172</ele>
        <time>2019-03-14T09:18:05Z</time>
      </trkpt>
      <trkpt lat="48.67308" lon="2.04333">
        <ele>172</ele>
        <time>2019-03-14T09:18:09Z</time>
      </trkpt>
      <trkpt lat="48.67307" lon="2.04343">
        <ele>172</ele>
        <time>2019-03-14T09:18:13Z</time>
      </trkpt>
      <trkpt lat="48.67306" lon="2.04352">
        <ele>172</ele>
        <time>2019-03-14T09:18:17Z</time>
      </trkpt>
      <trkpt lat="48.67305" lon="2.0436">
        <ele>172</ele>
        <time>2019-03-14T09:18:21Z</time>
      </trkpt>
      <trkpt lat="48.67303" lon="2.04369">
        <ele>172</ele>
        <time>2019-03-14T09:18:25Z</time>
      </trkpt>
      <trkpt lat="48.67303" lon="2.04377">
        <ele>172</ele>
        <time>2019-03-14T09:18:29Z</time>
      </trkpt>
      <trkpt lat="48.67301" lon="2.04388">
        <ele>172</ele>
        <time>2019-03-14T09:18:33Z</time>
      </trkpt>
      <trkpt lat="48.673" lon="2.04398">
        <ele>172</ele>
        <time>2019-03-14T09:18:37Z</time>
      </trkpt>
      <trkpt lat="48.67301" lon="2.04406">
        <ele>172</ele>
        <time>2019-03-14T09:18:41Z</time>
      </trkpt>
      <trkpt lat="48.673" lon="2.04414">
        <ele>172</ele>
        <time>2019-03-14T09:18:45Z</time>
      </trkpt>
      <trkpt lat="48.67298" lon="2.04424">
        <ele>172</ele>
        <time>2019-03-14T09:18:49Z</time>
      </trkpt>
      <trkpt lat="48.67298" lon="2.04434">
        <ele>172</ele>
        <time>2019-03-14T09:18:53Z</time>
      </trkpt>
      <trkpt lat="48.67297" lon="2.04442">
        <ele>172</ele>
        <time>2019-03-14T09:18:57Z</time>
      </trkpt>
      <trkpt lat="48.67296" lon="2.04451">
        <ele>172</ele>
        <time>2019-03-14T09:19:01Z</time>
      </trkpt>
      <trkpt lat="48.67296" lon="2.04462">
        <ele>172</ele>
        <time>2019-03-14T09:19:07Z</time>
      </trkpt>
      <trkpt lat="48.67295" lon="2.04471">
        <ele>172</ele>
        <time>2019-03-14T09:19:11Z</time>
      </trkpt>
      <trkpt lat="48.67296" lon="2.04478">
        <ele>172</ele>
        <time>2019-03-14T09:19:15Z</time>
      </trkpt>
      <trkpt lat="48.67295" lon="2.0449">
        <ele>172</ele>
        <time>2019-03-14T09:19:21Z</time>
      </trkpt>
      <trkpt lat="48.67294" lon="2.04498">
        <ele>172</ele>
        <time>2019-03-14T09:19:25Z</time>
      </trkpt>
      <trkpt lat="48.67293" lon="2.04507">
        <ele>171</ele>
        <time>2019-03-14T09:19:29Z</time>
      </trkpt>
      <trkpt lat="48.67292" lon="2.04518">
        <ele>171</ele>
        <time>2019-03-14T09:19:33Z</time>
      </trkpt>
      <trkpt lat="48.67295" lon="2.04526">
        <ele>171</ele>
        <time>2019-03-14T09:19:39Z</time>
      </trkpt>
      <trkpt lat="48.67293" lon="2.04532">
        <ele>171</ele>
        <time>2019-03-14T09:20:41Z</time>
      </trkpt>
      <trkpt lat="48.67299" lon="2.04532">
        <ele>171</ele>
        <time>2019-03-14T09:20:47Z</time>
      </trkpt>
      <trkpt lat="48.67306" lon="2.04533">
        <ele>171</ele>
        <time>2019-03-14T09:20:51Z</time>
      </trkpt>
      <trkpt lat="48.67311" lon="2.04536">
        <ele>171</ele>
        <time>2019-03-14T09:20:55Z</time>
      </trkpt>
      <trkpt lat="48.67317" lon="2.04538">
        <ele>171</ele>
        <time>2019-03-14T09:20:59Z</time>
      </trkpt>
      <trkpt lat="48.67323" lon="2.04539">
        <ele>171</ele>
        <time>2019-03-14T09:21:03Z</time>
      </trkpt>
      <trkpt lat="48.67329" lon="2.04541">
        <ele>171</ele>
        <time>2019-03-14T09:21:07Z</time>
      </trkpt>
      <trkpt lat="48.67335" lon="2.04543">
        <ele>170</ele>
        <time>2019-03-14T09:21:11Z</time>
      </trkpt>
      <trkpt lat="48.67341" lon="2.04545">
        <ele>170</ele>
        <time>2019-03-14T09:21:15Z</time>
      </trkpt>
      <trkpt lat="48.67348" lon="2.04547">
        <ele>170</ele>
        <time>2019-03-14T09:21:19Z</time>
      </trkpt>
      <trkpt lat="48.67356" lon="2.0455">
        <ele>170</ele>
        <time>2019-03-14T09:21:23Z</time>
      </trkpt>
      <trkpt lat="48.67362" lon="2.04552">
        <ele>170</ele>
        <time>2019-03-14T09:21:27Z</time>
      </trkpt>
      <trkpt lat="48.67368" lon="2.04554">
        <ele>170</ele>
        <time>2019-03-14T09:21:31Z</time>
      </trkpt>
      <trkpt lat="48.67374" lon="2.04556">
        <ele>170</ele>
        <time>2019-03-14T09:21:35Z</time>
      </trkpt>
      <trkpt lat="48.6738" lon="2.04558">
        <ele>170</ele>
        <time>2019-03-14T09:21:39Z</time>
      </trkpt>
      <trkpt lat="48.67387" lon="2.04559">
        <ele>170</ele>
        <time>2019-03-14T09:21:43Z</time>
      </trkpt>
      <trkpt lat="48.67392" lon="2.04561">
        <ele>170</ele>
        <time>2019-03-14T09:21:47Z</time>
      </trkpt>
      <trkpt lat="48.67398" lon="2.04562">
        <ele>170</ele>
        <time>2019-03-14T09:21:51Z</time>
      </trkpt>
      <trkpt lat="48.67405" lon="2.04564">
        <ele>170</ele>
        <time>2019-03-14T09:21:55Z</time>
      </trkpt>
      <trkpt lat="48.67411" lon="2.04566">
        <ele>170</ele>
        <time>2019-03-14T09:21:59Z</time>
      </trkpt>
      <trkpt lat="48.67416" lon="2.04568">
        <ele>169</ele>
        <time>2019-03-14T09:22:03Z</time>
      </trkpt>
      <trkpt lat="48.67423" lon="2.0457">
        <ele>169</ele>
        <time>2019-03-14T09:22:07Z</time>
      </trkpt>
      <trkpt lat="48.67429" lon="2.04573">
        <ele>169</ele>
        <time>2019-03-14T09:22:11Z</time>
      </trkpt>
      <trkpt lat="48.67434" lon="2.04575">
        <ele>169</ele>
        <time>2019-03-14T09:22:15Z</time>
      </trkpt>
      <trkpt lat="48.67441" lon="2.04575">
        <ele>169</ele>
        <time>2019-03-14T09:22:19Z</time>
      </trkpt>
      <trkpt lat="48.67447" lon="2.04577">
        <ele>169</ele>
        <time>2019-03-14T09:22:23Z</time>
      </trkpt>
      <trkpt lat="48.67454" lon="2.04579">
        <ele>168</ele>
        <time>2019-03-14T09:22:27Z</time>
      </trkpt>
      <trkpt lat="48.67461" lon="2.04582">
        <ele>168</ele>
        <time>2019-03-14T09:22:31Z</time>
      </trkpt>
      <trkpt lat="48.67467" lon="2.04584">
        <ele>168</ele>
        <time>2019-03-14T09:22:35Z</time>
      </trkpt>
      <trkpt lat="48.67474" lon="2.04586">
        <ele>168</ele>
        <time>2019-03-14T09:22:39Z</time>
      </trkpt>
      <trkpt lat="48.67481" lon="2.04589">
        <ele>167</ele>
        <time>2019-03-14T09:22:43Z</time>
      </trkpt>
      <trkpt lat="48.67487" lon="2.04591">
        <ele>167</ele>
        <time>2019-03-14T09:22:47Z</time>
      </trkpt>
      <trkpt lat="48.67493" lon="2.04593">
        <ele>167</ele>
        <time>2019-03-14T09:22:51Z</time>
      </trkpt>
      <trkpt lat="48.675" lon="2.04596">
        <ele>166</ele>
        <time>2019-03-14T09:22:55Z</time>
      </trkpt>
      <trkpt lat="48.67506" lon="2.04598">
        <ele>166</ele>
        <time>2019-03-14T09:22:59Z</time>
      </trkpt>
      <trkpt lat="48.67513" lon="2.046">
        <ele>166</ele>
        <time>2019-03-14T09:23:03Z</time>
      </trkpt>
      <trkpt lat="48.67519" lon="2.04602">
        <ele>166</ele>
        <time>2019-03-14T09:23:07Z</time>
      </trkpt>
      <trkpt lat="48.67525" lon="2.04604">
        <ele>166</ele>
        <time>2019-03-14T09:23:11Z</time>
      </trkpt>
      <trkpt lat="48.67531" lon="2.04605">
        <ele>166</ele>
        <time>2019-03-14T09:23:15Z</time>
      </trkpt>
      <trkpt lat="48.67538" lon="2.04606">
        <ele>166</ele>
        <time>2019-03-14T09:23:19Z</time>
      </trkpt>
      <trkpt lat="48.67544" lon="2.04608">
        <ele>166</ele>
        <time>2019-03-14T09:23:23Z</time>
      </trkpt>
      <trkpt lat="48.67551" lon="2.04609">
        <ele>165</ele>
        <time>2019-03-14T09:23:27Z</time>
      </trkpt>
      <trkpt lat="48.67557" lon="2.04612">
        <ele>165</ele>
        <time>2019-03-14T09:23:31Z</time>
      </trkpt>
      <trkpt lat="48.67563" lon="2.04614">
        <ele>165</ele>
        <time>2019-03-14T09:23:35Z</time>
      </trkpt>
      <trkpt lat="48.67569" lon="2.04615">
        <ele>165</ele>
        <time>2019-03-14T09:23:39Z</time>
      </trkpt>
      <trkpt lat="48.67576" lon="2.04618">
        <ele>165</ele>
        <time>2019-03-14T09:23:43Z</time>
      </trkpt>
      <trkpt lat="48.67583" lon="2.0462">
        <ele>165</ele>
        <time>2019-03-14T09:23:47Z</time>
      </trkpt>
      <trkpt lat="48.6759" lon="2.04621">
        <ele>165</ele>
        <time>2019-03-14T09:23:51Z</time>
      </trkpt>
      <trkpt lat="48.67595" lon="2.04624">
        <ele>165</ele>
        <time>2019-03-14T09:23:55Z</time>
      </trkpt>
      <trkpt lat="48.67602" lon="2.04627">
        <ele>164</ele>
        <time>2019-03-14T09:23:59Z</time>
      </trkpt>
      <trkpt lat="48.67609" lon="2.04629">
        <ele>164</ele>
        <time>2019-03-14T09:24:03Z</time>
      </trkpt>
      <trkpt lat="48.67615" lon="2.04631">
        <ele>164</ele>
        <time>2019-03-14T09:24:07Z</time>
      </trkpt>
      <trkpt lat="48.6762" lon="2.04633">
        <ele>164</ele>
        <time>2019-03-14T09:24:11Z</time>
      </trkpt>
      <trkpt lat="48.67626" lon="2.04636">
        <ele>164</ele>
        <time>2019-03-14T09:24:15Z</time>
      </trkpt>
      <trkpt lat="48.6763" lon="2.04641">
        <ele>164</ele>
        <time>2019-03-14T09:24:19Z</time>
      </trkpt>
      <trkpt lat="48.67635" lon="2.04647">
        <ele>164</ele>
        <time>2019-03-14T09:24:23Z</time>
      </trkpt>
      <trkpt lat="48.67638" lon="2.04655">
        <ele>164</ele>
        <time>2019-03-14T09:24:27Z</time>
      </trkpt>
      <trkpt lat="48.6764" lon="2.04664">
        <ele>164</ele>
        <time>2019-03-14T09:24:31Z</time>
      </trkpt>
      <trkpt lat="48.67643" lon="2.04672">
        <ele>164</ele>
        <time>2019-03-14T09:24:35Z</time>
      </trkpt>
      <trkpt lat="48.67644" lon="2.04682">
        <ele>164</ele>
        <time>2019-03-14T09:24:39Z</time>
      </trkpt>
      <trkpt lat="48.67644" lon="2.04692">
        <ele>164</ele>
        <time>2019-03-14T09:24:43Z</time>
      </trkpt>
      <trkpt lat="48.67644" lon="2.04701">
        <ele>164</ele>
        <time>2019-03-14T09:24:47Z</time>
      </trkpt>
      <trkpt lat="48.67644" lon="2.04712">
        <ele>163</ele>
        <time>2019-03-14T09:24:51Z</time>
      </trkpt>
      <trkpt lat="48.67645" lon="2.04722">
        <ele>163</ele>
        <time>2019-03-14T09:24:55Z</time>
      </trkpt>
      <trkpt lat="48.67646" lon="2.0473">
        <ele>163</ele>
        <time>2019-03-14T09:24:59Z</time>
      </trkpt>
      <trkpt lat="48.67647" lon="2.04739">
        <ele>163</ele>
        <time>2019-03-14T09:25:03Z</time>
      </trkpt>
      <trkpt lat="48.67647" lon="2.04749">
        <ele>163</ele>
        <time>2019-03-14T09:25:07Z</time>
      </trkpt>
      <trkpt lat="48.67651" lon="2.04756">
        <ele>163</ele>
        <time>2019-03-14T09:25:11Z</time>
      </trkpt>
      <trkpt lat="48.67653" lon="2.04762">
        <ele>163</ele>
        <time>2019-03-14T09:25:13Z</time>
      </trkpt>
      <trkpt lat="48.67656" lon="2.04769">
        <ele>163</ele>
        <time>2019-03-14T09:25:17Z</time>
      </trkpt>
      <trkpt lat="48.67659" lon="2.04778">
        <ele>163</ele>
        <time>2019-03-14T09:25:21Z</time>
      </trkpt>
      <trkpt lat="48.67662" lon="2.04787">
        <ele>163</ele>
        <time>2019-03-14T09:25:25Z</time>
      </trkpt>
      <trkpt lat="48.67666" lon="2.04796">
        <ele>163</ele>
        <time>2019-03-14T09:25:29Z</time>
      </trkpt>
      <trkpt lat="48.6767" lon="2.04802">
        <ele>164</ele>
        <time>2019-03-14T09:25:33Z</time>
      </trkpt>
      <trkpt lat="48.67675" lon="2.04807">
        <ele>164</ele>
        <time>2019-03-14T09:25:39Z</time>
      </trkpt>
      <trkpt lat="48.67675" lon="2.04814">
        <ele>164</ele>
        <time>2019-03-14T09:26:09Z</time>
      </trkpt>
      <trkpt lat="48.67672" lon="2.04822">
        <ele>164</ele>
        <time>2019-03-14T09:26:41Z</time>
      </trkpt>
      <trkpt lat="48.67674" lon="2.04829">
        <ele>164</ele>
        <time>2019-03-14T09:26:47Z</time>
      </trkpt>
      <trkpt lat="48.67674" lon="2.04836">
        <ele>163</ele>
        <time>2019-03-14T09:26:53Z</time>
      </trkpt>
      <trkpt lat="48.67677" lon="2.04846">
        <ele>164</ele>
        <time>2019-03-14T09:27:03Z</time>
      </trkpt>
      <trkpt lat="48.67679" lon="2.04852">
        <ele>164</ele>
        <time>2019-03-14T09:27:07Z</time>
      </trkpt>
      <trkpt lat="48.67683" lon="2.04856">
        <ele>164</ele>
        <time>2019-03-14T09:27:11Z</time>
      </trkpt>
      <trkpt lat="48.67686" lon="2.04861">
        <ele>164</ele>
        <time>2019-03-14T09:27:15Z</time>
      </trkpt>
      <trkpt lat="48.67689" lon="2.04867">
        <ele>164</ele>
        <time>2019-03-14T09:27:19Z</time>
      </trkpt>
      <trkpt lat="48.6769" lon="2.04874">
        <ele>164</ele>
        <time>2019-03-14T09:27:23Z</time>
      </trkpt>
      <trkpt lat="48.67694" lon="2.04879">
        <ele>164</ele>
        <time>2019-03-14T09:27:27Z</time>
      </trkpt>
      <trkpt lat="48.67698" lon="2.04883">
        <ele>164</ele>
        <time>2019-03-14T09:27:31Z</time>
      </trkpt>
      <trkpt lat="48.677" lon="2.04892">
        <ele>164</ele>
        <time>2019-03-14T09:27:37Z</time>
      </trkpt>
      <trkpt lat="48.67704" lon="2.04899">
        <ele>164</ele>
        <time>2019-03-14T09:27:43Z</time>
      </trkpt>
      <trkpt lat="48.67704" lon="2.04909">
        <ele>164</ele>
        <time>2019-03-14T09:27:49Z</time>
      </trkpt>
      <trkpt lat="48.67707" lon="2.04916">
        <ele>164</ele>
        <time>2019-03-14T09:27:53Z</time>
      </trkpt>
      <trkpt lat="48.67708" lon="2.04925">
        <ele>163</ele>
        <time>2019-03-14T09:27:57Z</time>
      </trkpt>
      <trkpt lat="48.67707" lon="2.04932">
        <ele>163</ele>
        <time>2019-03-14T09:28:01Z</time>
      </trkpt>
      <trkpt lat="48.67708" lon="2.04941">
        <ele>163</ele>
        <time>2019-03-14T09:28:05Z</time>
      </trkpt>
      <trkpt lat="48.67707" lon="2.04948">
        <ele>163</ele>
        <time>2019-03-14T09:28:09Z</time>
      </trkpt>
      <trkpt lat="48.67707" lon="2.0496">
        <ele>162</ele>
        <time>2019-03-14T09:28:13Z</time>
      </trkpt>
      <trkpt lat="48.67707" lon="2.0497">
        <ele>162</ele>
        <time>2019-03-14T09:28:19Z</time>
      </trkpt>
      <trkpt lat="48.67705" lon="2.04979">
        <ele>162</ele>
        <time>2019-03-14T09:28:23Z</time>
      </trkpt>
      <trkpt lat="48.67705" lon="2.04989">
        <ele>162</ele>
        <time>2019-03-14T09:28:27Z</time>
      </trkpt>
      <trkpt lat="48.67703" lon="2.04999">
        <ele>162</ele>
        <time>2019-03-14T09:28:31Z</time>
      </trkpt>
      <trkpt lat="48.67702" lon="2.05006">
        <ele>160</ele>
        <time>2019-03-14T09:28:35Z</time>
      </trkpt>
      <trkpt lat="48.677" lon="2.05013">
        <ele>160</ele>
        <time>2019-03-14T09:28:41Z</time>
      </trkpt>
      <trkpt lat="48.67701" lon="2.05019">
        <ele>160</ele>
        <time>2019-03-14T09:28:45Z</time>
      </trkpt>
      <trkpt lat="48.677" lon="2.05028">
        <ele>160</ele>
        <time>2019-03-14T09:28:49Z</time>
      </trkpt>
      <trkpt lat="48.677" lon="2.05035">
        <ele>160</ele>
        <time>2019-03-14T09:28:53Z</time>
      </trkpt>
      <trkpt lat="48.67703" lon="2.05042">
        <ele>160</ele>
        <time>2019-03-14T09:28:57Z</time>
      </trkpt>
      <trkpt lat="48.67701" lon="2.0505">
        <ele>160</ele>
        <time>2019-03-14T09:29:01Z</time>
      </trkpt>
      <trkpt lat="48.67699" lon="2.05057">
        <ele>159</ele>
        <time>2019-03-14T09:29:05Z</time>
      </trkpt>
      <trkpt lat="48.67698" lon="2.05067">
        <ele>159</ele>
        <time>2019-03-14T09:29:11Z</time>
      </trkpt>
      <trkpt lat="48.67697" lon="2.05081">
        <ele>159</ele>
        <time>2019-03-14T09:29:15Z</time>
      </trkpt>
      <trkpt lat="48.67697" lon="2.05088">
        <ele>158</ele>
        <time>2019-03-14T09:29:19Z</time>
      </trkpt>
      <trkpt lat="48.67699" lon="2.05094">
        <ele>158</ele>
        <time>2019-03-14T09:29:23Z</time>
      </trkpt>
      <trkpt lat="48.67699" lon="2.05103">
        <ele>158</ele>
        <time>2019-03-14T09:29:29Z</time>
      </trkpt>
      <trkpt lat="48.677" lon="2.05113">
        <ele>158</ele>
        <time>2019-03-14T09:29:33Z</time>
      </trkpt>
      <trkpt lat="48.67702" lon="2.05123">
        <ele>158</ele>
        <time>2019-03-14T09:29:37Z</time>
      </trkpt>
      <trkpt lat="48.67701" lon="2.05132">
        <ele>158</ele>
        <time>2019-03-14T09:29:41Z</time>
      </trkpt>
      <trkpt lat="48.67701" lon="2.05139">
        <ele>158</ele>
        <time>2019-03-14T09:29:47Z</time>
      </trkpt>
      <trkpt lat="48.677" lon="2.05149">
        <ele>158</ele>
        <time>2019-03-14T09:29:51Z</time>
      </trkpt>
      <trkpt lat="48.677" lon="2.05156">
        <ele>158</ele>
        <time>2019-03-14T09:29:57Z</time>
      </trkpt>
      <trkpt lat="48.677" lon="2.05164">
        <ele>158</ele>
        <time>2019-03-14T09:30:07Z</time>
      </trkpt>
      <trkpt lat="48.67703" lon="2.0517">
        <ele>156</ele>
        <time>2019-03-14T09:30:11Z</time>
      </trkpt>
      <trkpt lat="48.67706" lon="2.05176">
        <ele>156</ele>
        <time>2019-03-14T09:30:17Z</time>
      </trkpt>
      <trkpt lat="48.67709" lon="2.05182">
        <ele>156</ele>
        <time>2019-03-14T09:30:23Z</time>
      </trkpt>
      <trkpt lat="48.67713" lon="2.05187">
        <ele>156</ele>
        <time>2019-03-14T09:30:31Z</time>
      </trkpt>
      <trkpt lat="48.67714" lon="2.05194">
        <ele>155</ele>
        <time>2019-03-14T09:30:45Z</time>
      </trkpt>
      <trkpt lat="48.67716" lon="2.05203">
        <ele>155</ele>
        <time>2019-03-14T09:30:55Z</time>
      </trkpt>
      <trkpt lat="48.67718" lon="2.0521">
        <ele>155</ele>
        <time>2019-03-14T09:31:11Z</time>
      </trkpt>
      <trkpt lat="48.6772" lon="2.05219">
        <ele>155</ele>
        <time>2019-03-14T09:31:27Z</time>
      </trkpt>
      <trkpt lat="48.67725" lon="2.05221">
        <ele>155</ele>
        <time>2019-03-14T09:31:51Z</time>
      </trkpt>
      <trkpt lat="48.67729" lon="2.05228">
        <ele>154</ele>
        <time>2019-03-14T09:32:01Z</time>
      </trkpt>
      <trkpt lat="48.67733" lon="2.05233">
        <ele>154</ele>
        <time>2019-03-14T09:32:07Z</time>
      </trkpt>
      <trkpt lat="48.67738" lon="2.05235">
        <ele>154</ele>
        <time>2019-03-14T09:32:13Z</time>
      </trkpt>
      <trkpt lat="48.67742" lon="2.05235">
        <ele>154</ele>
        <time>2019-03-14T09:32:17Z</time>
      </trkpt>
      <trkpt lat="48.67748" lon="2.05234">
        <ele>154</ele>
        <time>2019-03-14T09:32:25Z</time>
      </trkpt>
      <trkpt lat="48.67754" lon="2.05236">
        <ele>156</ele>
        <time>2019-03-14T09:32:31Z</time>
      </trkpt>
      <trkpt lat="48.67759" lon="2.05239">
        <ele>156</ele>
        <time>2019-03-14T09:32:35Z</time>
      </trkpt>
      <trkpt lat="48.67763" lon="2.05246">
        <ele>156</ele>
        <time>2019-03-14T09:32:45Z</time>
      </trkpt>
      <trkpt lat="48.67768" lon="2.05248">
        <ele>157</ele>
        <time>2019-03-14T09:32:49Z</time>
      </trkpt>
      <trkpt lat="48.67773" lon="2.05253">
        <ele>153</ele>
        <time>2019-03-14T09:32:53Z</time>
      </trkpt>
      <trkpt lat="48.67777" lon="2.05255">
        <ele>153</ele>
        <time>2019-03-14T09:32:59Z</time>
      </trkpt>
      <trkpt lat="48.67782" lon="2.05258">
        <ele>153</ele>
        <time>2019-03-14T09:33:05Z</time>
      </trkpt>
      <trkpt lat="48.67786" lon="2.05263">
        <ele>154</ele>
        <time>2019-03-14T09:33:11Z</time>
      </trkpt>
      <trkpt lat="48.67791" lon="2.05265">
        <ele>154</ele>
        <time>2019-03-14T09:33:17Z</time>
      </trkpt>
      <trkpt lat="48.67796" lon="2.05269">
        <ele>154</ele>
        <time>2019-03-14T09:33:21Z</time>
      </trkpt>
      <trkpt lat="48.67799" lon="2.05274">
        <ele>154</ele>
        <time>2019-03-14T09:33:25Z</time>
      </trkpt>
      <trkpt lat="48.67804" lon="2.05276">
        <ele>154</ele>
        <time>2019-03-14T09:33:29Z</time>
      </trkpt>
      <trkpt lat="48.6781" lon="2.05281">
        <ele>154</ele>
        <time>2019-03-14T09:33:35Z</time>
      </trkpt>
      <trkpt lat="48.67815" lon="2.05286">
        <ele>154</ele>
        <time>2019-03-14T09:33:39Z</time>
      </trkpt>
      <trkpt lat="48.67819" lon="2.05291">
        <ele>154</ele>
        <time>2019-03-14T09:33:49Z</time>
      </trkpt>
      <trkpt lat="48.67824" lon="2.05292">
        <ele>154</ele>
        <time>2019-03-14T09:34:27Z</time>
      </trkpt>
      <trkpt lat="48.67824" lon="2.05284">
        <ele>154</ele>
        <time>2019-03-14T09:35:19Z</time>
      </trkpt>
      <trkpt lat="48.67828" lon="2.0528">
        <ele>155</ele>
        <time>2019-03-14T09:35:29Z</time>
      </trkpt>
      <trkpt lat="48.67832" lon="2.05276">
        <ele>156</ele>
        <time>2019-03-14T09:35:37Z</time>
      </trkpt>
      <trkpt lat="48.67826" lon="2.05277">
        <ele>155</ele>
        <time>2019-03-14T09:36:17Z</time>
      </trkpt>
      <trkpt lat="48.6783" lon="2.05282">
        <ele>155</ele>
        <time>2019-03-14T09:37:47Z</time>
      </trkpt>
      <trkpt lat="48.67834" lon="2.05285">
        <ele>159</ele>
        <time>2019-03-14T09:37:53Z</time>
      </trkpt>
      <trkpt lat="48.67838" lon="2.05289">
        <ele>159</ele>
        <time>2019-03-14T09:38:03Z</time>
      </trkpt>
      <trkpt lat="48.67842" lon="2.05296">
        <ele>158</ele>
        <time>2019-03-14T09:38:15Z</time>
      </trkpt>
      <trkpt lat="48.67847" lon="2.053">
        <ele>158</ele>
        <time>2019-03-14T09:38:19Z</time>
      </trkpt>
      <trkpt lat="48.67852" lon="2.05304">
        <ele>158</ele>
        <time>2019-03-14T09:38:25Z</time>
      </trkpt>
      <trkpt lat="48.67856" lon="2.05309">
        <ele>158</ele>
        <time>2019-03-14T09:38:29Z</time>
      </trkpt>
      <trkpt lat="48.67863" lon="2.05311">
        <ele>158</ele>
        <time>2019-03-14T09:38:33Z</time>
      </trkpt>
      <trkpt lat="48.67871" lon="2.05316">
        <ele>159</ele>
        <time>2019-03-14T09:38:37Z</time>
      </trkpt>
      <trkpt lat="48.6788" lon="2.0532">
        <ele>159</ele>
        <time>2019-03-14T09:38:41Z</time>
      </trkpt>
      <trkpt lat="48.67885" lon="2.05323">
        <ele>159</ele>
        <time>2019-03-14T09:38:43Z</time>
      </trkpt>
      <trkpt lat="48.67889" lon="2.05327">
        <ele>159</ele>
        <time>2019-03-14T09:38:45Z</time>
      </trkpt>
      <trkpt lat="48.67894" lon="2.05331">
        <ele>160</ele>
        <time>2019-03-14T09:38:49Z</time>
      </trkpt>
      <trkpt lat="48.67898" lon="2.05334">
        <ele>155</ele>
        <time>2019-03-14T09:38:53Z</time>
      </trkpt>
      <trkpt lat="48.67903" lon="2.05339">
        <ele>156</ele>
        <time>2019-03-14T09:38:59Z</time>
      </trkpt>
      <trkpt lat="48.67907" lon="2.05343">
        <ele>156</ele>
        <time>2019-03-14T09:39:05Z</time>
      </trkpt>
      <trkpt lat="48.67911" lon="2.05347">
        <ele>156</ele>
        <time>2019-03-14T09:39:09Z</time>
      </trkpt>
      <trkpt lat="48.67917" lon="2.05351">
        <ele>158</ele>
        <time>2019-03-14T09:39:15Z</time>
      </trkpt>
      <trkpt lat="48.67923" lon="2.05353">
        <ele>158</ele>
        <time>2019-03-14T09:39:19Z</time>
      </trkpt>
      <trkpt lat="48.67931" lon="2.05355">
        <ele>158</ele>
        <time>2019-03-14T09:39:23Z</time>
      </trkpt>
      <trkpt lat="48.67939" lon="2.0536">
        <ele>158</ele>
        <time>2019-03-14T09:39:27Z</time>
      </trkpt>
      <trkpt lat="48.67948" lon="2.05365">
        <ele>158</ele>
        <time>2019-03-14T09:39:31Z</time>
      </trkpt>
      <trkpt lat="48.67954" lon="2.05371">
        <ele>158</ele>
        <time>2019-03-14T09:39:35Z</time>
      </trkpt>
      <trkpt lat="48.67959" lon="2.05374">
        <ele>158</ele>
        <time>2019-03-14T09:39:39Z</time>
      </trkpt>
      <trkpt lat="48.67964" lon="2.05377">
        <ele>158</ele>
        <time>2019-03-14T09:39:43Z</time>
      </trkpt>
      <trkpt lat="48.67969" lon="2.05382">
        <ele>158</ele>
        <time>2019-03-14T09:39:47Z</time>
      </trkpt>
      <trkpt lat="48.67974" lon="2.05387">
        <ele>157</ele>
        <time>2019-03-14T09:39:51Z</time>
      </trkpt>
      <trkpt lat="48.6798" lon="2.05391">
        <ele>157</ele>
        <time>2019-03-14T09:39:55Z</time>
      </trkpt>
      <trkpt lat="48.67988" lon="2.05395">
        <ele>157</ele>
        <time>2019-03-14T09:39:59Z</time>
      </trkpt>
      <trkpt lat="48.67994" lon="2.05399">
        <ele>157</ele>
        <time>2019-03-14T09:40:03Z</time>
      </trkpt>
      <trkpt lat="48.67998" lon="2.05401">
        <ele>157</ele>
        <time>2019-03-14T09:40:07Z</time>
      </trkpt>
      <trkpt lat="48.68003" lon="2.05406">
        <ele>159</ele>
        <time>2019-03-14T09:40:13Z</time>
      </trkpt>
      <trkpt lat="48.68008" lon="2.05409">
        <ele>159</ele>
        <time>2019-03-14T09:40:19Z</time>
      </trkpt>
      <trkpt lat="48.68014" lon="2.05413">
        <ele>159</ele>
        <time>2019-03-14T09:40:25Z</time>
      </trkpt>
      <trkpt lat="48.68019" lon="2.05417">
        <ele>155</ele>
        <time>2019-03-14T09:40:33Z</time>
      </trkpt>
      <trkpt lat="48.68026" lon="2.05419">
        <ele>154</ele>
        <time>2019-03-14T09:40:37Z</time>
      </trkpt>
      <trkpt lat="48.68032" lon="2.05421">
        <ele>154</ele>
        <time>2019-03-14T09:40:41Z</time>
      </trkpt>
      <trkpt lat="48.68037" lon="2.05426">
        <ele>154</ele>
        <time>2019-03-14T09:40:45Z</time>
      </trkpt>
      <trkpt lat="48.68042" lon="2.05431">
        <ele>154</ele>
        <time>2019-03-14T09:40:47Z</time>
      </trkpt>
      <trkpt lat="48.68046" lon="2.05435">
        <ele>154</ele>
        <time>2019-03-14T09:40:51Z</time>
      </trkpt>
      <trkpt lat="48.68053" lon="2.05441">
        <ele>154</ele>
        <time>2019-03-14T09:40:57Z</time>
      </trkpt>
      <trkpt lat="48.68057" lon="2.05446">
        <ele>153</ele>
        <time>2019-03-14T09:41:01Z</time>
      </trkpt>
      <trkpt lat="48.68062" lon="2.0545">
        <ele>153</ele>
        <time>2019-03-14T09:41:07Z</time>
      </trkpt>
      <trkpt lat="48.68066" lon="2.0546">
        <ele>152</ele>
        <time>2019-03-14T09:41:09Z</time>
      </trkpt>
      <trkpt lat="48.68072" lon="2.05466">
        <ele>152</ele>
        <time>2019-03-14T09:41:13Z</time>
      </trkpt>
      <trkpt lat="48.6808" lon="2.05473">
        <ele>151</ele>
        <time>2019-03-14T09:41:17Z</time>
      </trkpt>
      <trkpt lat="48.68084" lon="2.05476">
        <ele>152</ele>
        <time>2019-03-14T09:41:21Z</time>
      </trkpt>
      <trkpt lat="48.68091" lon="2.05479">
        <ele>152</ele>
        <time>2019-03-14T09:41:25Z</time>
      </trkpt>
      <trkpt lat="48.68096" lon="2.05481">
        <ele>152</ele>
        <time>2019-03-14T09:41:29Z</time>
      </trkpt>
      <trkpt lat="48.68101" lon="2.05482">
        <ele>152</ele>
        <time>2019-03-14T09:41:31Z</time>
      </trkpt>
      <trkpt lat="48.68106" lon="2.0549">
        <ele>152</ele>
        <time>2019-03-14T09:41:35Z</time>
      </trkpt>
      <trkpt lat="48.6811" lon="2.05494">
        <ele>153</ele>
        <time>2019-03-14T09:41:39Z</time>
      </trkpt>
      <trkpt lat="48.68115" lon="2.055">
        <ele>153</ele>
        <time>2019-03-14T09:41:45Z</time>
      </trkpt>
      <trkpt lat="48.68122" lon="2.05505">
        <ele>147</ele>
        <time>2019-03-14T09:41:51Z</time>
      </trkpt>
      <trkpt lat="48.68125" lon="2.0551">
        <ele>147</ele>
        <time>2019-03-14T09:41:55Z</time>
      </trkpt>
      <trkpt lat="48.68131" lon="2.05516">
        <ele>147</ele>
        <time>2019-03-14T09:41:59Z</time>
      </trkpt>
      <trkpt lat="48.68136" lon="2.05517">
        <ele>147</ele>
        <time>2019-03-14T09:42:01Z</time>
      </trkpt>
      <trkpt lat="48.68143" lon="2.05522">
        <ele>147</ele>
        <time>2019-03-14T09:42:07Z</time>
      </trkpt>
      <trkpt lat="48.68149" lon="2.05527">
        <ele>147</ele>
        <time>2019-03-14T09:42:11Z</time>
      </trkpt>
      <trkpt lat="48.68154" lon="2.0553">
        <ele>147</ele>
        <time>2019-03-14T09:42:15Z</time>
      </trkpt>
      <trkpt lat="48.68159" lon="2.05534">
        <ele>147</ele>
        <time>2019-03-14T09:42:17Z</time>
      </trkpt>
      <trkpt lat="48.6842" lon="2.0609">
        <ele>138</ele>
        <time>2019-03-14T09:47:50Z</time>
      </trkpt>
      <trkpt lat="48.68422" lon="2.06096">
        <ele>138</ele>
        <time>2019-03-14T09:47:59Z</time>
      </trkpt>
      <trkpt lat="48.68425" lon="2.06104">
        <ele>139</ele>
        <time>2019-03-14T09:48:05Z</time>
      </trkpt>
      <trkpt lat="48.68428" lon="2.06111">
        <ele>139</ele>
        <time>2019-03-14T09:48:11Z</time>
      </trkpt>
      <trkpt lat="48.68432" lon="2.06115">
        <ele>139</ele>
        <time>2019-03-14T09:48:15Z</time>
      </trkpt>
      <trkpt lat="48.68437" lon="2.06118">
        <ele>139</ele>
        <time>2019-03-14T09:48:19Z</time>
      </trkpt>
      <trkpt lat="48.68443" lon="2.06126">
        <ele>139</ele>
        <time>2019-03-14T09:48:23Z</time>
      </trkpt>
      <trkpt lat="48.6845" lon="2.06134">
        <ele>139</ele>
        <time>2019-03-14T09:48:27Z</time>
      </trkpt>
      <trkpt lat="48.68453" lon="2.06141">
        <ele>139</ele>
        <time>2019-03-14T09:48:31Z</time>
      </trkpt>
      <trkpt lat="48.6846" lon="2.06142">
        <ele>140</ele>
        <time>2019-03-14T09:48:33Z</time>
      </trkpt>
      <trkpt lat="48.68465" lon="2.06147">
        <ele>140</ele>
        <time>2019-03-14T09:48:37Z</time>
      </trkpt>
      <trkpt lat="48.68468" lon="2.06151">
        <ele>140</ele>
        <time>2019-03-14T09:48:41Z</time>
      </trkpt>
      <trkpt lat="48.68472" lon="2.06155">
        <ele>140</ele>
        <time>2019-03-14T09:48:45Z</time>
      </trkpt>
      <trkpt lat="48.68476" lon="2.06159">
        <ele>140</ele>
        <time>2019-03-14T09:48:49Z</time>
      </trkpt>
      <trkpt lat="48.68482" lon="2.06162">
        <ele>141</ele>
        <time>2019-03-14T09:48:55Z</time>
      </trkpt>
      <trkpt lat="48.68487" lon="2.06166">
        <ele>141</ele>
        <time>2019-03-14T09:49:03Z</time>
      </trkpt>
      <trkpt lat="48.68491" lon="2.06167">
        <ele>139</ele>
        <time>2019-03-14T09:49:09Z</time>
      </trkpt>
      <trkpt lat="48.68496" lon="2.06167">
        <ele>140</ele>
        <time>2019-03-14T09:49:13Z</time>
      </trkpt>
      <trkpt lat="48.68501" lon="2.06169">
        <ele>142</ele>
        <time>2019-03-14T09:49:17Z</time>
      </trkpt>
      <trkpt lat="48.68507" lon="2.0617">
        <ele>141</ele>
        <time>2019-03-14T09:49:21Z</time>
      </trkpt>
      <trkpt lat="48.68513" lon="2.06171">
        <ele>141</ele>
        <time>2019-03-14T09:49:27Z</time>
      </trkpt>
      <trkpt lat="48.68518" lon="2.06173">
        <ele>140</ele>
        <time>2019-03-14T09:49:31Z</time>
      </trkpt>
      <trkpt lat="48.68525" lon="2.06176">
        <ele>140</ele>
        <time>2019-03-14T09:49:37Z</time>
      </trkpt>
      <trkpt lat="48.68531" lon="2.06181">
        <ele>140</ele>
        <time>2019-03-14T09:49:39Z</time>
      </trkpt>
      <trkpt lat="48.68538" lon="2.06182">
        <ele>140</ele>
        <time>2019-03-14T09:49:43Z</time>
      </trkpt>
      <trkpt lat="48.68542" lon="2.06182">
        <ele>140</ele>
        <time>2019-03-14T09:49:45Z</time>
      </trkpt>
      <trkpt lat="48.68547" lon="2.06184">
        <ele>140</ele>
        <time>2019-03-14T09:49:49Z</time>
      </trkpt>
      <trkpt lat="48.68555" lon="2.06186">
        <ele>140</ele>
        <time>2019-03-14T09:49:57Z</time>
      </trkpt>
      <trkpt lat="48.6856" lon="2.06186">
        <ele>140</ele>
        <time>2019-03-14T09:49:59Z</time>
      </trkpt>
      <trkpt lat="48.68569" lon="2.06187">
        <ele>140</ele>
        <time>2019-03-14T09:50:03Z</time>
      </trkpt>
      <trkpt lat="48.68576" lon="2.06189">
        <ele>140</ele>
        <time>2019-03-14T09:50:07Z</time>
      </trkpt>
      <trkpt lat="48.68586" lon="2.06191">
        <ele>137</ele>
        <time>2019-03-14T09:50:11Z</time>
      </trkpt>
      <trkpt lat="48.68591" lon="2.06193">
        <ele>136</ele>
        <time>2019-03-14T09:50:13Z</time>
      </trkpt>
      <trkpt lat="48.68598" lon="2.06193">
        <ele>136</ele>
        <time>2019-03-14T09:50:15Z</time>
      </trkpt>
      <trkpt lat="48.68603" lon="2.06193">
        <ele>135</ele>
        <time>2019-03-14T09:50:17Z</time>
      </trkpt>
      <trkpt lat="48.68608" lon="2.06193">
        <ele>135</ele>
        <time>2019-03-14T09:50:19Z</time>
      </trkpt>
      <trkpt lat="48.68617" lon="2.06193">
        <ele>134</ele>
        <time>2019-03-14T09:50:23Z</time>
      </trkpt>
      <trkpt lat="48.68622" lon="2.06193">
        <ele>133</ele>
        <time>2019-03-14T09:50:27Z</time>
      </trkpt>
      <trkpt lat="48.68628" lon="2.06193">
        <ele>133</ele>
        <time>2019-03-14T09:50:33Z</time>
      </trkpt>
      <trkpt lat="48.68634" lon="2.0619">
        <ele>132</ele>
        <time>2019-03-14T09:50:37Z</time>
      </trkpt>
      <trkpt lat="48.68639" lon="2.06187">
        <ele>132</ele>
        <time>2019-03-14T09:50:51Z</time>
      </trkpt>
      <trkpt lat="48.68644" lon="2.06187">
        <ele>131</ele>
        <time>2019-03-14T09:51:15Z</time>
      </trkpt>
      <trkpt lat="48.68649" lon="2.06188">
        <ele>131</ele>
        <time>2019-03-14T09:51:19Z</time>
      </trkpt>
      <trkpt lat="48.68654" lon="2.06187">
        <ele>131</ele>
        <time>2019-03-14T09:51:27Z</time>
      </trkpt>
      <trkpt lat="48.68658" lon="2.06184">
        <ele>130</ele>
        <time>2019-03-14T09:51:33Z</time>
      </trkpt>
      <trkpt lat="48.68662" lon="2.06181">
        <ele>130</ele>
        <time>2019-03-14T09:51:37Z</time>
      </trkpt>
      <trkpt lat="48.68667" lon="2.06178">
        <ele>125</ele>
        <time>2019-03-14T09:51:39Z</time>
      </trkpt>
      <trkpt lat="48.68672" lon="2.06175">
        <ele>126</ele>
        <time>2019-03-14T09:51:43Z</time>
      </trkpt>
      <trkpt lat="48.68678" lon="2.06174">
        <ele>125</ele>
        <time>2019-03-14T09:51:47Z</time>
      </trkpt>
      <trkpt lat="48.68683" lon="2.06175">
        <ele>124</ele>
        <time>2019-03-14T09:51:51Z</time>
      </trkpt>
      <trkpt lat="48.68689" lon="2.06172">
        <ele>124</ele>
        <time>2019-03-14T09:51:55Z</time>
      </trkpt>
      <trkpt lat="48.68695" lon="2.06169">
        <ele>123</ele>
        <time>2019-03-14T09:52:01Z</time>
      </trkpt>
      <trkpt lat="48.68701" lon="2.06168">
        <ele>123</ele>
        <time>2019-03-14T09:52:07Z</time>
      </trkpt>
      <trkpt lat="48.68706" lon="2.06165">
        <ele>124</ele>
        <time>2019-03-14T09:52:09Z</time>
      </trkpt>
      <trkpt lat="48.68712" lon="2.06162">
        <ele>124</ele>
        <time>2019-03-14T09:52:13Z</time>
      </trkpt>
      <trkpt lat="48.68717" lon="2.06162">
        <ele>123</ele>
        <time>2019-03-14T09:52:17Z</time>
      </trkpt>
      <trkpt lat="48.68722" lon="2.06163">
        <ele>123</ele>
        <time>2019-03-14T09:52:21Z</time>
      </trkpt>
      <trkpt lat="48.68728" lon="2.06159">
        <ele>122</ele>
        <time>2019-03-14T09:52:29Z</time>
      </trkpt>
      <trkpt lat="48.68734" lon="2.06158">
        <ele>122</ele>
        <time>2019-03-14T09:52:33Z</time>
      </trkpt>
      <trkpt lat="48.68738" lon="2.06155">
        <ele>122</ele>
        <time>2019-03-14T09:52:37Z</time>
      </trkpt>
      <trkpt lat="48.68742" lon="2.06152">
        <ele>122</ele>
        <time>2019-03-14T09:52:41Z</time>
      </trkpt>
      <trkpt lat="48.68747" lon="2.0615">
        <ele>122</ele>
        <time>2019-03-14T09:52:45Z</time>
      </trkpt>
      <trkpt lat="48.68754" lon="2.06146">
        <ele>121</ele>
        <time>2019-03-14T09:52:49Z</time>
      </trkpt>
      <trkpt lat="48.68759" lon="2.06145">
        <ele>121</ele>
        <time>2019-03-14T09:52:53Z</time>
      </trkpt>
      <trkpt lat="48.68765" lon="2.06145">
        <ele>121</ele>
        <time>2019-03-14T09:52:59Z</time>
      </trkpt>
      <trkpt lat="48.6877" lon="2.06142">
        <ele>122</ele>
        <time>2019-03-14T09:53:03Z</time>
      </trkpt>
      <trkpt lat="48.68774" lon="2.06137">
        <ele>122</ele>
        <time>2019-03-14T09:53:07Z</time>
      </trkpt>
      <trkpt lat="48.68779" lon="2.06138">
        <ele>122</ele>
        <time>2019-03-14T09:53:13Z</time>
      </trkpt>
      <trkpt lat="48.68783" lon="2.06139">
        <ele>122</ele>
        <time>2019-03-14T09:53:17Z</time>
      </trkpt>
      <trkpt lat="48.68791" lon="2.06136">
        <ele>122</ele>
        <time>2019-03-14T09:53:21Z</time>
      </trkpt>
      <trkpt lat="48.68796" lon="2.06131">
        <ele>122</ele>
        <time>2019-03-14T09:53:25Z</time>
      </trkpt>
      <trkpt lat="48.68801" lon="2.06128">
        <ele>123</ele>
        <time>2019-03-14T09:53:29Z</time>
      </trkpt>
      <trkpt lat="48.68808" lon="2.06127">
        <ele>123</ele>
        <time>2019-03-14T09:53:35Z</time>
      </trkpt>
      <trkpt lat="48.68813" lon="2.06126">
        <ele>123</ele>
        <time>2019-03-14T09:53:39Z</time>
      </trkpt>
      <trkpt lat="48.68818" lon="2.06124">
        <ele>123</ele>
        <time>2019-03-14T09:53:45Z</time>
      </trkpt>
      <trkpt lat="48.68827" lon="2.06121">
        <ele>124</ele>
        <time>2019-03-14T09:53:49Z</time>
      </trkpt>
      <trkpt lat="48.68834" lon="2.06118">
        <ele>126</ele>
        <time>2019-03-14T09:53:55Z</time>
      </trkpt>
      <trkpt lat="48.6884" lon="2.06116">
        <ele>126</ele>
        <time>2019-03-14T09:53:59Z</time>
      </trkpt>
      <trkpt lat="48.68845" lon="2.06113">
        <ele>126</ele>
        <time>2019-03-14T09:54:05Z</time>
      </trkpt>
      <trkpt lat="48.68851" lon="2.06114">
        <ele>126</ele>
        <time>2019-03-14T09:54:09Z</time>
      </trkpt>
      <trkpt lat="48.68857" lon="2.06114">
        <ele>126</ele>
        <time>2019-03-14T09:54:13Z</time>
      </trkpt>
      <trkpt lat="48.68863" lon="2.06112">
        <ele>126</ele>
        <time>2019-03-14T09:54:19Z</time>
      </trkpt>
      <trkpt lat="48.68869" lon="2.06108">
        <ele>127</ele>
        <time>2019-03-14T09:54:23Z</time>
      </trkpt>
      <trkpt lat="48.68874" lon="2.06108">
        <ele>127</ele>
        <time>2019-03-14T09:54:27Z</time>
      </trkpt>
      <trkpt lat="48.6888" lon="2.0611">
        <ele>127</ele>
        <time>2019-03-14T09:54:31Z</time>
      </trkpt>
      <trkpt lat="48.68886" lon="2.06108">
        <ele>127</ele>
        <time>2019-03-14T09:54:35Z</time>
      </trkpt>
      <trkpt lat="48.68893" lon="2.06105">
        <ele>128</ele>
        <time>2019-03-14T09:54:39Z</time>
      </trkpt>
      <trkpt lat="48.68899" lon="2.06103">
        <ele>128</ele>
        <time>2019-03-14T09:54:43Z</time>
      </trkpt>
      <trkpt lat="48.68904" lon="2.06103">
        <ele>129</ele>
        <time>2019-03-14T09:54:49Z</time>
      </trkpt>
      <trkpt lat="48.68909" lon="2.061">
        <ele>129</ele>
        <time>2019-03-14T09:54:53Z</time>
      </trkpt>
      <trkpt lat="48.68914" lon="2.06101">
        <ele>129</ele>
        <time>2019-03-14T09:54:57Z</time>
      </trkpt>
      <trkpt lat="48.68919" lon="2.061">
        <ele>131</ele>
        <time>2019-03-14T09:55:01Z</time>
      </trkpt>
      <trkpt lat="48.68925" lon="2.06101">
        <ele>130</ele>
        <time>2019-03-14T09:55:05Z</time>
      </trkpt>
      <trkpt lat="48.68932" lon="2.06103">
        <ele>130</ele>
        <time>2019-03-14T09:55:11Z</time>
      </trkpt>
      <trkpt lat="48.68938" lon="2.06104">
        <ele>130</ele>
        <time>2019-03-14T09:55:13Z</time>
      </trkpt>
      <trkpt lat="48.68945" lon="2.06106">
        <ele>129</ele>
        <time>2019-03-14T09:55:17Z</time>
      </trkpt>
      <trkpt lat="48.68951" lon="2.06106">
        <ele>129</ele>
        <time>2019-03-14T09:55:21Z</time>
      </trkpt>
      <trkpt lat="48.68957" lon="2.06104">
        <ele>129</ele>
        <time>2019-03-14T09:55:25Z</time>
      </trkpt>
      <trkpt lat="48.68962" lon="2.06102">
        <ele>130</ele>
        <time>2019-03-14T09:55:29Z</time>
      </trkpt>
      <trkpt lat="48.68969" lon="2.06099">
        <ele>130</ele>
        <time>2019-03-14T09:55:35Z</time>
      </trkpt>
      <trkpt lat="48.68976" lon="2.06098">
        <ele>130</ele>
        <time>2019-03-14T09:55:37Z</time>
      </trkpt>
      <trkpt lat="48.68982" lon="2.06098">
        <ele>131</ele>
        <time>2019-03-14T09:55:41Z</time>
      </trkpt>
      <trkpt lat="48.68989" lon="2.06096">
        <ele>132</ele>
        <time>2019-03-14T09:55:45Z</time>
      </trkpt>
      <trkpt lat="48.68996" lon="2.06098">
        <ele>132</ele>
        <time>2019-03-14T09:55:49Z</time>
      </trkpt>
      <trkpt lat="48.69001" lon="2.06099">
        <ele>132</ele>
        <time>2019-03-14T09:55:53Z</time>
      </trkpt>
      <trkpt lat="48.69006" lon="2.061">
        <ele>132</ele>
        <time>2019-03-14T09:55:57Z</time>
      </trkpt>
      <trkpt lat="48.69011" lon="2.061">
        <ele>131</ele>
        <time>2019-03-14T09:55:59Z</time>
      </trkpt>
      <trkpt lat="48.69017" lon="2.06102">
        <ele>131</ele>
        <time>2019-03-14T09:56:03Z</time>
      </trkpt>
      <trkpt lat="48.69025" lon="2.06103">
        <ele>131</ele>
        <time>2019-03-14T09:56:07Z</time>
      </trkpt>
      <trkpt lat="48.6903" lon="2.06104">
        <ele>130</ele>
        <time>2019-03-14T09:56:11Z</time>
      </trkpt>
      <trkpt lat="48.69037" lon="2.06102">
        <ele>130</ele>
        <time>2019-03-14T09:56:17Z</time>
      </trkpt>
      <trkpt lat="48.69043" lon="2.06101">
        <ele>130</ele>
        <time>2019-03-14T09:56:21Z</time>
      </trkpt>
      <trkpt lat="48.69048" lon="2.06101">
        <ele>130</ele>
        <time>2019-03-14T09:56:27Z</time>
      </trkpt>
      <trkpt lat="48.69053" lon="2.06102">
        <ele>130</ele>
        <time>2019-03-14T09:56:33Z</time>
      </trkpt>
      <trkpt lat="48.69059" lon="2.06101">
        <ele>131</ele>
        <time>2019-03-14T09:56:37Z</time>
      </trkpt>
      <trkpt lat="48.69068" lon="2.06098">
        <ele>131</ele>
        <time>2019-03-14T09:56:45Z</time>
      </trkpt>
      <trkpt lat="48.69073" lon="2.06094">
        <ele>132</ele>
        <time>2019-03-14T09:56:49Z</time>
      </trkpt>
      <trkpt lat="48.69079" lon="2.06095">
        <ele>132</ele>
        <time>2019-03-14T09:56:55Z</time>
      </trkpt>
      <trkpt lat="48.69089" lon="2.06094">
        <ele>132</ele>
        <time>2019-03-14T09:57:03Z</time>
      </trkpt>
      <trkpt lat="48.69096" lon="2.06095">
        <ele>131</ele>
        <time>2019-03-14T09:57:07Z</time>
      </trkpt>
      <trkpt lat="48.69101" lon="2.06094">
        <ele>130</ele>
        <time>2019-03-14T09:57:11Z</time>
      </trkpt>
      <trkpt lat="48.69108" lon="2.06092">
        <ele>130</ele>
        <time>2019-03-14T09:57:15Z</time>
      </trkpt>
      <trkpt lat="48.69116" lon="2.0609">
        <ele>129</ele>
        <time>2019-03-14T09:57:19Z</time>
      </trkpt>
      <trkpt lat="48.6912" lon="2.0609">
        <ele>129</ele>
        <time>2019-03-14T09:57:21Z</time>
      </trkpt>
      <trkpt lat="48.69125" lon="2.06089">
        <ele>129</ele>
        <time>2019-03-14T09:57:23Z</time>
      </trkpt>
      <trkpt lat="48.69132" lon="2.0609">
        <ele>129</ele>
        <time>2019-03-14T09:57:27Z</time>
      </trkpt>
      <trkpt lat="48.6914" lon="2.0609">
        <ele>128</ele>
        <time>2019-03-14T09:57:31Z</time>
      </trkpt>
      <trkpt lat="48.69145" lon="2.06086">
        <ele>129</ele>
        <time>2019-03-14T09:57:35Z</time>
      </trkpt>
      <trkpt lat="48.69153" lon="2.06082">
        <ele>134</ele>
        <time>2019-03-14T09:57:39Z</time>
      </trkpt>
      <trkpt lat="48.69159" lon="2.0608">
        <ele>133</ele>
        <time>2019-03-14T09:57:43Z</time>
      </trkpt>
      <trkpt lat="48.69166" lon="2.06075">
        <ele>133</ele>
        <time>2019-03-14T09:57:47Z</time>
      </trkpt>
      <trkpt lat="48.69174" lon="2.06074">
        <ele>131</ele>
        <time>2019-03-14T09:57:49Z</time>
      </trkpt>
      <trkpt lat="48.69183" lon="2.0607">
        <ele>131</ele>
        <time>2019-03-14T09:57:53Z</time>
      </trkpt>
      <trkpt lat="48.69192" lon="2.06071">
        <ele>131</ele>
        <time>2019-03-14T09:57:57Z</time>
      </trkpt>
      <trkpt lat="48.69198" lon="2.06068">
        <ele>131</ele>
        <time>2019-03-14T09:57:59Z</time>
      </trkpt>
      <trkpt lat="48.69206" lon="2.06065">
        <ele>131</ele>
        <time>2019-03-14T09:58:03Z</time>
      </trkpt>
      <trkpt lat="48.69212" lon="2.06061">
        <ele>131</ele>
        <time>2019-03-14T09:58:09Z</time>
      </trkpt>
      <trkpt lat="48.69218" lon="2.06057">
        <ele>130</ele>
        <time>2019-03-14T09:58:15Z</time>
      </trkpt>
      <trkpt lat="48.69222" lon="2.06057">
        <ele>130</ele>
        <time>2019-03-14T09:58:17Z</time>
      </trkpt>
      <trkpt lat="48.69228" lon="2.06055">
        <ele>130</ele>
        <time>2019-03-14T09:58:23Z</time>
      </trkpt>
      <trkpt lat="48.69235" lon="2.06052">
        <ele>130</ele>
        <time>2019-03-14T09:58:29Z</time>
      </trkpt>
      <trkpt lat="48.69239" lon="2.0605">
        <ele>130</ele>
        <time>2019-03-14T09:58:31Z</time>
      </trkpt>
      <trkpt lat="48.69243" lon="2.06046">
        <ele>130</ele>
        <time>2019-03-14T09:58:35Z</time>
      </trkpt>
      <trkpt lat="48.69247" lon="2.06042">
        <ele>130</ele>
        <time>2019-03-14T09:58:37Z</time>
      </trkpt>
      <trkpt lat="48.69255" lon="2.06039">
        <ele>123</ele>
        <time>2019-03-14T09:58:41Z</time>
      </trkpt>
      <trkpt lat="48.69261" lon="2.06036">
        <ele>123</ele>
        <time>2019-03-14T09:58:47Z</time>
      </trkpt>
      <trkpt lat="48.69268" lon="2.06032">
        <ele>123</ele>
        <time>2019-03-14T09:58:51Z</time>
      </trkpt>
      <trkpt lat="48.69273" lon="2.06028">
        <ele>123</ele>
        <time>2019-03-14T09:58:55Z</time>
      </trkpt>
      <trkpt lat="48.6928" lon="2.06023">
        <ele>123</ele>
        <time>2019-03-14T09:58:59Z</time>
      </trkpt>
      <trkpt lat="48.69288" lon="2.06021">
        <ele>122</ele>
        <time>2019-03-14T09:59:03Z</time>
      </trkpt>
      <trkpt lat="48.69292" lon="2.06016">
        <ele>122</ele>
        <time>2019-03-14T09:59:07Z</time>
      </trkpt>
      <trkpt lat="48.69297" lon="2.06012">
        <ele>122</ele>
        <time>2019-03-14T09:59:09Z</time>
      </trkpt>
      <trkpt lat="48.69304" lon="2.06009">
        <ele>121</ele>
        <time>2019-03-14T09:59:13Z</time>
      </trkpt>
      <trkpt lat="48.6931" lon="2.06007">
        <ele>121</ele>
        <time>2019-03-14T09:59:17Z</time>
      </trkpt>
      <trkpt lat="48.69315" lon="2.06004">
        <ele>121</ele>
        <time>2019-03-14T09:59:21Z</time>
      </trkpt>
      <trkpt lat="48.69321" lon="2.06001">
        <ele>120</ele>
        <time>2019-03-14T09:59:25Z</time>
      </trkpt>
      <trkpt lat="48.69327" lon="2.05996">
        <ele>123</ele>
        <time>2019-03-14T09:59:29Z</time>
      </trkpt>
      <trkpt lat="48.69334" lon="2.05992">
        <ele>120</ele>
        <time>2019-03-14T09:59:33Z</time>
      </trkpt>
      <trkpt lat="48.69343" lon="2.05989">
        <ele>120</ele>
        <time>2019-03-14T09:59:37Z</time>
      </trkpt>
      <trkpt lat="48.69348" lon="2.05983">
        <ele>120</ele>
        <time>2019-03-14T09:59:43Z</time>
      </trkpt>
      <trkpt lat="48.6935" lon="2.05975">
        <ele>120</ele>
        <time>2019-03-14T09:59:49Z</time>
      </trkpt>
      <trkpt lat="48.69361" lon="2.05973">
        <ele>120</ele>
        <time>2019-03-14T09:59:55Z</time>
      </trkpt>
      <trkpt lat="48.69367" lon="2.05968">
        <ele>120</ele>
        <time>2019-03-14T09:59:59Z</time>
      </trkpt>
      <trkpt lat="48.69376" lon="2.05966">
        <ele>119</ele>
        <time>2019-03-14T10:00:03Z</time>
      </trkpt>
      <trkpt lat="48.69384" lon="2.05962">
        <ele>119</ele>
        <time>2019-03-14T10:00:07Z</time>
      </trkpt>
      <trkpt lat="48.6939" lon="2.05957">
        <ele>119</ele>
        <time>2019-03-14T10:00:13Z</time>
      </trkpt>
      <trkpt lat="48.69396" lon="2.05953">
        <ele>119</ele>
        <time>2019-03-14T10:00:19Z</time>
      </trkpt>
      <trkpt lat="48.69402" lon="2.05947">
        <ele>119</ele>
        <time>2019-03-14T10:00:25Z</time>
      </trkpt>
      <trkpt lat="48.69406" lon="2.05944">
        <ele>119</ele>
        <time>2019-03-14T10:00:27Z</time>
      </trkpt>
      <trkpt lat="48.69411" lon="2.05938">
        <ele>119</ele>
        <time>2019-03-14T10:00:33Z</time>
      </trkpt>
      <trkpt lat="48.69417" lon="2.05937">
        <ele>114</ele>
        <time>2019-03-14T10:00:37Z</time>
      </trkpt>
      <trkpt lat="48.69425" lon="2.05932">
        <ele>115</ele>
        <time>2019-03-14T10:00:43Z</time>
      </trkpt>
      <trkpt lat="48.69432" lon="2.0593">
        <ele>114</ele>
        <time>2019-03-14T10:00:47Z</time>
      </trkpt>
      <trkpt lat="48.69438" lon="2.05927">
        <ele>114</ele>
        <time>2019-03-14T10:00:51Z</time>
      </trkpt>
      <trkpt lat="48.69443" lon="2.0592">
        <ele>114</ele>
        <time>2019-03-14T10:00:55Z</time>
      </trkpt>
      <trkpt lat="48.69448" lon="2.05918">
        <ele>113</ele>
        <time>2019-03-14T10:00:59Z</time>
      </trkpt>
      <trkpt lat="48.69454" lon="2.05917">
        <ele>113</ele>
        <time>2019-03-14T10:01:03Z</time>
      </trkpt>
      <trkpt lat="48.69463" lon="2.05914">
        <ele>118</ele>
        <time>2019-03-14T10:01:07Z</time>
      </trkpt>
      <trkpt lat="48.69469" lon="2.05912">
        <ele>118</ele>
        <time>2019-03-14T10:01:11Z</time>
      </trkpt>
      <trkpt lat="48.69474" lon="2.05912">
        <ele>117</ele>
        <time>2019-03-14T10:01:15Z</time>
      </trkpt>
      <trkpt lat="48.69479" lon="2.05913">
        <ele>117</ele>
        <time>2019-03-14T10:01:19Z</time>
      </trkpt>
      <trkpt lat="48.69484" lon="2.05911">
        <ele>116</ele>
        <time>2019-03-14T10:01:23Z</time>
      </trkpt>
      <trkpt lat="48.69489" lon="2.05907">
        <ele>116</ele>
        <time>2019-03-14T10:01:27Z</time>
      </trkpt>
      <trkpt lat="48.69494" lon="2.05902">
        <ele>116</ele>
        <time>2019-03-14T10:01:29Z</time>
      </trkpt>
      <trkpt lat="48.69498" lon="2.05895">
        <ele>117</ele>
        <time>2019-03-14T10:01:35Z</time>
      </trkpt>
      <trkpt lat="48.69501" lon="2.05889">
        <ele>115</ele>
        <time>2019-03-14T10:01:43Z</time>
      </trkpt>
      <trkpt lat="48.695" lon="2.05881">
        <ele>119</ele>
        <time>2019-03-14T10:01:47Z</time>
      </trkpt>
      <trkpt lat="48.695" lon="2.05872">
        <ele>117</ele>
        <time>2019-03-14T10:01:53Z</time>
      </trkpt>
      <trkpt lat="48.69502" lon="2.05865">
        <ele>117</ele>
        <time>2019-03-14T10:02:01Z</time>
      </trkpt>
      <trkpt lat="48.69503" lon="2.05858">
        <ele>118</ele>
        <time>2019-03-14T10:02:07Z</time>
      </trkpt>
      <trkpt lat="48.69504" lon="2.05851">
        <ele>118</ele>
        <time>2019-03-14T10:02:17Z</time>
      </trkpt>
      <trkpt lat="48.69504" lon="2.0584">
        <ele>120</ele>
        <time>2019-03-14T10:02:23Z</time>
      </trkpt>
      <trkpt lat="48.69506" lon="2.05832">
        <ele>123</ele>
        <time>2019-03-14T10:02:27Z</time>
      </trkpt>
      <trkpt lat="48.69508" lon="2.05825">
        <ele>124</ele>
        <time>2019-03-14T10:02:31Z</time>
      </trkpt>
      <trkpt lat="48.69511" lon="2.05819">
        <ele>125</ele>
        <time>2019-03-14T10:02:35Z</time>
      </trkpt>
      <trkpt lat="48.69512" lon="2.05812">
        <ele>126</ele>
        <time>2019-03-14T10:02:39Z</time>
      </trkpt>
      <trkpt lat="48.69511" lon="2.05804">
        <ele>127</ele>
        <time>2019-03-14T10:02:43Z</time>
      </trkpt>
      <trkpt lat="48.69508" lon="2.05796">
        <ele>128</ele>
        <time>2019-03-14T10:02:47Z</time>
      </trkpt>
      <trkpt lat="48.69515" lon="2.0579">
        <ele>128</ele>
        <time>2019-03-14T10:02:51Z</time>
      </trkpt>
      <trkpt lat="48.69513" lon="2.05784">
        <ele>129</ele>
        <time>2019-03-14T10:02:55Z</time>
      </trkpt>
      <trkpt lat="48.6951" lon="2.05776">
        <ele>130</ele>
        <time>2019-03-14T10:02:59Z</time>
      </trkpt>
      <trkpt lat="48.69505" lon="2.05773">
        <ele>131</ele>
        <time>2019-03-14T10:03:01Z</time>
      </trkpt>
      <trkpt lat="48.69505" lon="2.05764">
        <ele>132</ele>
        <time>2019-03-14T10:03:08Z</time>
      </trkpt>
      <trkpt lat="48.69506" lon="2.05756">
        <ele>134</ele>
        <time>2019-03-14T10:03:11Z</time>
      </trkpt>
      <trkpt lat="48.69505" lon="2.05745">
        <ele>138</ele>
        <time>2019-03-14T10:03:17Z</time>
      </trkpt>
      <trkpt lat="48.69503" lon="2.05738">
        <ele>139</ele>
        <time>2019-03-14T10:03:19Z</time>
      </trkpt>
      <trkpt lat="48.69501" lon="2.05731">
        <ele>140</ele>
        <time>2019-03-14T10:03:23Z</time>
      </trkpt>
      <trkpt lat="48.69497" lon="2.05722">
        <ele>143</ele>
        <time>2019-03-14T10:03:27Z</time>
      </trkpt>
      <trkpt lat="48.69493" lon="2.05717">
        <ele>144</ele>
        <time>2019-03-14T10:03:31Z</time>
      </trkpt>
      <trkpt lat="48.6949" lon="2.0571">
        <ele>145</ele>
        <time>2019-03-14T10:03:39Z</time>
      </trkpt>
      <trkpt lat="48.69487" lon="2.05702">
        <ele>146</ele>
        <time>2019-03-14T10:03:47Z</time>
      </trkpt>
      <trkpt lat="48.69481" lon="2.05697">
        <ele>147</ele>
        <time>2019-03-14T10:03:51Z</time>
      </trkpt>
      <trkpt lat="48.69476" lon="2.05693">
        <ele>147</ele>
        <time>2019-03-14T10:03:55Z</time>
      </trkpt>
      <trkpt lat="48.69471" lon="2.05688">
        <ele>148</ele>
        <time>2019-03-14T10:03:59Z</time>
      </trkpt>
      <trkpt lat="48.69466" lon="2.05685">
        <ele>148</ele>
        <time>2019-03-14T10:04:01Z</time>
      </trkpt>
      <trkpt lat="48.6946" lon="2.0568">
        <ele>149</ele>
        <time>2019-03-14T10:04:05Z</time>
      </trkpt>
      <trkpt lat="48.69454" lon="2.05676">
        <ele>149</ele>
        <time>2019-03-14T10:04:11Z</time>
      </trkpt>
      <trkpt lat="48.69451" lon="2.05668">
        <ele>150</ele>
        <time>2019-03-14T10:04:17Z</time>
      </trkpt>
      <trkpt lat="48.69452" lon="2.05661">
        <ele>156</ele>
        <time>2019-03-14T10:04:23Z</time>
      </trkpt>
      <trkpt lat="48.69451" lon="2.05652">
        <ele>156</ele>
        <time>2019-03-14T10:04:29Z</time>
      </trkpt>
      <trkpt lat="48.69454" lon="2.05645">
        <ele>156</ele>
        <time>2019-03-14T10:04:33Z</time>
      </trkpt>
      <trkpt lat="48.69457" lon="2.05638">
        <ele>156</ele>
        <time>2019-03-14T10:04:39Z</time>
      </trkpt>
      <trkpt lat="48.69462" lon="2.05631">
        <ele>156</ele>
        <time>2019-03-14T10:04:43Z</time>
      </trkpt>
      <trkpt lat="48.69467" lon="2.05626">
        <ele>156</ele>
        <time>2019-03-14T10:04:47Z</time>
      </trkpt>
      <trkpt lat="48.69471" lon="2.05619">
        <ele>156</ele>
        <time>2019-03-14T10:04:51Z</time>
      </trkpt>
      <trkpt lat="48.69474" lon="2.05613">
        <ele>156</ele>
        <time>2019-03-14T10:04:55Z</time>
      </trkpt>
      <trkpt lat="48.69479" lon="2.05609">
        <ele>156</ele>
        <time>2019-03-14T10:04:57Z</time>
      </trkpt>
      <trkpt lat="48.69483" lon="2.05603">
        <ele>157</ele>
        <time>2019-03-14T10:05:01Z</time>
      </trkpt>
      <trkpt lat="48.69487" lon="2.05599">
        <ele>157</ele>
        <time>2019-03-14T10:05:05Z</time>
      </trkpt>
      <trkpt lat="48.69489" lon="2.05591">
        <ele>157</ele>
        <time>2019-03-14T10:05:11Z</time>
      </trkpt>
      <trkpt lat="48.69493" lon="2.05584">
        <ele>157</ele>
        <time>2019-03-14T10:05:15Z</time>
      </trkpt>
      <trkpt lat="48.69501" lon="2.05577">
        <ele>158</ele>
        <time>2019-03-14T10:05:23Z</time>
      </trkpt>
      <trkpt lat="48.69505" lon="2.05573">
        <ele>159</ele>
        <time>2019-03-14T10:05:27Z</time>
      </trkpt>
      <trkpt lat="48.69509" lon="2.05567">
        <ele>160</ele>
        <time>2019-03-14T10:05:31Z</time>
      </trkpt>
      <trkpt lat="48.69514" lon="2.05566">
        <ele>160</ele>
        <time>2019-03-14T10:05:35Z</time>
      </trkpt>
      <trkpt lat="48.69518" lon="2.05562">
        <ele>160</ele>
        <time>2019-03-14T10:05:47Z</time>
      </trkpt>
      <trkpt lat="48.69518" lon="2.05555">
        <ele>161</ele>
        <time>2019-03-14T10:06:13Z</time>
      </trkpt>
      <trkpt lat="48.69514" lon="2.05558">
        <ele>160</ele>
        <time>2019-03-14T10:07:11Z</time>
      </trkpt>
      <trkpt lat="48.69515" lon="2.05565">
        <ele>160</ele>
        <time>2019-03-14T10:08:19Z</time>
      </trkpt>
      <trkpt lat="48.69516" lon="2.05572">
        <ele>160</ele>
        <time>2019-03-14T10:08:59Z</time>
      </trkpt>
      <trkpt lat="48.6952" lon="2.05569">
        <ele>160</ele>
        <time>2019-03-14T10:09:33Z</time>
      </trkpt>
      <trkpt lat="48.69525" lon="2.05574">
        <ele>160</ele>
        <time>2019-03-14T10:09:55Z</time>
      </trkpt>
      <trkpt lat="48.6953" lon="2.05574">
        <ele>160</ele>
        <time>2019-03-14T10:09:59Z</time>
      </trkpt>
      <trkpt lat="48.69536" lon="2.05577">
        <ele>160</ele>
        <time>2019-03-14T10:10:03Z</time>
      </trkpt>
      <trkpt lat="48.69541" lon="2.05581">
        <ele>161</ele>
        <time>2019-03-14T10:10:07Z</time>
      </trkpt>
      <trkpt lat="48.69548" lon="2.05582">
        <ele>161</ele>
        <time>2019-03-14T10:10:13Z</time>
      </trkpt>
      <trkpt lat="48.69556" lon="2.05584">
        <ele>157</ele>
        <time>2019-03-14T10:10:19Z</time>
      </trkpt>
      <trkpt lat="48.6956" lon="2.05588">
        <ele>157</ele>
        <time>2019-03-14T10:10:23Z</time>
      </trkpt>
      <trkpt lat="48.69566" lon="2.0559">
        <ele>157</ele>
        <time>2019-03-14T10:10:29Z</time>
      </trkpt>
      <trkpt lat="48.69571" lon="2.05592">
        <ele>158</ele>
        <time>2019-03-14T10:10:37Z</time>
      </trkpt>
      <trkpt lat="48.69576" lon="2.05593">
        <ele>158</ele>
        <time>2019-03-14T10:10:41Z</time>
      </trkpt>
      <trkpt lat="48.69581" lon="2.05597">
        <ele>158</ele>
        <time>2019-03-14T10:10:45Z</time>
      </trkpt>
      <trkpt lat="48.69587" lon="2.05601">
        <ele>159</ele>
        <time>2019-03-14T10:10:49Z</time>
      </trkpt>
      <trkpt lat="48.6959" lon="2.05608">
        <ele>158</ele>
        <time>2019-03-14T10:10:53Z</time>
      </trkpt>
      <trkpt lat="48.69592" lon="2.05614">
        <ele>158</ele>
        <time>2019-03-14T10:10:59Z</time>
      </trkpt>
      <trkpt lat="48.69599" lon="2.05615">
        <ele>158</ele>
        <time>2019-03-14T10:11:05Z</time>
      </trkpt>
      <trkpt lat="48.69604" lon="2.05617">
        <ele>157</ele>
        <time>2019-03-14T10:11:11Z</time>
      </trkpt>
      <trkpt lat="48.69609" lon="2.05623">
        <ele>157</ele>
        <time>2019-03-14T10:11:17Z</time>
      </trkpt>
      <trkpt lat="48.69613" lon="2.05628">
        <ele>157</ele>
        <time>2019-03-14T10:11:19Z</time>
      </trkpt>
      <trkpt lat="48.69617" lon="2.05629">
        <ele>157</ele>
        <time>2019-03-14T10:11:21Z</time>
      </trkpt>
      <trkpt lat="48.69622" lon="2.05632">
        <ele>157</ele>
        <time>2019-03-14T10:11:25Z</time>
      </trkpt>
      <trkpt lat="48.69629" lon="2.05636">
        <ele>157</ele>
        <time>2019-03-14T10:11:31Z</time>
      </trkpt>
      <trkpt lat="48.69633" lon="2.05639">
        <ele>157</ele>
        <time>2019-03-14T10:11:35Z</time>
      </trkpt>
      <trkpt lat="48.69638" lon="2.05638">
        <ele>157</ele>
        <time>2019-03-14T10:11:43Z</time>
      </trkpt>
      <trkpt lat="48.69643" lon="2.05636">
        <ele>157</ele>
        <time>2019-03-14T10:11:49Z</time>
      </trkpt>
      <trkpt lat="48.69648" lon="2.05638">
        <ele>157</ele>
        <time>2019-03-14T10:11:55Z</time>
      </trkpt>
      <trkpt lat="48.69653" lon="2.05637">
        <ele>157</ele>
        <time>2019-03-14T10:12:01Z</time>
      </trkpt>
      <trkpt lat="48.69659" lon="2.05633">
        <ele>157</ele>
        <time>2019-03-14T10:12:05Z</time>
      </trkpt>
      <trkpt lat="48.69663" lon="2.05629">
        <ele>157</ele>
        <time>2019-03-14T10:12:09Z</time>
      </trkpt>
      <trkpt lat="48.69669" lon="2.0563">
        <ele>157</ele>
        <time>2019-03-14T10:12:17Z</time>
      </trkpt>
      <trkpt lat="48.69673" lon="2.05634">
        <ele>157</ele>
        <time>2019-03-14T10:12:25Z</time>
      </trkpt>
      <trkpt lat="48.69679" lon="2.05637">
        <ele>157</ele>
        <time>2019-03-14T10:12:29Z</time>
      </trkpt>
      <trkpt lat="48.69678" lon="2.05645">
        <ele>156</ele>
        <time>2019-03-14T10:12:35Z</time>
      </trkpt>
      <trkpt lat="48.69677" lon="2.05651">
        <ele>156</ele>
        <time>2019-03-14T10:12:41Z</time>
      </trkpt>
      <trkpt lat="48.69676" lon="2.0566">
        <ele>155</ele>
        <time>2019-03-14T10:12:47Z</time>
      </trkpt>
      <trkpt lat="48.6968" lon="2.05668">
        <ele>152</ele>
        <time>2019-03-14T10:12:53Z</time>
      </trkpt>
      <trkpt lat="48.69684" lon="2.05671">
        <ele>151</ele>
        <time>2019-03-14T10:12:59Z</time>
      </trkpt>
      <trkpt lat="48.69689" lon="2.05671">
        <ele>151</ele>
        <time>2019-03-14T10:13:09Z</time>
      </trkpt>
      <trkpt lat="48.69695" lon="2.05669">
        <ele>151</ele>
        <time>2019-03-14T10:13:13Z</time>
      </trkpt>
      <trkpt lat="48.697" lon="2.05669">
        <ele>151</ele>
        <time>2019-03-14T10:13:17Z</time>
      </trkpt>
      <trkpt lat="48.69706" lon="2.0567">
        <ele>151</ele>
        <time>2019-03-14T10:13:23Z</time>
      </trkpt>
      <trkpt lat="48.6971" lon="2.05669">
        <ele>151</ele>
        <time>2019-03-14T10:13:27Z</time>
      </trkpt>
      <trkpt lat="48.69713" lon="2.05662">
        <ele>156</ele>
        <time>2019-03-14T10:13:49Z</time>
      </trkpt>
      <trkpt lat="48.69713" lon="2.05652">
        <ele>156</ele>
        <time>2019-03-14T10:13:57Z</time>
      </trkpt>
      <trkpt lat="48.69714" lon="2.05644">
        <ele>157</ele>
        <time>2019-03-14T10:14:03Z</time>
      </trkpt>
      <trkpt lat="48.69714" lon="2.05635">
        <ele>157</ele>
        <time>2019-03-14T10:14:09Z</time>
      </trkpt>
      <trkpt lat="48.69712" lon="2.05627">
        <ele>157</ele>
        <time>2019-03-14T10:14:15Z</time>
      </trkpt>
      <trkpt lat="48.6971" lon="2.05615">
        <ele>158</ele>
        <time>2019-03-14T10:14:21Z</time>
      </trkpt>
      <trkpt lat="48.69706" lon="2.05609">
        <ele>158</ele>
        <time>2019-03-14T10:14:25Z</time>
      </trkpt>
      <trkpt lat="48.69703" lon="2.05602">
        <ele>158</ele>
        <time>2019-03-14T10:14:29Z</time>
      </trkpt>
      <trkpt lat="48.69699" lon="2.05595">
        <ele>159</ele>
        <time>2019-03-14T10:14:35Z</time>
      </trkpt>
      <trkpt lat="48.69696" lon="2.05589">
        <ele>159</ele>
        <time>2019-03-14T10:14:39Z</time>
      </trkpt>
      <trkpt lat="48.69693" lon="2.05583">
        <ele>162</ele>
        <time>2019-03-14T10:14:43Z</time>
      </trkpt>
      <trkpt lat="48.69688" lon="2.05578">
        <ele>162</ele>
        <time>2019-03-14T10:14:47Z</time>
      </trkpt>
      <trkpt lat="48.69683" lon="2.05571">
        <ele>162</ele>
        <time>2019-03-14T10:14:51Z</time>
      </trkpt>
      <trkpt lat="48.6968" lon="2.05565">
        <ele>163</ele>
        <time>2019-03-14T10:14:55Z</time>
      </trkpt>
      <trkpt lat="48.69676" lon="2.05557">
        <ele>163</ele>
        <time>2019-03-14T10:14:59Z</time>
      </trkpt>
      <trkpt lat="48.6967" lon="2.05549">
        <ele>163</ele>
        <time>2019-03-14T10:15:03Z</time>
      </trkpt>
      <trkpt lat="48.69666" lon="2.05544">
        <ele>164</ele>
        <time>2019-03-14T10:15:07Z</time>
      </trkpt>
      <trkpt lat="48.69662" lon="2.0554">
        <ele>164</ele>
        <time>2019-03-14T10:15:11Z</time>
      </trkpt>
      <trkpt lat="48.69657" lon="2.05534">
        <ele>165</ele>
        <time>2019-03-14T10:15:15Z</time>
      </trkpt>
      <trkpt lat="48.69652" lon="2.05527">
        <ele>165</ele>
        <time>2019-03-14T10:15:21Z</time>
      </trkpt>
      <trkpt lat="48.69649" lon="2.0552">
        <ele>165</ele>
        <time>2019-03-14T10:15:25Z</time>
      </trkpt>
      <trkpt lat="48.69647" lon="2.05512">
        <ele>166</ele>
        <time>2019-03-14T10:15:31Z</time>
      </trkpt>
      <trkpt lat="48.69647" lon="2.05501">
        <ele>166</ele>
        <time>2019-03-14T10:15:35Z</time>
      </trkpt>
      <trkpt lat="48.69646" lon="2.05492">
        <ele>168</ele>
        <time>2019-03-14T10:15:39Z</time>
      </trkpt>
      <trkpt lat="48.69645" lon="2.05479">
        <ele>167</ele>
        <time>2019-03-14T10:15:45Z</time>
      </trkpt>
      <trkpt lat="48.69645" lon="2.05472">
        <ele>167</ele>
        <time>2019-03-14T10:15:51Z</time>
      </trkpt>
      <trkpt lat="48.69644" lon="2.05465">
        <ele>167</ele>
        <time>2019-03-14T10:15:55Z</time>
      </trkpt>
      <trkpt lat="48.69642" lon="2.05456">
        <ele>167</ele>
        <time>2019-03-14T10:15:59Z</time>
      </trkpt>
      <trkpt lat="48.69643" lon="2.05447">
        <ele>167</ele>
        <time>2019-03-14T10:16:01Z</time>
      </trkpt>
      <trkpt lat="48.69643" lon="2.05438">
        <ele>167</ele>
        <time>2019-03-14T10:16:05Z</time>
      </trkpt>
      <trkpt lat="48.69643" lon="2.05431">
        <ele>168</ele>
        <time>2019-03-14T10:16:09Z</time>
      </trkpt>
      <trkpt lat="48.69641" lon="2.05422">
        <ele>168</ele>
        <time>2019-03-14T10:16:13Z</time>
      </trkpt>
      <trkpt lat="48.69641" lon="2.05414">
        <ele>168</ele>
        <time>2019-03-14T10:16:17Z</time>
      </trkpt>
      <trkpt lat="48.69641" lon="2.05404">
        <ele>168</ele>
        <time>2019-03-14T10:16:21Z</time>
      </trkpt>
      <trkpt lat="48.69642" lon="2.05392">
        <ele>168</ele>
        <time>2019-03-14T10:16:25Z</time>
      </trkpt>
      <trkpt lat="48.69644" lon="2.05383">
        <ele>168</ele>
        <time>2019-03-14T10:16:31Z</time>
      </trkpt>
      <trkpt lat="48.69647" lon="2.05376">
        <ele>168</ele>
        <time>2019-03-14T10:16:43Z</time>
      </trkpt>
      <trkpt lat="48.69649" lon="2.05369">
        <ele>169</ele>
        <time>2019-03-14T10:16:49Z</time>
      </trkpt>
      <trkpt lat="48.69656" lon="2.05364">
        <ele>169</ele>
        <time>2019-03-14T10:16:53Z</time>
      </trkpt>
      <trkpt lat="48.6966" lon="2.0536">
        <ele>169</ele>
        <time>2019-03-14T10:16:57Z</time>
      </trkpt>
      <trkpt lat="48.69664" lon="2.05358">
        <ele>169</ele>
        <time>2019-03-14T10:17:01Z</time>
      </trkpt>
      <trkpt lat="48.69672" lon="2.05359">
        <ele>166</ele>
        <time>2019-03-14T10:17:05Z</time>
      </trkpt>
      <trkpt lat="48.69678" lon="2.05359">
        <ele>165</ele>
        <time>2019-03-14T10:17:13Z</time>
      </trkpt>
      <trkpt lat="48.69687" lon="2.05357">
        <ele>165</ele>
        <time>2019-03-14T10:17:19Z</time>
      </trkpt>
      <trkpt lat="48.69693" lon="2.05354">
        <ele>164</ele>
        <time>2019-03-14T10:17:23Z</time>
      </trkpt>
      <trkpt lat="48.69701" lon="2.05352">
        <ele>164</ele>
        <time>2019-03-14T10:17:27Z</time>
      </trkpt>
      <trkpt lat="48.69707" lon="2.05353">
        <ele>163</ele>
        <time>2019-03-14T10:17:31Z</time>
      </trkpt>
      <trkpt lat="48.69713" lon="2.05351">
        <ele>163</ele>
        <time>2019-03-14T10:17:35Z</time>
      </trkpt>
      <trkpt lat="48.69716" lon="2.05356">
        <ele>162</ele>
        <time>2019-03-14T10:18:33Z</time>
      </trkpt>
      <trkpt lat="48.69722" lon="2.05362">
        <ele>162</ele>
        <time>2019-03-14T10:18:39Z</time>
      </trkpt>
      <trkpt lat="48.69727" lon="2.05365">
        <ele>162</ele>
        <time>2019-03-14T10:18:45Z</time>
      </trkpt>
      <trkpt lat="48.69731" lon="2.05369">
        <ele>162</ele>
        <time>2019-03-14T10:18:49Z</time>
      </trkpt>
      <trkpt lat="48.69738" lon="2.05371">
        <ele>161</ele>
        <time>2019-03-14T10:18:55Z</time>
      </trkpt>
      <trkpt lat="48.69744" lon="2.05376">
        <ele>161</ele>
        <time>2019-03-14T10:19:01Z</time>
      </trkpt>
      <trkpt lat="48.69747" lon="2.05383">
        <ele>161</ele>
        <time>2019-03-14T10:19:07Z</time>
      </trkpt>
      <trkpt lat="48.69752" lon="2.05385">
        <ele>151</ele>
        <time>2019-03-14T10:19:13Z</time>
      </trkpt>
      <trkpt lat="48.69756" lon="2.05389">
        <ele>151</ele>
        <time>2019-03-14T10:19:17Z</time>
      </trkpt>
      <trkpt lat="48.69759" lon="2.05395">
        <ele>151</ele>
        <time>2019-03-14T10:19:23Z</time>
      </trkpt>
      <trkpt lat="48.69761" lon="2.05402">
        <ele>153</ele>
        <time>2019-03-14T10:19:29Z</time>
      </trkpt>
      <trkpt lat="48.69766" lon="2.05407">
        <ele>152</ele>
        <time>2019-03-14T10:19:35Z</time>
      </trkpt>
      <trkpt lat="48.69769" lon="2.05414">
        <ele>152</ele>
        <time>2019-03-14T10:19:41Z</time>
      </trkpt>
      <trkpt lat="48.69776" lon="2.05418">
        <ele>152</ele>
        <time>2019-03-14T10:19:49Z</time>
      </trkpt>
      <trkpt lat="48.69781" lon="2.05423">
        <ele>151</ele>
        <time>2019-03-14T10:19:53Z</time>
      </trkpt>
      <trkpt lat="48.69784" lon="2.05429">
        <ele>151</ele>
        <time>2019-03-14T10:19:57Z</time>
      </trkpt>
      <trkpt lat="48.6979" lon="2.05434">
        <ele>149</ele>
        <time>2019-03-14T10:20:03Z</time>
      </trkpt>
      <trkpt lat="48.69794" lon="2.05438">
        <ele>149</ele>
        <time>2019-03-14T10:20:09Z</time>
      </trkpt>
      <trkpt lat="48.69799" lon="2.05445">
        <ele>148</ele>
        <time>2019-03-14T10:20:15Z</time>
      </trkpt>
      <trkpt lat="48.69803" lon="2.05445">
        <ele>148</ele>
        <time>2019-03-14T10:20:23Z</time>
      </trkpt>
      <trkpt lat="48.69808" lon="2.05449">
        <ele>147</ele>
        <time>2019-03-14T10:21:21Z</time>
      </trkpt>
      <trkpt lat="48.69812" lon="2.05445">
        <ele>146</ele>
        <time>2019-03-14T10:21:25Z</time>
      </trkpt>
      <trkpt lat="48.69818" lon="2.0544">
        <ele>145</ele>
        <time>2019-03-14T10:21:29Z</time>
      </trkpt>
      <trkpt lat="48.69823" lon="2.05435">
        <ele>144</ele>
        <time>2019-03-14T10:21:35Z</time>
      </trkpt>
      <trkpt lat="48.69829" lon="2.05432">
        <ele>142</ele>
        <time>2019-03-14T10:21:43Z</time>
      </trkpt>
      <trkpt lat="48.69831" lon="2.05425">
        <ele>140</ele>
        <time>2019-03-14T10:21:47Z</time>
      </trkpt>
      <trkpt lat="48.69833" lon="2.05415">
        <ele>135</ele>
        <time>2019-03-14T10:21:55Z</time>
      </trkpt>
      <trkpt lat="48.69832" lon="2.05408">
        <ele>138</ele>
        <time>2019-03-14T10:21:59Z</time>
      </trkpt>
      <trkpt lat="48.69829" lon="2.05401">
        <ele>140</ele>
        <time>2019-03-14T10:22:05Z</time>
      </trkpt>
      <trkpt lat="48.69829" lon="2.05393">
        <ele>140</ele>
        <time>2019-03-14T10:22:11Z</time>
      </trkpt>
      <trkpt lat="48.69825" lon="2.05387">
        <ele>141</ele>
        <time>2019-03-14T10:22:17Z</time>
      </trkpt>
      <trkpt lat="48.69825" lon="2.0538">
        <ele>141</ele>
        <time>2019-03-14T10:22:21Z</time>
      </trkpt>
      <trkpt lat="48.69827" lon="2.05372">
        <ele>140</ele>
        <time>2019-03-14T10:22:25Z</time>
      </trkpt>
      <trkpt lat="48.69828" lon="2.05361">
        <ele>139</ele>
        <time>2019-03-14T10:22:31Z</time>
      </trkpt>
      <trkpt lat="48.69828" lon="2.05354">
        <ele>137</ele>
        <time>2019-03-14T10:22:33Z</time>
      </trkpt>
      <trkpt lat="48.69827" lon="2.05345">
        <ele>135</ele>
        <time>2019-03-14T10:22:37Z</time>
      </trkpt>
      <trkpt lat="48.69826" lon="2.05337">
        <ele>133</ele>
        <time>2019-03-14T10:22:41Z</time>
      </trkpt>
      <trkpt lat="48.69826" lon="2.05328">
        <ele>132</ele>
        <time>2019-03-14T10:22:45Z</time>
      </trkpt>
      <trkpt lat="48.69822" lon="2.05324">
        <ele>133</ele>
        <time>2019-03-14T10:22:49Z</time>
      </trkpt>
      <trkpt lat="48.69825" lon="2.05319">
        <ele>134</ele>
        <time>2019-03-14T10:22:55Z</time>
      </trkpt>
      <trkpt lat="48.69821" lon="2.05311">
        <ele>135</ele>
        <time>2019-03-14T10:23:25Z</time>
      </trkpt>
      <trkpt lat="48.69817" lon="2.05302">
        <ele>136</ele>
        <time>2019-03-14T10:23:31Z</time>
      </trkpt>
      <trkpt lat="48.69813" lon="2.05296">
        <ele>137</ele>
        <time>2019-03-14T10:23:35Z</time>
      </trkpt>
      <trkpt lat="48.69812" lon="2.05289">
        <ele>137</ele>
        <time>2019-03-14T10:23:39Z</time>
      </trkpt>
      <trkpt lat="48.69809" lon="2.05281">
        <ele>137</ele>
        <time>2019-03-14T10:23:43Z</time>
      </trkpt>
      <trkpt lat="48.69809" lon="2.05272">
        <ele>136</ele>
        <time>2019-03-14T10:23:47Z</time>
      </trkpt>
      <trkpt lat="48.6981" lon="2.05262">
        <ele>135</ele>
        <time>2019-03-14T10:23:51Z</time>
      </trkpt>
      <trkpt lat="48.69812" lon="2.05254">
        <ele>134</ele>
        <time>2019-03-14T10:23:55Z</time>
      </trkpt>
      <trkpt lat="48.69815" lon="2.05249">
        <ele>133</ele>
        <time>2019-03-14T10:23:57Z</time>
      </trkpt>
      <trkpt lat="48.69817" lon="2.05241">
        <ele>133</ele>
        <time>2019-03-14T10:24:01Z</time>
      </trkpt>
      <trkpt lat="48.69819" lon="2.05227">
        <ele>134</ele>
        <time>2019-03-14T10:24:05Z</time>
      </trkpt>
      <trkpt lat="48.69821" lon="2.05219">
        <ele>135</ele>
        <time>2019-03-14T10:24:07Z</time>
      </trkpt>
      <trkpt lat="48.69822" lon="2.05209">
        <ele>135</ele>
        <time>2019-03-14T10:24:11Z</time>
      </trkpt>
      <trkpt lat="48.69826" lon="2.05203">
        <ele>135</ele>
        <time>2019-03-14T10:24:15Z</time>
      </trkpt>
      <trkpt lat="48.69828" lon="2.05197">
        <ele>134</ele>
        <time>2019-03-14T10:24:19Z</time>
      </trkpt>
      <trkpt lat="48.69827" lon="2.05189">
        <ele>134</ele>
        <time>2019-03-14T10:24:25Z</time>
      </trkpt>
      <trkpt lat="48.69827" lon="2.05179">
        <ele>132</ele>
        <time>2019-03-14T10:24:29Z</time>
      </trkpt>
      <trkpt lat="48.69825" lon="2.0517">
        <ele>130</ele>
        <time>2019-03-14T10:24:33Z</time>
      </trkpt>
      <trkpt lat="48.69825" lon="2.0516">
        <ele>132</ele>
        <time>2019-03-14T10:24:37Z</time>
      </trkpt>
      <trkpt lat="48.69822" lon="2.0515">
        <ele>135</ele>
        <time>2019-03-14T10:24:41Z</time>
      </trkpt>
      <trkpt lat="48.6982" lon="2.05143">
        <ele>137</ele>
        <time>2019-03-14T10:24:45Z</time>
      </trkpt>
      <trkpt lat="48.6982" lon="2.05137">
        <ele>138</ele>
        <time>2019-03-14T10:24:49Z</time>
      </trkpt>
      <trkpt lat="48.69818" lon="2.05129">
        <ele>139</ele>
        <time>2019-03-14T10:24:53Z</time>
      </trkpt>
      <trkpt lat="48.69819" lon="2.05118">
        <ele>139</ele>
        <time>2019-03-14T10:24:57Z</time>
      </trkpt>
      <trkpt lat="48.69821" lon="2.05111">
        <ele>139</ele>
        <time>2019-03-14T10:24:59Z</time>
      </trkpt>
      <trkpt lat="48.69824" lon="2.05103">
        <ele>138</ele>
        <time>2019-03-14T10:25:01Z</time>
      </trkpt>
      <trkpt lat="48.69826" lon="2.05097">
        <ele>137</ele>
        <time>2019-03-14T10:25:03Z</time>
      </trkpt>
      <trkpt lat="48.69828" lon="2.05088">
        <ele>135</ele>
        <time>2019-03-14T10:25:07Z</time>
      </trkpt>
      <trkpt lat="48.6983" lon="2.0508">
        <ele>135</ele>
        <time>2019-03-14T10:25:11Z</time>
      </trkpt>
      <trkpt lat="48.69831" lon="2.05073">
        <ele>137</ele>
        <time>2019-03-14T10:25:15Z</time>
      </trkpt>
      <trkpt lat="48.69835" lon="2.05066">
        <ele>128</ele>
        <time>2019-03-14T10:25:19Z</time>
      </trkpt>
      <trkpt lat="48.69839" lon="2.05061">
        <ele>128</ele>
        <time>2019-03-14T10:25:23Z</time>
      </trkpt>
      <trkpt lat="48.69839" lon="2.05052">
        <ele>127</ele>
        <time>2019-03-14T10:25:27Z</time>
      </trkpt>
      <trkpt lat="48.6984" lon="2.05042">
        <ele>127</ele>
        <time>2019-03-14T10:25:31Z</time>
      </trkpt>
      <trkpt lat="48.69841" lon="2.0503">
        <ele>128</ele>
        <time>2019-03-14T10:25:35Z</time>
      </trkpt>
      <trkpt lat="48.69844" lon="2.05024">
        <ele>129</ele>
        <time>2019-03-14T10:25:37Z</time>
      </trkpt>
      <trkpt lat="48.69844" lon="2.05017">
        <ele>130</ele>
        <time>2019-03-14T10:25:41Z</time>
      </trkpt>
      <trkpt lat="48.6985" lon="2.0501">
        <ele>129</ele>
        <time>2019-03-14T10:25:43Z</time>
      </trkpt>
      <trkpt lat="48.69853" lon="2.05002">
        <ele>129</ele>
        <time>2019-03-14T10:25:45Z</time>
      </trkpt>
      <trkpt lat="48.69855" lon="2.04993">
        <ele>132</ele>
        <time>2019-03-14T10:25:49Z</time>
      </trkpt>
      <trkpt lat="48.69856" lon="2.04984">
        <ele>132</ele>
        <time>2019-03-14T10:25:55Z</time>
      </trkpt>
      <trkpt lat="48.69859" lon="2.04972">
        <ele>132</ele>
        <time>2019-03-14T10:25:59Z</time>
      </trkpt>
      <trkpt lat="48.69863" lon="2.04963">
        <ele>132</ele>
        <time>2019-03-14T10:26:03Z</time>
      </trkpt>
      <trkpt lat="48.69868" lon="2.04956">
        <ele>132</ele>
        <time>2019-03-14T10:26:07Z</time>
      </trkpt>
      <trkpt lat="48.69872" lon="2.0495">
        <ele>132</ele>
        <time>2019-03-14T10:26:11Z</time>
      </trkpt>
      <trkpt lat="48.69876" lon="2.04943">
        <ele>132</ele>
        <time>2019-03-14T10:26:15Z</time>
      </trkpt>
      <trkpt lat="48.69885" lon="2.04936">
        <ele>131</ele>
        <time>2019-03-14T10:26:23Z</time>
      </trkpt>
      <trkpt lat="48.6989" lon="2.04934">
        <ele>130</ele>
        <time>2019-03-14T10:26:27Z</time>
      </trkpt>
      <trkpt lat="48.69899" lon="2.0493">
        <ele>129</ele>
        <time>2019-03-14T10:26:31Z</time>
      </trkpt>
      <trkpt lat="48.69903" lon="2.04923">
        <ele>128</ele>
        <time>2019-03-14T10:26:37Z</time>
      </trkpt>
      <trkpt lat="48.69906" lon="2.04916">
        <ele>130</ele>
        <time>2019-03-14T10:26:41Z</time>
      </trkpt>
      <trkpt lat="48.69907" lon="2.04908">
        <ele>130</ele>
        <time>2019-03-14T10:26:47Z</time>
      </trkpt>
      <trkpt lat="48.69911" lon="2.04901">
        <ele>131</ele>
        <time>2019-03-14T10:26:51Z</time>
      </trkpt>
      <trkpt lat="48.69913" lon="2.04892">
        <ele>133</ele>
        <time>2019-03-14T10:26:55Z</time>
      </trkpt>
      <trkpt lat="48.69915" lon="2.04884">
        <ele>134</ele>
        <time>2019-03-14T10:26:59Z</time>
      </trkpt>
      <trkpt lat="48.69918" lon="2.04878">
        <ele>121</ele>
        <time>2019-03-14T10:27:01Z</time>
      </trkpt>
      <trkpt lat="48.69922" lon="2.04871">
        <ele>121</ele>
        <time>2019-03-14T10:27:05Z</time>
      </trkpt>
      <trkpt lat="48.69918" lon="2.04863">
        <ele>122</ele>
        <time>2019-03-14T10:27:11Z</time>
      </trkpt>
      <trkpt lat="48.69918" lon="2.04855">
        <ele>123</ele>
        <time>2019-03-14T10:27:15Z</time>
      </trkpt>
      <trkpt lat="48.69919" lon="2.04846">
        <ele>125</ele>
        <time>2019-03-14T10:27:19Z</time>
      </trkpt>
      <trkpt lat="48.69915" lon="2.04837">
        <ele>131</ele>
        <time>2019-03-14T10:27:23Z</time>
      </trkpt>
      <trkpt lat="48.69916" lon="2.04826">
        <ele>132</ele>
        <time>2019-03-14T10:27:27Z</time>
      </trkpt>
      <trkpt lat="48.69919" lon="2.04815">
        <ele>124</ele>
        <time>2019-03-14T10:27:31Z</time>
      </trkpt>
      <trkpt lat="48.69921" lon="2.04809">
        <ele>123</ele>
        <time>2019-03-14T10:27:49Z</time>
      </trkpt>
      <trkpt lat="48.69924" lon="2.04803">
        <ele>122</ele>
        <time>2019-03-14T10:27:57Z</time>
      </trkpt>
      <trkpt lat="48.69926" lon="2.04796">
        <ele>122</ele>
        <time>2019-03-14T10:28:03Z</time>
      </trkpt>
      <trkpt lat="48.69922" lon="2.04793">
        <ele>122</ele>
        <time>2019-03-14T10:28:15Z</time>
      </trkpt>
      <trkpt lat="48.69921" lon="2.04783">
        <ele>122</ele>
        <time>2019-03-14T10:28:23Z</time>
      </trkpt>
      <trkpt lat="48.69921" lon="2.04776">
        <ele>122</ele>
        <time>2019-03-14T10:28:27Z</time>
      </trkpt>
      <trkpt lat="48.69919" lon="2.04769">
        <ele>123</ele>
        <time>2019-03-14T10:28:33Z</time>
      </trkpt>
      <trkpt lat="48.6992" lon="2.04759">
        <ele>124</ele>
        <time>2019-03-14T10:28:39Z</time>
      </trkpt>
      <trkpt lat="48.69918" lon="2.04753">
        <ele>126</ele>
        <time>2019-03-14T10:28:43Z</time>
      </trkpt>
      <trkpt lat="48.69917" lon="2.04745">
        <ele>125</ele>
        <time>2019-03-14T10:28:49Z</time>
      </trkpt>
      <trkpt lat="48.69917" lon="2.04737">
        <ele>124</ele>
        <time>2019-03-14T10:28:53Z</time>
      </trkpt>
      <trkpt lat="48.69917" lon="2.04729">
        <ele>123</ele>
        <time>2019-03-14T10:28:57Z</time>
      </trkpt>
      <trkpt lat="48.69915" lon="2.04721">
        <ele>135</ele>
        <time>2019-03-14T10:29:01Z</time>
      </trkpt>
      <trkpt lat="48.69915" lon="2.04713">
        <ele>136</ele>
        <time>2019-03-14T10:29:05Z</time>
      </trkpt>
      <trkpt lat="48.69916" lon="2.04704">
        <ele>136</ele>
        <time>2019-03-14T10:29:07Z</time>
      </trkpt>
      <trkpt lat="48.69919" lon="2.04692">
        <ele>123</ele>
        <time>2019-03-14T10:29:11Z</time>
      </trkpt>
      <trkpt lat="48.69921" lon="2.04684">
        <ele>124</ele>
        <time>2019-03-14T10:29:15Z</time>
      </trkpt>
      <trkpt lat="48.6992" lon="2.04675">
        <ele>125</ele>
        <time>2019-03-14T10:29:21Z</time>
      </trkpt>
      <trkpt lat="48.69921" lon="2.04665">
        <ele>127</ele>
        <time>2019-03-14T10:29:29Z</time>
      </trkpt>
      <trkpt lat="48.69917" lon="2.0466">
        <ele>127</ele>
        <time>2019-03-14T10:29:33Z</time>
      </trkpt>
      <trkpt lat="48.69922" lon="2.04651">
        <ele>126</ele>
        <time>2019-03-14T10:29:37Z</time>
      </trkpt>
      <trkpt lat="48.69925" lon="2.04642">
        <ele>125</ele>
        <time>2019-03-14T10:29:41Z</time>
      </trkpt>
      <trkpt lat="48.69931" lon="2.04634">
        <ele>125</ele>
        <time>2019-03-14T10:29:45Z</time>
      </trkpt>
      <trkpt lat="48.69935" lon="2.04629">
        <ele>125</ele>
        <time>2019-03-14T10:29:47Z</time>
      </trkpt>
      <trkpt lat="48.69937" lon="2.04623">
        <ele>125</ele>
        <time>2019-03-14T10:29:51Z</time>
      </trkpt>
      <trkpt lat="48.6994" lon="2.04616">
        <ele>125</ele>
        <time>2019-03-14T10:29:55Z</time>
      </trkpt>
      <trkpt lat="48.69941" lon="2.04607">
        <ele>126</ele>
        <time>2019-03-14T10:30:01Z</time>
      </trkpt>
      <trkpt lat="48.69946" lon="2.046">
        <ele>126</ele>
        <time>2019-03-14T10:30:07Z</time>
      </trkpt>
      <trkpt lat="48.69949" lon="2.04594">
        <ele>125</ele>
        <time>2019-03-14T10:30:11Z</time>
      </trkpt>
      <trkpt lat="48.69955" lon="2.04586">
        <ele>125</ele>
        <time>2019-03-14T10:30:17Z</time>
      </trkpt>
      <trkpt lat="48.69963" lon="2.0458">
        <ele>128</ele>
        <time>2019-03-14T10:30:21Z</time>
      </trkpt>
      <trkpt lat="48.69967" lon="2.04576">
        <ele>127</ele>
        <time>2019-03-14T10:30:25Z</time>
      </trkpt>
      <trkpt lat="48.69972" lon="2.04573">
        <ele>126</ele>
        <time>2019-03-14T10:30:31Z</time>
      </trkpt>
      <trkpt lat="48.69971" lon="2.04566">
        <ele>127</ele>
        <time>2019-03-14T10:30:41Z</time>
      </trkpt>
      <trkpt lat="48.69975" lon="2.04563">
        <ele>127</ele>
        <time>2019-03-14T10:30:51Z</time>
      </trkpt>
      <trkpt lat="48.69979" lon="2.04554">
        <ele>127</ele>
        <time>2019-03-14T10:30:57Z</time>
      </trkpt>
      <trkpt lat="48.69982" lon="2.04546">
        <ele>127</ele>
        <time>2019-03-14T10:31:03Z</time>
      </trkpt>
      <trkpt lat="48.69987" lon="2.04541">
        <ele>127</ele>
        <time>2019-03-14T10:31:11Z</time>
      </trkpt>
      <trkpt lat="48.69989" lon="2.04534">
        <ele>127</ele>
        <time>2019-03-14T10:31:15Z</time>
      </trkpt>
      <trkpt lat="48.69993" lon="2.04532">
        <ele>127</ele>
        <time>2019-03-14T10:31:19Z</time>
      </trkpt>
      <trkpt lat="48.69999" lon="2.04528">
        <ele>127</ele>
        <time>2019-03-14T10:31:25Z</time>
      </trkpt>
      <trkpt lat="48.70004" lon="2.04518">
        <ele>117</ele>
        <time>2019-03-14T10:31:29Z</time>
      </trkpt>
      <trkpt lat="48.70011" lon="2.04513">
        <ele>117</ele>
        <time>2019-03-14T10:31:33Z</time>
      </trkpt>
      <trkpt lat="48.70017" lon="2.0451">
        <ele>116</ele>
        <time>2019-03-14T10:31:41Z</time>
      </trkpt>
      <trkpt lat="48.7002" lon="2.04504">
        <ele>116</ele>
        <time>2019-03-14T10:32:05Z</time>
      </trkpt>
      <trkpt lat="48.70023" lon="2.04498">
        <ele>119</ele>
        <time>2019-03-14T10:32:27Z</time>
      </trkpt>
      <trkpt lat="48.70027" lon="2.04496">
        <ele>118</ele>
        <time>2019-03-14T10:32:31Z</time>
      </trkpt>
      <trkpt lat="48.70029" lon="2.04488">
        <ele>118</ele>
        <time>2019-03-14T10:32:41Z</time>
      </trkpt>
      <trkpt lat="48.7003" lon="2.04481">
        <ele>118</ele>
        <time>2019-03-14T10:32:51Z</time>
      </trkpt>
      <trkpt lat="48.70031" lon="2.04472">
        <ele>118</ele>
        <time>2019-03-14T10:32:57Z</time>
      </trkpt>
      <trkpt lat="48.7003" lon="2.04465">
        <ele>118</ele>
        <time>2019-03-14T10:33:03Z</time>
      </trkpt>
      <trkpt lat="48.70027" lon="2.04458">
        <ele>119</ele>
        <time>2019-03-14T10:33:11Z</time>
      </trkpt>
      <trkpt lat="48.70028" lon="2.04451">
        <ele>120</ele>
        <time>2019-03-14T10:33:17Z</time>
      </trkpt>
      <trkpt lat="48.70033" lon="2.04443">
        <ele>120</ele>
        <time>2019-03-14T10:33:21Z</time>
      </trkpt>
      <trkpt lat="48.70034" lon="2.04433">
        <ele>120</ele>
        <time>2019-03-14T10:33:25Z</time>
      </trkpt>
      <trkpt lat="48.70038" lon="2.04427">
        <ele>120</ele>
        <time>2019-03-14T10:33:31Z</time>
      </trkpt>
      <trkpt lat="48.70038" lon="2.0442">
        <ele>120</ele>
        <time>2019-03-14T10:33:37Z</time>
      </trkpt>
      <trkpt lat="48.70042" lon="2.04414">
        <ele>124</ele>
        <time>2019-03-14T10:33:41Z</time>
      </trkpt>
      <trkpt lat="48.70043" lon="2.04408">
        <ele>123</ele>
        <time>2019-03-14T10:33:45Z</time>
      </trkpt>
      <trkpt lat="48.70044" lon="2.044">
        <ele>124</ele>
        <time>2019-03-14T10:33:49Z</time>
      </trkpt>
      <trkpt lat="48.70043" lon="2.04393">
        <ele>124</ele>
        <time>2019-03-14T10:33:53Z</time>
      </trkpt>
      <trkpt lat="48.70043" lon="2.04385">
        <ele>124</ele>
        <time>2019-03-14T10:33:57Z</time>
      </trkpt>
      <trkpt lat="48.7004" lon="2.04378">
        <ele>125</ele>
        <time>2019-03-14T10:34:01Z</time>
      </trkpt>
      <trkpt lat="48.7004" lon="2.0437">
        <ele>125</ele>
        <time>2019-03-14T10:34:05Z</time>
      </trkpt>
      <trkpt lat="48.70039" lon="2.04361">
        <ele>125</ele>
        <time>2019-03-14T10:34:11Z</time>
      </trkpt>
      <trkpt lat="48.70038" lon="2.04354">
        <ele>126</ele>
        <time>2019-03-14T10:34:15Z</time>
      </trkpt>
      <trkpt lat="48.70039" lon="2.04345">
        <ele>126</ele>
        <time>2019-03-14T10:34:21Z</time>
      </trkpt>
      <trkpt lat="48.70037" lon="2.04338">
        <ele>126</ele>
        <time>2019-03-14T10:34:25Z</time>
      </trkpt>
      <trkpt lat="48.70036" lon="2.0433">
        <ele>128</ele>
        <time>2019-03-14T10:34:29Z</time>
      </trkpt>
      <trkpt lat="48.70035" lon="2.0432">
        <ele>128</ele>
        <time>2019-03-14T10:34:33Z</time>
      </trkpt>
      <trkpt lat="48.70035" lon="2.04311">
        <ele>128</ele>
        <time>2019-03-14T10:34:37Z</time>
      </trkpt>
      <trkpt lat="48.70035" lon="2.04302">
        <ele>128</ele>
        <time>2019-03-14T10:34:41Z</time>
      </trkpt>
      <trkpt lat="48.70037" lon="2.04291">
        <ele>128</ele>
        <time>2019-03-14T10:34:45Z</time>
      </trkpt>
      <trkpt lat="48.70038" lon="2.04281">
        <ele>128</ele>
        <time>2019-03-14T10:34:51Z</time>
      </trkpt>
      <trkpt lat="48.70042" lon="2.04266">
        <ele>127</ele>
        <time>2019-03-14T10:34:55Z</time>
      </trkpt>
      <trkpt lat="48.70043" lon="2.04256">
        <ele>127</ele>
        <time>2019-03-14T10:34:59Z</time>
      </trkpt>
      <trkpt lat="48.70042" lon="2.04248">
        <ele>128</ele>
        <time>2019-03-14T10:35:03Z</time>
      </trkpt>
      <trkpt lat="48.70041" lon="2.04239">
        <ele>128</ele>
        <time>2019-03-14T10:35:05Z</time>
      </trkpt>
      <trkpt lat="48.70041" lon="2.04229">
        <ele>128</ele>
        <time>2019-03-14T10:35:09Z</time>
      </trkpt>
      <trkpt lat="48.7004" lon="2.0422">
        <ele>128</ele>
        <time>2019-03-14T10:35:13Z</time>
      </trkpt>
      <trkpt lat="48.70041" lon="2.04213">
        <ele>128</ele>
        <time>2019-03-14T10:35:19Z</time>
      </trkpt>
      <trkpt lat="48.70039" lon="2.04202">
        <ele>128</ele>
        <time>2019-03-14T10:35:25Z</time>
      </trkpt>
      <trkpt lat="48.70036" lon="2.04194">
        <ele>129</ele>
        <time>2019-03-14T10:35:29Z</time>
      </trkpt>
      <trkpt lat="48.70034" lon="2.04188">
        <ele>129</ele>
        <time>2019-03-14T10:35:33Z</time>
      </trkpt>
      <trkpt lat="48.7003" lon="2.04181">
        <ele>130</ele>
        <time>2019-03-14T10:35:37Z</time>
      </trkpt>
      <trkpt lat="48.70026" lon="2.0417">
        <ele>131</ele>
        <time>2019-03-14T10:35:41Z</time>
      </trkpt>
      <trkpt lat="48.70023" lon="2.04163">
        <ele>130</ele>
        <time>2019-03-14T10:35:45Z</time>
      </trkpt>
      <trkpt lat="48.70022" lon="2.04154">
        <ele>130</ele>
        <time>2019-03-14T10:35:49Z</time>
      </trkpt>
      <trkpt lat="48.70019" lon="2.04149">
        <ele>130</ele>
        <time>2019-03-14T10:35:51Z</time>
      </trkpt>
      <trkpt lat="48.70017" lon="2.04139">
        <ele>129</ele>
        <time>2019-03-14T10:35:55Z</time>
      </trkpt>
      <trkpt lat="48.70014" lon="2.04132">
        <ele>129</ele>
        <time>2019-03-14T10:35:59Z</time>
      </trkpt>
      <trkpt lat="48.70012" lon="2.04125">
        <ele>129</ele>
        <time>2019-03-14T10:36:03Z</time>
      </trkpt>
      <trkpt lat="48.70008" lon="2.04122">
        <ele>129</ele>
        <time>2019-03-14T10:36:09Z</time>
      </trkpt>
      <trkpt lat="48.70005" lon="2.04112">
        <ele>129</ele>
        <time>2019-03-14T10:36:15Z</time>
      </trkpt>
      <trkpt lat="48.70001" lon="2.04106">
        <ele>129</ele>
        <time>2019-03-14T10:36:19Z</time>
      </trkpt>
      <trkpt lat="48.69998" lon="2.04097">
        <ele>137</ele>
        <time>2019-03-14T10:36:23Z</time>
      </trkpt>
      <trkpt lat="48.69997" lon="2.0409">
        <ele>135</ele>
        <time>2019-03-14T10:36:29Z</time>
      </trkpt>
      <trkpt lat="48.69998" lon="2.04083">
        <ele>132</ele>
        <time>2019-03-14T10:36:49Z</time>
      </trkpt>
      <trkpt lat="48.69998" lon="2.04074">
        <ele>133</ele>
        <time>2019-03-14T10:37:37Z</time>
      </trkpt>
      <trkpt lat="48.69991" lon="2.04069">
        <ele>135</ele>
        <time>2019-03-14T10:37:49Z</time>
      </trkpt>
      <trkpt lat="48.69988" lon="2.04063">
        <ele>136</ele>
        <time>2019-03-14T10:37:57Z</time>
      </trkpt>
      <trkpt lat="48.69982" lon="2.0406">
        <ele>136</ele>
        <time>2019-03-14T10:38:01Z</time>
      </trkpt>
      <trkpt lat="48.69976" lon="2.04053">
        <ele>137</ele>
        <time>2019-03-14T10:38:09Z</time>
      </trkpt>
      <trkpt lat="48.69972" lon="2.04048">
        <ele>138</ele>
        <time>2019-03-14T10:38:13Z</time>
      </trkpt>
      <trkpt lat="48.69968" lon="2.04045">
        <ele>138</ele>
        <time>2019-03-14T10:38:17Z</time>
      </trkpt>
      <trkpt lat="48.69963" lon="2.0404">
        <ele>138</ele>
        <time>2019-03-14T10:38:21Z</time>
      </trkpt>
      <trkpt lat="48.69957" lon="2.04037">
        <ele>139</ele>
        <time>2019-03-14T10:38:25Z</time>
      </trkpt>
      <trkpt lat="48.69951" lon="2.04036">
        <ele>140</ele>
        <time>2019-03-14T10:38:29Z</time>
      </trkpt>
      <trkpt lat="48.69946" lon="2.04033">
        <ele>140</ele>
        <time>2019-03-14T10:38:33Z</time>
      </trkpt>
      <trkpt lat="48.6994" lon="2.0403">
        <ele>141</ele>
        <time>2019-03-14T10:38:37Z</time>
      </trkpt>
      <trkpt lat="48.69933" lon="2.04028">
        <ele>141</ele>
        <time>2019-03-14T10:38:43Z</time>
      </trkpt>
      <trkpt lat="48.69928" lon="2.04026">
        <ele>142</ele>
        <time>2019-03-14T10:38:49Z</time>
      </trkpt>
      <trkpt lat="48.69924" lon="2.04023">
        <ele>142</ele>
        <time>2019-03-14T10:38:53Z</time>
      </trkpt>
      <trkpt lat="48.69919" lon="2.04016">
        <ele>143</ele>
        <time>2019-03-14T10:39:01Z</time>
      </trkpt>
      <trkpt lat="48.69911" lon="2.04016">
        <ele>151</ele>
        <time>2019-03-14T10:39:07Z</time>
      </trkpt>
      <trkpt lat="48.69905" lon="2.04011">
        <ele>151</ele>
        <time>2019-03-14T10:39:13Z</time>
      </trkpt>
      <trkpt lat="48.69899" lon="2.04007">
        <ele>152</ele>
        <time>2019-03-14T10:39:17Z</time>
      </trkpt>
      <trkpt lat="48.69895" lon="2.04005">
        <ele>153</ele>
        <time>2019-03-14T10:39:23Z</time>
      </trkpt>
      <trkpt lat="48.6989" lon="2.04002">
        <ele>154</ele>
        <time>2019-03-14T10:39:29Z</time>
      </trkpt>
      <trkpt lat="48.69884" lon="2.04002">
        <ele>155</ele>
        <time>2019-03-14T10:39:35Z</time>
      </trkpt>
      <trkpt lat="48.69878" lon="2.03997">
        <ele>152</ele>
        <time>2019-03-14T10:39:43Z</time>
      </trkpt>
      <trkpt lat="48.69874" lon="2.03992">
        <ele>152</ele>
        <time>2019-03-14T10:39:49Z</time>
      </trkpt>
      <trkpt lat="48.69865" lon="2.03989">
        <ele>154</ele>
        <time>2019-03-14T10:39:55Z</time>
      </trkpt>
      <trkpt lat="48.69858" lon="2.03986">
        <ele>155</ele>
        <time>2019-03-14T10:39:59Z</time>
      </trkpt>
      <trkpt lat="48.69851" lon="2.03981">
        <ele>156</ele>
        <time>2019-03-14T10:40:03Z</time>
      </trkpt>
      <trkpt lat="48.69845" lon="2.03977">
        <ele>156</ele>
        <time>2019-03-14T10:40:07Z</time>
      </trkpt>
      <trkpt lat="48.69839" lon="2.03974">
        <ele>156</ele>
        <time>2019-03-14T10:40:13Z</time>
      </trkpt>
      <trkpt lat="48.69834" lon="2.03969">
        <ele>156</ele>
        <time>2019-03-14T10:40:17Z</time>
      </trkpt>
      <trkpt lat="48.69828" lon="2.03964">
        <ele>165</ele>
        <time>2019-03-14T10:40:25Z</time>
      </trkpt>
      <trkpt lat="48.69824" lon="2.0396">
        <ele>165</ele>
        <time>2019-03-14T10:40:31Z</time>
      </trkpt>
      <trkpt lat="48.69818" lon="2.03956">
        <ele>166</ele>
        <time>2019-03-14T10:40:35Z</time>
      </trkpt>
      <trkpt lat="48.69811" lon="2.03952">
        <ele>166</ele>
        <time>2019-03-14T10:40:41Z</time>
      </trkpt>
      <trkpt lat="48.69806" lon="2.03949">
        <ele>166</ele>
        <time>2019-03-14T10:40:45Z</time>
      </trkpt>
      <trkpt lat="48.698" lon="2.03944">
        <ele>166</ele>
        <time>2019-03-14T10:40:51Z</time>
      </trkpt>
      <trkpt lat="48.69795" lon="2.0394">
        <ele>167</ele>
        <time>2019-03-14T10:40:55Z</time>
      </trkpt>
      <trkpt lat="48.69788" lon="2.03935">
        <ele>167</ele>
        <time>2019-03-14T10:40:59Z</time>
      </trkpt>
      <trkpt lat="48.69783" lon="2.03932">
        <ele>167</ele>
        <time>2019-03-14T10:41:05Z</time>
      </trkpt>
      <trkpt lat="48.69779" lon="2.03929">
        <ele>168</ele>
        <time>2019-03-14T10:41:11Z</time>
      </trkpt>
      <trkpt lat="48.69777" lon="2.03923">
        <ele>168</ele>
        <time>2019-03-14T10:41:37Z</time>
      </trkpt>
      <trkpt lat="48.69779" lon="2.03916">
        <ele>166</ele>
        <time>2019-03-14T10:42:03Z</time>
      </trkpt>
      <trkpt lat="48.69775" lon="2.03915">
        <ele>167</ele>
        <time>2019-03-14T10:42:47Z</time>
      </trkpt>
      <trkpt lat="48.6977" lon="2.03912">
        <ele>168</ele>
        <time>2019-03-14T10:42:55Z</time>
      </trkpt>
      <trkpt lat="48.69766" lon="2.0391">
        <ele>168</ele>
        <time>2019-03-14T10:43:01Z</time>
      </trkpt>
      <trkpt lat="48.69761" lon="2.03906">
        <ele>169</ele>
        <time>2019-03-14T10:43:07Z</time>
      </trkpt>
      <trkpt lat="48.69756" lon="2.03904">
        <ele>169</ele>
        <time>2019-03-14T10:43:11Z</time>
      </trkpt>
      <trkpt lat="48.69749" lon="2.03899">
        <ele>172</ele>
        <time>2019-03-14T10:43:19Z</time>
      </trkpt>
      <trkpt lat="48.69742" lon="2.03896">
        <ele>172</ele>
        <time>2019-03-14T10:43:23Z</time>
      </trkpt>
      <trkpt lat="48.69735" lon="2.03891">
        <ele>172</ele>
        <time>2019-03-14T10:43:27Z</time>
      </trkpt>
      <trkpt lat="48.69729" lon="2.03887">
        <ele>172</ele>
        <time>2019-03-14T10:43:31Z</time>
      </trkpt>
      <trkpt lat="48.69723" lon="2.03883">
        <ele>172</ele>
        <time>2019-03-14T10:43:37Z</time>
      </trkpt>
      <trkpt lat="48.69717" lon="2.03879">
        <ele>171</ele>
        <time>2019-03-14T10:43:43Z</time>
      </trkpt>
      <trkpt lat="48.69713" lon="2.03876">
        <ele>171</ele>
        <time>2019-03-14T10:43:49Z</time>
      </trkpt>
      <trkpt lat="48.69704" lon="2.03872">
        <ele>171</ele>
        <time>2019-03-14T10:43:53Z</time>
      </trkpt>
      <trkpt lat="48.69696" lon="2.03867">
        <ele>171</ele>
        <time>2019-03-14T10:43:59Z</time>
      </trkpt>
      <trkpt lat="48.69689" lon="2.03864">
        <ele>171</ele>
        <time>2019-03-14T10:44:03Z</time>
      </trkpt>
      <trkpt lat="48.69685" lon="2.03861">
        <ele>171</ele>
        <time>2019-03-14T10:44:07Z</time>
      </trkpt>
      <trkpt lat="48.69681" lon="2.03857">
        <ele>171</ele>
        <time>2019-03-14T10:44:11Z</time>
      </trkpt>
      <trkpt lat="48.69676" lon="2.03853">
        <ele>171</ele>
        <time>2019-03-14T10:44:13Z</time>
      </trkpt>
      <trkpt lat="48.69668" lon="2.03851">
        <ele>171</ele>
        <time>2019-03-14T10:44:17Z</time>
      </trkpt>
      <trkpt lat="48.69663" lon="2.03846">
        <ele>171</ele>
        <time>2019-03-14T10:44:25Z</time>
      </trkpt>
      <trkpt lat="48.69659" lon="2.03842">
        <ele>171</ele>
        <time>2019-03-14T10:44:29Z</time>
      </trkpt>
      <trkpt lat="48.69653" lon="2.03838">
        <ele>171</ele>
        <time>2019-03-14T10:44:33Z</time>
      </trkpt>
      <trkpt lat="48.69647" lon="2.03835">
        <ele>171</ele>
        <time>2019-03-14T10:44:37Z</time>
      </trkpt>
      <trkpt lat="48.69642" lon="2.03831">
        <ele>171</ele>
        <time>2019-03-14T10:44:41Z</time>
      </trkpt>
      <trkpt lat="48.69637" lon="2.03829">
        <ele>171</ele>
        <time>2019-03-14T10:44:45Z</time>
      </trkpt>
      <trkpt lat="48.69629" lon="2.03825">
        <ele>171</ele>
        <time>2019-03-14T10:44:49Z</time>
      </trkpt>
      <trkpt lat="48.69624" lon="2.0382">
        <ele>171</ele>
        <time>2019-03-14T10:44:53Z</time>
      </trkpt>
      <trkpt lat="48.6962" lon="2.03816">
        <ele>171</ele>
        <time>2019-03-14T10:44:59Z</time>
      </trkpt>
      <trkpt lat="48.69615" lon="2.03813">
        <ele>171</ele>
        <time>2019-03-14T10:45:03Z</time>
      </trkpt>
      <trkpt lat="48.69607" lon="2.03808">
        <ele>171</ele>
        <time>2019-03-14T10:45:07Z</time>
      </trkpt>
      <trkpt lat="48.69602" lon="2.03805">
        <ele>171</ele>
        <time>2019-03-14T10:45:11Z</time>
      </trkpt>
      <trkpt lat="48.69595" lon="2.03801">
        <ele>171</ele>
        <time>2019-03-14T10:45:15Z</time>
      </trkpt>
      <trkpt lat="48.69591" lon="2.03798">
        <ele>171</ele>
        <time>2019-03-14T10:45:19Z</time>
      </trkpt>
      <trkpt lat="48.69582" lon="2.03794">
        <ele>170</ele>
        <time>2019-03-14T10:45:23Z</time>
      </trkpt>
      <trkpt lat="48.69577" lon="2.03792">
        <ele>170</ele>
        <time>2019-03-14T10:45:25Z</time>
      </trkpt>
      <trkpt lat="48.6957" lon="2.03788">
        <ele>169</ele>
        <time>2019-03-14T10:45:29Z</time>
      </trkpt>
      <trkpt lat="48.69565" lon="2.03784">
        <ele>169</ele>
        <time>2019-03-14T10:45:33Z</time>
      </trkpt>
      <trkpt lat="48.69562" lon="2.0378">
        <ele>169</ele>
        <time>2019-03-14T10:45:37Z</time>
      </trkpt>
      <trkpt lat="48.69558" lon="2.03776">
        <ele>169</ele>
        <time>2019-03-14T10:45:41Z</time>
      </trkpt>
      <trkpt lat="48.69552" lon="2.0377">
        <ele>169</ele>
        <time>2019-03-14T10:45:47Z</time>
      </trkpt>
      <trkpt lat="48.69548" lon="2.03767">
        <ele>169</ele>
        <time>2019-03-14T10:45:49Z</time>
      </trkpt>
      <trkpt lat="48.69543" lon="2.03761">
        <ele>169</ele>
        <time>2019-03-14T10:45:53Z</time>
      </trkpt>
      <trkpt lat="48.69539" lon="2.03756">
        <ele>169</ele>
        <time>2019-03-14T10:45:57Z</time>
      </trkpt>
      <trkpt lat="48.69534" lon="2.03751">
        <ele>168</ele>
        <time>2019-03-14T10:46:01Z</time>
      </trkpt>
      <trkpt lat="48.69527" lon="2.03747">
        <ele>167</ele>
        <time>2019-03-14T10:46:05Z</time>
      </trkpt>
      <trkpt lat="48.69522" lon="2.03744">
        <ele>167</ele>
        <time>2019-03-14T10:46:13Z</time>
      </trkpt>
      <trkpt lat="48.69517" lon="2.03741">
        <ele>167</ele>
        <time>2019-03-14T10:46:17Z</time>
      </trkpt>
      <trkpt lat="48.69512" lon="2.03737">
        <ele>166</ele>
        <time>2019-03-14T10:46:21Z</time>
      </trkpt>
      <trkpt lat="48.69506" lon="2.03732">
        <ele>166</ele>
        <time>2019-03-14T10:46:25Z</time>
      </trkpt>
      <trkpt lat="48.69499" lon="2.0373">
        <ele>165</ele>
        <time>2019-03-14T10:46:29Z</time>
      </trkpt>
      <trkpt lat="48.69494" lon="2.03728">
        <ele>165</ele>
        <time>2019-03-14T10:46:33Z</time>
      </trkpt>
      <trkpt lat="48.69489" lon="2.03727">
        <ele>165</ele>
        <time>2019-03-14T10:46:37Z</time>
      </trkpt>
      <trkpt lat="48.69483" lon="2.03724">
        <ele>165</ele>
        <time>2019-03-14T10:46:41Z</time>
      </trkpt>
      <trkpt lat="48.69478" lon="2.03724">
        <ele>164</ele>
        <time>2019-03-14T10:46:45Z</time>
      </trkpt>
      <trkpt lat="48.69473" lon="2.03724">
        <ele>164</ele>
        <time>2019-03-14T10:46:51Z</time>
      </trkpt>
      <trkpt lat="48.69468" lon="2.03722">
        <ele>164</ele>
        <time>2019-03-14T10:46:57Z</time>
      </trkpt>
      <trkpt lat="48.69462" lon="2.03721">
        <ele>164</ele>
        <time>2019-03-14T10:47:03Z</time>
      </trkpt>
      <trkpt lat="48.69455" lon="2.0372">
        <ele>164</ele>
        <time>2019-03-14T10:47:09Z</time>
      </trkpt>
      <trkpt lat="48.69451" lon="2.03716">
        <ele>164</ele>
        <time>2019-03-14T10:47:25Z</time>
      </trkpt>
    </trkseg>
  </trk>
</gpx>